Darstellungsparameter: Aktuell verwendete Einstellungen:
Skalierung der Graphiken ... ?
xyx+y,   Skalierungsfaktor:      Skalierung: Modus: x, Faktor: 1
Darstellungszeitraum ... ?
Vom - - bis: - -   Zeitraum: 13.02.2009 - 12.05.2009
Min/Max/Avg-Anzeige ... ?
Zeige MMA aktuell
Zeige MMA Monat
Zeige MMA alles
Zeige --A aktuell
Zeige --A Monat
Zeige --A alles
Keine MMA-Anzeige
MMA:
Average (ber die Originaldaten)
MMA-Basis: 17.04.2019 - 19.05.2019
Quicknavigation für Darstellung... ?
Tage:      1T, 2T, 3T, 5T -1T -2T -3T -5T +1T +2T +3T +5T
Wochen: 1W, 2W, 3W -1W -2W -3W +1W +2W +3W
Monate: 1M, 3M, 6M -1M -3M -6M +1M +3M +6M
Jahre:    1J, 3J, 5J, 10J -1J -3J -5J -10J +1J +3J +5J +10J
Nutze für die Darstellung ... ?
Originaldaten oder Mittelwerte auf ...
Stundenbasis Tagesbasis Wochenbasis
Monatsbasis Jahresbasis      Datenbasis: Original-Daten
Darstellen als:
Statistik (Auto) Statistik J:M      Darstellung:
Zur Graphik,    zurück zur Übersicht aller Sensoren.
 
Tabellarische Datenbersicht: ?
 
<
Sensor: Nr:Datum:Temp:Abs-Feuchte:Windchill:Wind:
Aussen-T/F 1 13-02-2009 00:00:17 -1.5 C 3.84 g/m*3 -1.5 C 0 km/h
2 13-02-2009 00:12:17 -1.6 C 3.81 g/m*3 -1.6 C 0 km/h
3 13-02-2009 00:24:17 -1.2 C 3.97 g/m*3 -1.2 C 0 km/h
4 13-02-2009 00:36:17 -1.1 C 4 g/m*3 -1.1 C 0 km/h
5 13-02-2009 00:48:18 -1 C 4.02 g/m*3 -1 C 0 km/h
6 13-02-2009 01:00:18 -0.9 C 4.05 g/m*3 -0.9 C 0 km/h
7 13-02-2009 01:12:18 -0.7 C 4.11 g/m*3 -0.7 C 0 km/h
8 13-02-2009 01:24:18 -0.5 C 4.17 g/m*3 -0.5 C 0 km/h
9 13-02-2009 01:36:18 -0.4 C 4.19 g/m*3 -0.4 C 0 km/h
10 13-02-2009 01:48:18 -0.4 C 4.19 g/m*3 -0.4 C 0 km/h
11 13-02-2009 02:00:18 -0.4 C 4.19 g/m*3 -0.4 C 0 km/h
12 13-02-2009 02:12:18 -0.3 C 4.22 g/m*3 -0.3 C 0 km/h
13 13-02-2009 02:24:18 -0.3 C 4.22 g/m*3 -0.3 C 0 km/h
14 13-02-2009 02:36:18 -0.3 C 4.22 g/m*3 -0.3 C 0 km/h
15 13-02-2009 02:48:18 -0.2 C 4.25 g/m*3 -0.2 C 0 km/h
16 13-02-2009 03:00:18 -0.3 C 4.18 g/m*3 -0.3 C 0 km/h
17 13-02-2009 03:12:18 -0.3 C 4.18 g/m*3 -0.3 C 0 km/h
18 13-02-2009 03:24:18 -0.3 C 4.18 g/m*3 -0.3 C 0 km/h
19 13-02-2009 03:36:18 -0.3 C 4.18 g/m*3 -0.3 C 0 km/h
20 13-02-2009 03:48:18 -0.3 C 4.18 g/m*3 -0.3 C 0 km/h
21 13-02-2009 04:00:18 -0.3 C 4.18 g/m*3 -0.3 C 0 km/h
22 13-02-2009 04:12:18 -0.3 C 4.18 g/m*3 -0.3 C 0 km/h
23 13-02-2009 04:24:18 -0.4 C 4.1 g/m*3 -0.4 C 0 km/h
24 13-02-2009 04:36:19 -0.4 C 4.1 g/m*3 -0.4 C 0 km/h
25 13-02-2009 04:48:19 -0.4 C 4.1 g/m*3 -0.4 C 0 km/h
Sensor: Nr:Datum:Temp:Abs-Feuchte:Windchill:Wind:
Aussen-T/F 26 13-02-2009 05:00:19 -0.4 C 4.1 g/m*3 -0.4 C 0 km/h
27 13-02-2009 05:12:19 -0.5 C 4.03 g/m*3 -0.5 C 0 km/h
28 13-02-2009 05:24:19 -0.6 C 4 g/m*3 -0.6 C 0 km/h
29 13-02-2009 05:36:19 -0.6 C 3.95 g/m*3 -0.6 C 0 km/h
30 13-02-2009 05:48:19 -0.5 C 3.98 g/m*3 -0.5 C 0 km/h
31 13-02-2009 06:00:19 -0.4 C 3.96 g/m*3 -0.4 C 0 km/h
32 13-02-2009 06:12:19 -0.4 C 3.96 g/m*3 -0.4 C 0 km/h
33 13-02-2009 06:24:19 -0.3 C 3.94 g/m*3 -0.3 C 0 km/h
34 13-02-2009 06:36:19 -0.4 C 3.91 g/m*3 -0.4 C 0 km/h
35 13-02-2009 06:48:19 -0.4 C 3.86 g/m*3 -0.4 C 0 km/h
36 13-02-2009 07:00:08 -0.4 C 3.86 g/m*3 -0.4 C 0 km/h
37 13-02-2009 07:12:17 -0.5 C 3.84 g/m*3 -0.5 C 0 km/h
38 13-02-2009 07:24:18 -0.5 C 3.84 g/m*3 -0.5 C 0 km/h
39 13-02-2009 07:36:17 -0.5 C 3.88 g/m*3 -0.5 C 0 km/h
40 13-02-2009 07:48:17 -0.5 C 3.84 g/m*3 -0.5 C 0 km/h
41 13-02-2009 08:00:16 -0.5 C 3.84 g/m*3 -0.5 C 0 km/h
42 13-02-2009 08:12:16 -0.5 C 3.84 g/m*3 -0.5 C 0 km/h
43 13-02-2009 08:24:17 -0.5 C 3.84 g/m*3 -0.5 C 0 km/h
44 13-02-2009 08:36:16 -0.5 C 3.84 g/m*3 -0.5 C 0 km/h
45 13-02-2009 08:48:16 -0.4 C 3.86 g/m*3 -0.4 C 0 km/h
46 13-02-2009 09:00:16 -0.4 C 3.86 g/m*3 -0.4 C 0 km/h
47 13-02-2009 09:12:16 -0.3 C 3.84 g/m*3 -0.3 C 0 km/h
48 13-02-2009 09:24:16 -0.1 C 3.9 g/m*3 -0.1 C 0 km/h
49 13-02-2009 09:36:16 0.1 C 3.9 g/m*3 0.1 C 0 km/h
50 13-02-2009 09:48:16 0.1 C 3.9 g/m*3 0.1 C 0 km/h
Sensor: Nr:Datum:Temp:Abs-Feuchte:Windchill:Wind:
Aussen-T/F 51 13-02-2009 10:00:15 0.1 C 3.85 g/m*3 0.1 C 0 km/h
52 13-02-2009 10:12:15 0.2 C 3.88 g/m*3 0.2 C 0 km/h
53 13-02-2009 10:24:16 0.4 C 3.93 g/m*3 0.4 C 0 km/h
54 13-02-2009 10:36:15 0.4 C 3.88 g/m*3 0.4 C 0 km/h
55 13-02-2009 10:48:15 0.5 C 3.91 g/m*3 0.5 C 0 km/h
56 13-02-2009 11:00:15 0.6 C 3.94 g/m*3 0.6 C 0 km/h
57 13-02-2009 11:12:15 0.7 C 3.97 g/m*3 0.7 C 0 km/h
58 13-02-2009 11:24:15 0.9 C 4.02 g/m*3 0.9 C 0 km/h
59 13-02-2009 11:36:15 1.1 C 4.02 g/m*3 1.1 C 0 km/h
60 13-02-2009 11:48:15 1.2 C 4 g/m*3 1.2 C 0 km/h
61 13-02-2009 12:00:15 1.3 C 4.08 g/m*3 1.3 C 0 km/h
62 13-02-2009 12:12:15 1.4 C 4.11 g/m*3 1.4 C 0 km/h
63 13-02-2009 12:24:14 1.6 C 4.11 g/m*3 1.6 C 0 km/h
64 13-02-2009 12:36:14 1.8 C 4.11 g/m*3 1.8 C 0 km/h
65 13-02-2009 12:48:14 1.8 C 4.06 g/m*3 1.8 C 0 km/h
66 13-02-2009 13:00:14 1.8 C 4.11 g/m*3 1.8 C 0 km/h
67 13-02-2009 13:12:14 1.7 C 4.14 g/m*3 1.7 C 0 km/h
68 13-02-2009 13:24:13 1.5 C 4.19 g/m*3 1.5 C 0 km/h
69 13-02-2009 13:36:14 1.7 C 4.3 g/m*3 1.7 C 0 km/h
70 13-02-2009 13:48:13 1.8 C 4.28 g/m*3 1.8 C 0 km/h
71 13-02-2009 14:00:13 2.1 C 4.25 g/m*3 2.1 C 0 km/h
72 13-02-2009 14:12:13 2.3 C 4.25 g/m*3 2.3 C 0 km/h
73 13-02-2009 14:24:14 2.3 C 4.25 g/m*3 2.3 C 0 km/h
74 13-02-2009 14:36:13 2.3 C 4.25 g/m*3 2.3 C 0 km/h
75 13-02-2009 14:48:13 2.4 C 4.28 g/m*3 2.4 C 0 km/h
Sensor: Nr:Datum:Temp:Abs-Feuchte:Windchill:Wind:
Aussen-T/F 76 13-02-2009 15:00:12 2.2 C 4.28 g/m*3 2.2 C 0 km/h
77 13-02-2009 15:12:12 2.2 C 4.34 g/m*3 2.2 C 0 km/h
78 13-02-2009 15:24:13 2 C 4.28 g/m*3 2 C 0 km/h
79 13-02-2009 15:36:12 2 C 4.39 g/m*3 2 C 0 km/h
80 13-02-2009 15:48:12 2 C 4.39 g/m*3 2 C 0 km/h
81 13-02-2009 16:00:12 1.8 C 4.33 g/m*3 1.8 C 0 km/h
82 13-02-2009 16:12:12 1.7 C 4.3 g/m*3 1.7 C 0 km/h
83 13-02-2009 16:24:12 1.7 C 4.3 g/m*3 1.7 C 0 km/h
84 13-02-2009 16:36:12 1.5 C 4.24 g/m*3 1.5 C 0 km/h
85 13-02-2009 16:48:12 1.4 C 4.27 g/m*3 1.4 C 0 km/h
86 13-02-2009 17:00:12 1.4 C 4.32 g/m*3 1.4 C 0 km/h
87 13-02-2009 17:12:12 1.4 C 4.27 g/m*3 1.4 C 0 km/h
88 13-02-2009 17:24:11 1.4 C 4.27 g/m*3 1.4 C 0 km/h
89 13-02-2009 17:36:12 1.2 C 4.16 g/m*3 1.2 C 0 km/h
90 13-02-2009 17:48:11 1.2 C 4.16 g/m*3 1.2 C 0 km/h
91 13-02-2009 18:00:11 1.2 C 4.1 g/m*3 1.2 C 0 km/h
92 13-02-2009 18:12:11 1.2 C 4.05 g/m*3 1.2 C 0 km/h
93 13-02-2009 18:24:11 1.2 C 4.05 g/m*3 1.2 C 0 km/h
94 13-02-2009 18:36:11 1.2 C 4 g/m*3 1.2 C 0 km/h
95 13-02-2009 18:48:10 1.3 C 3.92 g/m*3 1.3 C 0 km/h
96 13-02-2009 19:00:10 1.4 C 3.84 g/m*3 1.4 C 0 km/h
97 13-02-2009 19:12:10 1.4 C 3.84 g/m*3 1.4 C 0 km/h
98 13-02-2009 19:24:11 1.2 C 3.74 g/m*3 1.2 C 0 km/h
99 13-02-2009 19:36:10 1.3 C 3.66 g/m*3 1.3 C 0 km/h
100 13-02-2009 19:48:10 1.2 C 3.58 g/m*3 1.2 C 0 km/h
Sensor: Nr:Datum:Temp:Abs-Feuchte:Windchill:Wind:
Aussen-T/F 101 13-02-2009 20:00:10 1.2 C 3.58 g/m*3 1.2 C 0 km/h
102 13-02-2009 20:12:10 1.1 C 3.61 g/m*3 1.1 C 0 km/h
103 13-02-2009 20:24:10 1 C 3.63 g/m*3 1 C 0 km/h
104 13-02-2009 20:36:10 1 C 3.74 g/m*3 1 C 0 km/h
105 13-02-2009 20:48:09 0.9 C 3.81 g/m*3 0.9 C 0 km/h
106 13-02-2009 21:00:09 0.9 C 3.76 g/m*3 0.9 C 0 km/h
107 13-02-2009 21:12:09 1 C 3.74 g/m*3 1 C 0 km/h
108 13-02-2009 21:24:09 0.9 C 3.81 g/m*3 0.9 C 0 km/h
109 13-02-2009 21:36:09 0.7 C 3.97 g/m*3 0.7 C 0 km/h
110 13-02-2009 21:48:08 0.6 C 4.04 g/m*3 0.6 C 0 km/h
111 13-02-2009 22:01:09 0.6 C 4.09 g/m*3 0.6 C 0 km/h
112 13-02-2009 22:13:09 0.6 C 4.14 g/m*3 0.6 C 0 km/h
113 13-02-2009 22:25:09 0.4 C 4.13 g/m*3 0.4 C 0 km/h
114 13-02-2009 22:37:09 0.4 C 4.23 g/m*3 0.4 C 0 km/h
115 13-02-2009 22:49:09 0.4 C 4.23 g/m*3 0.4 C 0 km/h
116 13-02-2009 23:01:10 0.4 C 4.28 g/m*3 0.4 C 0 km/h
117 13-02-2009 23:13:10 0.4 C 4.28 g/m*3 0.4 C 0 km/h
118 13-02-2009 23:25:10 0.4 C 4.28 g/m*3 0.4 C 0 km/h
119 13-02-2009 23:37:10 0.5 C 4.31 g/m*3 0.5 C 0 km/h
120 13-02-2009 23:49:10 0.6 C 4.29 g/m*3 0.6 C 0 km/h
121 14-02-2009 00:01:10 0.4 C 4.18 g/m*3 0.4 C 0 km/h
122 14-02-2009 00:13:10 0.4 C 4.18 g/m*3 0.4 C 0 km/h
123 14-02-2009 00:25:10 0.5 C 4.21 g/m*3 0.5 C 0 km/h
124 14-02-2009 00:37:10 0.6 C 4.19 g/m*3 0.6 C 0 km/h
125 14-02-2009 00:49:10 0.5 C 4.16 g/m*3 0.5 C 0 km/h
Sensor: Nr:Datum:Temp:Abs-Feuchte:Windchill:Wind:
Aussen-T/F 126 14-02-2009 01:01:10 0.5 C 4.16 g/m*3 0.5 C 0 km/h
127 14-02-2009 01:13:10 0.5 C 4.16 g/m*3 0.5 C 0 km/h
128 14-02-2009 01:25:10 0.4 C 4.13 g/m*3 0.4 C 0 km/h
129 14-02-2009 01:37:10 0.5 C 4.11 g/m*3 0.5 C 0 km/h
130 14-02-2009 01:49:10 0.5 C 4.06 g/m*3 0.5 C 0 km/h
131 14-02-2009 02:01:10 0.6 C 4.04 g/m*3 0.6 C 0 km/h
132 14-02-2009 02:13:10 0.5 C 3.96 g/m*3 0.5 C 0 km/h
133 14-02-2009 02:25:10 0.3 C 4.01 g/m*3 0.3 C 0 km/h
134 14-02-2009 02:37:10 0.2 C 4.08 g/m*3 0.2 C 0 km/h
135 14-02-2009 02:49:11 0.2 C 4.18 g/m*3 0.2 C 0 km/h
136 14-02-2009 03:01:11 0.2 C 4.18 g/m*3 0.2 C 0 km/h
137 14-02-2009 03:13:11 0.3 C 4.2 g/m*3 0.3 C 0 km/h
138 14-02-2009 03:25:11 0.2 C 4.18 g/m*3 0.2 C 0 km/h
139 14-02-2009 03:37:11 0.1 C 4.15 g/m*3 0.1 C 0 km/h
140 14-02-2009 03:49:11 0.1 C 4.2 g/m*3 0.1 C 0 km/h
141 14-02-2009 04:01:11 0.2 C 4.22 g/m*3 0.2 C 0 km/h
142 14-02-2009 04:13:11 0.2 C 4.27 g/m*3 0.2 C 0 km/h
143 14-02-2009 04:25:11 0.2 C 4.27 g/m*3 0.2 C 0 km/h
144 14-02-2009 04:37:11 0.2 C 4.32 g/m*3 0.2 C 0 km/h
145 14-02-2009 04:49:11 0.2 C 4.32 g/m*3 0.2 C 0 km/h
146 14-02-2009 05:01:11 0.2 C 4.32 g/m*3 0.2 C 0 km/h
147 14-02-2009 05:13:11 0.1 C 4.29 g/m*3 0.1 C 0 km/h
148 14-02-2009 05:25:11 0.2 C 4.32 g/m*3 0.2 C 0 km/h
149 14-02-2009 05:37:11 0.2 C 4.32 g/m*3 0.2 C 0 km/h
150 14-02-2009 05:49:11 0.2 C 4.32 g/m*3 0.2 C 0 km/h
Sensor: Nr:Datum:Temp:Abs-Feuchte:Windchill:Wind:
Aussen-T/F 151 14-02-2009 06:01:11 0.2 C 4.32 g/m*3 0.2 C 0 km/h
152 14-02-2009 06:13:11 0.2 C 4.27 g/m*3 0.2 C 0 km/h
153 14-02-2009 06:25:11 0.2 C 4.27 g/m*3 0.2 C 0 km/h
154 14-02-2009 06:37:12 0.2 C 4.22 g/m*3 0.2 C 0 km/h
155 14-02-2009 06:49:12 0.2 C 4.22 g/m*3 0.2 C 0 km/h
156 14-02-2009 07:01:12 0.2 C 4.22 g/m*3 0.2 C 0 km/h
157 14-02-2009 07:13:12 0.1 C 4.2 g/m*3 0.1 C 0 km/h
158 14-02-2009 07:25:12 0.1 C 4.2 g/m*3 0.1 C 0 km/h
159 14-02-2009 07:37:12 0.2 C 4.22 g/m*3 0.2 C 0 km/h
160 14-02-2009 07:49:10 0.3 C 4.25 g/m*3 0.3 C 0 km/h
161 14-02-2009 08:01:09 0.4 C 4.23 g/m*3 0.4 C 0 km/h
162 14-02-2009 08:13:09 0.5 C 4.16 g/m*3 0.5 C 0 km/h
163 14-02-2009 08:25:09 0.4 C 4.08 g/m*3 0.4 C 0 km/h
164 14-02-2009 08:37:09 0.3 C 3.96 g/m*3 0.3 C 0 km/h
165 14-02-2009 08:49:09 0.2 C 3.88 g/m*3 0.2 C 0 km/h
166 14-02-2009 09:01:08 0.2 C 3.83 g/m*3 0.2 C 0 km/h
167 14-02-2009 09:13:08 0.2 C 3.83 g/m*3 0.2 C 0 km/h
168 14-02-2009 09:25:08 0.4 C 3.88 g/m*3 0.4 C 0 km/h
169 14-02-2009 09:37:09 0.3 C 3.86 g/m*3 0.3 C 0 km/h
170 14-02-2009 09:49:08 0.3 C 3.86 g/m*3 0.3 C 0 km/h
171 14-02-2009 10:01:08 0.4 C 3.84 g/m*3 0.4 C 0 km/h
172 14-02-2009 10:13:08 0.2 C 3.68 g/m*3 0.2 C 0 km/h
173 14-02-2009 10:25:08 0.1 C 3.61 g/m*3 0.1 C 0 km/h
174 14-02-2009 10:37:08 0.3 C 3.56 g/m*3 0.3 C 0 km/h
175 14-02-2009 10:49:07 0.6 C 3.53 g/m*3 0.6 C 0 km/h
Sensor: Nr:Datum:Temp:Abs-Feuchte:Windchill:Wind:
Aussen-T/F 176 14-02-2009 11:01:08 0.8 C 3.38 g/m*3 0.8 C 0 km/h
177 14-02-2009 11:13:08 0.6 C 3.38 g/m*3 0.6 C 0 km/h
178 14-02-2009 11:25:07 0.9 C 3.45 g/m*3 0.9 C 0 km/h
179 14-02-2009 11:37:07 0.8 C 3.28 g/m*3 0.8 C 0 km/h
180 14-02-2009 11:49:07 0.8 C 3.23 g/m*3 0.8 C 0 km/h
181 14-02-2009 12:01:07 0.9 C 3.14 g/m*3 0.9 C 0 km/h
182 14-02-2009 12:13:07 0.9 C 3.2 g/m*3 0.9 C 0 km/h
183 14-02-2009 12:25:07 1.4 C 3.15 g/m*3 1.4 C 0 km/h
184 14-02-2009 12:37:06 1.5 C 3.06 g/m*3 1.5 C 0 km/h
185 14-02-2009 12:49:07 2 C 3.06 g/m*3 2 C 0 km/h
186 14-02-2009 13:01:06 1.8 C 2.85 g/m*3 1.8 C 0 km/h
187 14-02-2009 13:13:06 2.4 C 2.91 g/m*3 2.4 C 0 km/h
188 14-02-2009 13:25:06 2.6 C 2.84 g/m*3 2.6 C 0 km/h
189 14-02-2009 13:37:06 2.9 C 2.72 g/m*3 2.9 C 0 km/h
190 14-02-2009 13:49:06 3.1 C 2.63 g/m*3 3.1 C 0 km/h
191 14-02-2009 14:01:05 3.4 C 2.57 g/m*3 3.4 C 0 km/h
192 14-02-2009 14:13:05 3.7 C 2.55 g/m*3 3.7 C 0 km/h
193 14-02-2009 14:25:06 3.7 C 2.62 g/m*3 3.7 C 0 km/h
194 14-02-2009 14:37:06 3.8 C 2.7 g/m*3 3.8 C 0 km/h
195 14-02-2009 14:49:05 3.6 C 2.72 g/m*3 3.6 C 0 km/h
196 14-02-2009 15:01:06 4.1 C 2.69 g/m*3 4.1 C 0 km/h
197 14-02-2009 15:13:06 4.2 C 2.58 g/m*3 4.2 C 0 km/h
198 14-02-2009 15:25:05 3.6 C 2.66 g/m*3 3.6 C 0 km/h
199 14-02-2009 15:37:05 3.3 C 2.67 g/m*3 3.3 C 0 km/h
200 14-02-2009 15:49:05 2.9 C 2.66 g/m*3 2.9 C 0 km/h
Sensor: Nr:Datum:Temp:Abs-Feuchte:Windchill:Wind:
Aussen-T/F 201 14-02-2009 16:01:05 2.9 C 2.66 g/m*3 2.9 C 0 km/h
202 14-02-2009 16:13:05 3.2 C 2.65 g/m*3 3.2 C 0 km/h
203 14-02-2009 16:25:04 3.3 C 2.49 g/m*3 3.3 C 0 km/h
204 14-02-2009 16:37:04 3.9 C 2.65 g/m*3 3.9 C 0 km/h
205 14-02-2009 16:49:04 3.9 C 2.46 g/m*3 3.9 C 0 km/h
206 14-02-2009 17:01:04 3.3 C 2.43 g/m*3 3.3 C 0 km/h
207 14-02-2009 17:13:04 2.6 C 2.55 g/m*3 2.6 C 0 km/h
208 14-02-2009 17:25:04 2.2 C 2.59 g/m*3 2.2 C 0 km/h
209 14-02-2009 17:37:04 1.5 C 2.52 g/m*3 1.5 C 0 km/h
210 14-02-2009 17:49:04 0.8 C 2.51 g/m*3 0.8 C 0 km/h
211 14-02-2009 18:01:03 0.4 C 2.59 g/m*3 0.4 C 0 km/h
212 14-02-2009 18:13:03 0.2 C 2.55 g/m*3 0.2 C 0 km/h
213 14-02-2009 18:25:04 0.2 C 2.46 g/m*3 0.2 C 0 km/h
214 14-02-2009 18:37:03 -0.1 C 2.41 g/m*3 -0.1 C 0 km/h
215 14-02-2009 18:49:03 -0.3 C 2.42 g/m*3 -0.3 C 0 km/h
216 14-02-2009 19:01:03 -0.3 C 2.42 g/m*3 -0.3 C 0 km/h
217 14-02-2009 19:13:03 -0.8 C 2.48 g/m*3 -0.8 C 0 km/h
218 14-02-2009 19:25:03 -0.9 C 2.55 g/m*3 -0.9 C 0 km/h
219 14-02-2009 19:37:03 -1 C 2.67 g/m*3 -1 C 0 km/h
220 14-02-2009 19:49:03 -1.2 C 2.67 g/m*3 -1.2 C 0 km/h
221 14-02-2009 20:01:03 -1.3 C 2.74 g/m*3 -1.3 C 0 km/h
222 14-02-2009 20:13:03 -1.4 C 2.77 g/m*3 -1.4 C 0 km/h
223 14-02-2009 20:25:02 -1.6 C 2.77 g/m*3 -1.6 C 0 km/h
224 14-02-2009 20:37:02 -1.8 C 2.78 g/m*3 -1.8 C 0 km/h
225 14-02-2009 20:49:02 -2 C 2.78 g/m*3 -2 C 0 km/h
Sensor: Nr:Datum:Temp:Abs-Feuchte:Windchill:Wind:
Aussen-T/F 226 14-02-2009 21:01:01 -2.1 C 2.76 g/m*3 -2.1 C 0 km/h
227 14-02-2009 21:13:01 -2.3 C 2.72 g/m*3 -2.3 C 0 km/h
228 14-02-2009 21:25:02 -2.4 C 2.75 g/m*3 -2.4 C 0 km/h
229 14-02-2009 21:37:02 -2.6 C 2.75 g/m*3 -2.6 C 0 km/h
230 14-02-2009 21:49:01 -2.3 C 2.89 g/m*3 -2.3 C 0 km/h
231 14-02-2009 22:01:02 -2.2 C 2.91 g/m*3 -2.2 C 0 km/h
232 14-02-2009 22:13:02 -2.3 C 2.89 g/m*3 -2.3 C 0 km/h
233 14-02-2009 22:25:01 -2.4 C 2.87 g/m*3 -2.4 C 0 km/h
234 14-02-2009 22:37:01 -2.3 C 2.93 g/m*3 -2.3 C 0 km/h
235 14-02-2009 22:49:01 -2.3 C 2.89 g/m*3 -2.3 C 0 km/h
236 14-02-2009 23:01:01 -2.2 C 2.91 g/m*3 -2.2 C 0 km/h
237 14-02-2009 23:13:02 -2.5 C 2.85 g/m*3 -2.5 C 0 km/h
238 14-02-2009 23:25:00 -2.6 C 2.83 g/m*3 -2.6 C 0 km/h
239 14-02-2009 23:37:00 -2.8 C 2.83 g/m*3 -2.8 C 0 km/h
240 14-02-2009 23:49:00 -2.9 C 2.81 g/m*3 -2.9 C 0 km/h
241 15-02-2009 00:01:00 -2.9 C 2.85 g/m*3 -2.9 C 0 km/h
242 15-02-2009 00:13:00 -3.1 C 2.81 g/m*3 -3.1 C 0 km/h
243 15-02-2009 00:25:00 -3.3 C 2.77 g/m*3 -3.3 C 0 km/h
244 15-02-2009 00:37:00 -3.5 C 2.73 g/m*3 -3.5 C 0 km/h
245 15-02-2009 00:49:59 -3.5 C 2.77 g/m*3 -3.5 C 0 km/h
246 15-02-2009 01:12:59 -3.6 C 2.79 g/m*3 -3.6 C 0 km/h
247 15-02-2009 01:13:00 -3.7 C 2.77 g/m*3 -3.7 C 0 km/h
248 15-02-2009 01:25:00 -3.8 C 2.75 g/m*3 -3.8 C 0 km/h
249 15-02-2009 01:37:59 -3.9 C 2.76 g/m*3 -3.9 C 0 km/h
250 15-02-2009 01:49:59 -4 C 2.74 g/m*3 -4 C 0 km/h
Sensor: Nr:Datum:Temp:Abs-Feuchte:Windchill:Wind:
Aussen-T/F 251 15-02-2009 02:01:59 -4 C 2.78 g/m*3 -4 C 0 km/h
252 15-02-2009 02:13:59 -4.1 C 2.76 g/m*3 -4.1 C 0 km/h
253 15-02-2009 02:26:00 -4.2 C 2.78 g/m*3 -4.2 C 0 km/h
254 15-02-2009 02:37:58 -4.2 C 2.78 g/m*3 -4.2 C 0 km/h
255 15-02-2009 02:51:01 -4.4 C 2.74 g/m*3 -4.4 C 0 km/h
256 15-02-2009 03:03:01 -4.5 C 2.72 g/m*3 -4.5 C 0 km/h
257 15-02-2009 03:15:01 -4.6 C 2.73 g/m*3 -4.6 C 0 km/h
258 15-02-2009 03:27:01 -4.7 C 2.71 g/m*3 -4.7 C 0 km/h
259 15-02-2009 03:39:01 -4.7 C 2.71 g/m*3 -4.7 C 0 km/h
260 15-02-2009 03:51:01 -4.8 C 2.69 g/m*3 -4.8 C 0 km/h
261 15-02-2009 04:03:02 -4.9 C 2.68 g/m*3 -4.9 C 0 km/h
262 15-02-2009 04:15:01 -5 C 2.66 g/m*3 -5 C 0 km/h
263 15-02-2009 04:27:01 -5.2 C 2.62 g/m*3 -5.2 C 0 km/h
264 15-02-2009 04:39:02 -5.2 C 2.62 g/m*3 -5.2 C 0 km/h
265 15-02-2009 04:51:02 -5.5 C 2.56 g/m*3 -5.5 C 0 km/h
266 15-02-2009 05:02:59 -5.6 C 2.54 g/m*3 -5.6 C 0 km/h
267 15-02-2009 05:14:59 -5.4 C 2.58 g/m*3 -5.4 C 0 km/h
268 15-02-2009 05:26:59 -5.5 C 2.59 g/m*3 -5.5 C 0 km/h
269 15-02-2009 05:38:58 -5.6 C 2.54 g/m*3 -5.6 C 0 km/h
270 15-02-2009 05:50:58 -5.7 C 2.52 g/m*3 -5.7 C 0 km/h
271 15-02-2009 06:02:59 -5.7 C 2.56 g/m*3 -5.7 C 0 km/h
272 15-02-2009 06:14:59 -5.8 C 2.54 g/m*3 -5.8 C 0 km/h
273 15-02-2009 06:26:59 -5.8 C 2.54 g/m*3 -5.8 C 0 km/h
274 15-02-2009 06:38:58 -6 C 2.5 g/m*3 -6 C 0 km/h
275 15-02-2009 06:50:59 -6 C 2.5 g/m*3 -6 C 0 km/h
Sensor: Nr:Datum:Temp:Abs-Feuchte:Windchill:Wind:
Aussen-T/F 276 15-02-2009 07:02:58 -6.1 C 2.48 g/m*3 -6.1 C 0 km/h
277 15-02-2009 07:14:58 -6.1 C 2.48 g/m*3 -6.1 C 0 km/h
278 15-02-2009 07:26:59 -6.2 C 2.47 g/m*3 -6.2 C 0 km/h
279 15-02-2009 07:38:57 -6.3 C 2.45 g/m*3 -6.3 C 0 km/h
280 15-02-2009 07:50:58 -6.3 C 2.45 g/m*3 -6.3 C 0 km/h
281 15-02-2009 08:02:57 -6.3 C 2.45 g/m*3 -6.3 C 0 km/h
282 15-02-2009 08:14:57 -6.2 C 2.47 g/m*3 -6.2 C 0 km/h
283 15-02-2009 08:26:57 -6 C 2.5 g/m*3 -6 C 0 km/h
284 15-02-2009 08:38:58 -5.9 C 2.52 g/m*3 -5.9 C 0 km/h
285 15-02-2009 08:50:57 -5.6 C 2.58 g/m*3 -5.6 C 0 km/h
286 15-02-2009 09:02:57 -5.3 C 2.63 g/m*3 -5.3 C 0 km/h
287 15-02-2009 09:14:57 -5 C 2.69 g/m*3 -5 C 0 km/h
288 15-02-2009 09:26:57 -4.8 C 2.69 g/m*3 -4.8 C 0 km/h
289 15-02-2009 09:38:57 -4.6 C 2.7 g/m*3 -4.6 C 0 km/h
290 15-02-2009 09:50:56 -4.4 C 2.7 g/m*3 -4.4 C 0 km/h
291 15-02-2009 10:02:57 -4.2 C 2.7 g/m*3 -4.2 C 0 km/h
292 15-02-2009 10:14:56 -3.9 C 2.76 g/m*3 -3.9 C 0 km/h
293 15-02-2009 10:26:56 -3.5 C 2.77 g/m*3 -3.5 C 0 km/h
294 15-02-2009 10:38:56 -3.1 C 2.77 g/m*3 -3.1 C 0 km/h
295 15-02-2009 10:50:55 -2.9 C 2.77 g/m*3 -2.9 C 0 km/h
296 15-02-2009 11:02:56 -2.5 C 2.81 g/m*3 -2.5 C 0 km/h
297 15-02-2009 11:14:56 -2 C 2.82 g/m*3 -2 C 0 km/h
298 15-02-2009 11:26:56 -1.6 C 2.82 g/m*3 -1.6 C 0 km/h
299 15-02-2009 11:38:55 -1.2 C 2.85 g/m*3 -1.2 C 0 km/h
300 15-02-2009 11:50:56 -0.9 C 2.87 g/m*3 -0.9 C 0 km/h
Sensor: Nr:Datum:Temp:Abs-Feuchte:Windchill:Wind:
Aussen-T/F 301 15-02-2009 12:02:55 -0.4 C 2.92 g/m*3 -0.4 C 0 km/h
302 15-02-2009 12:14:55 -0.1 C 2.89 g/m*3 -0.1 C 0 km/h
303 15-02-2009 12:26:55 0.3 C 2.92 g/m*3 0.3 C 0 km/h
304 15-02-2009 12:38:55 0.8 C 3.02 g/m*3 0.8 C 0 km/h
305 15-02-2009 12:50:55 1 C 2.85 g/m*3 1 C 0 km/h
306 15-02-2009 13:02:55 1.5 C 2.79 g/m*3 1.5 C 0 km/h
307 15-02-2009 13:14:54 1.8 C 2.69 g/m*3 1.8 C 0 km/h
308 15-02-2009 13:26:54 1.8 C 2.58 g/m*3 1.8 C 0 km/h
309 15-02-2009 13:38:55 2 C 2.56 g/m*3 2 C 0 km/h
310 15-02-2009 13:50:54 1.8 C 2.52 g/m*3 1.8 C 0 km/h
311 15-02-2009 14:02:54 2 C 2.5 g/m*3 2 C 0 km/h
312 15-02-2009 14:14:54 2.1 C 2.52 g/m*3 2.1 C 0 km/h
313 15-02-2009 14:26:54 2.1 C 2.52 g/m*3 2.1 C 0 km/h
314 15-02-2009 14:38:54 2.2 C 2.53 g/m*3 2.2 C 0 km/h
315 15-02-2009 14:50:53 2.2 C 2.53 g/m*3 2.2 C 0 km/h
316 15-02-2009 15:02:54 2.3 C 2.5 g/m*3 2.3 C 0 km/h
317 15-02-2009 15:14:53 2.4 C 2.51 g/m*3 2.4 C 0 km/h
318 15-02-2009 15:26:53 2.4 C 2.57 g/m*3 2.4 C 0 km/h
319 15-02-2009 15:38:54 2.5 C 2.59 g/m*3 2.5 C 0 km/h
320 15-02-2009 15:50:53 2.4 C 2.57 g/m*3 2.4 C 0 km/h
321 15-02-2009 16:02:53 2.4 C 2.57 g/m*3 2.4 C 0 km/h
322 15-02-2009 16:14:53 2.3 C 2.55 g/m*3 2.3 C 0 km/h
323 15-02-2009 16:26:54 2.2 C 2.59 g/m*3 2.2 C 0 km/h
324 15-02-2009 16:38:52 2.1 C 2.63 g/m*3 2.1 C 0 km/h
325 15-02-2009 16:50:53 2 C 2.67 g/m*3 2 C 0 km/h
Sensor: Nr:Datum:Temp:Abs-Feuchte:Windchill:Wind:
Aussen-T/F 326 15-02-2009 17:02:52 1.8 C 2.74 g/m*3 1.8 C 0 km/h
327 15-02-2009 17:14:52 1.6 C 2.7 g/m*3 1.6 C 0 km/h
328 15-02-2009 17:26:52 1.6 C 2.7 g/m*3 1.6 C 0 km/h
329 15-02-2009 17:38:52 1.4 C 2.67 g/m*3 1.4 C 0 km/h
330 15-02-2009 17:50:52 1.2 C 2.68 g/m*3 1.2 C 0 km/h
331 15-02-2009 18:02:52 1.2 C 2.68 g/m*3 1.2 C 0 km/h
332 15-02-2009 18:14:51 1.1 C 2.67 g/m*3 1.1 C 0 km/h
333 15-02-2009 18:26:51 0.9 C 2.73 g/m*3 0.9 C 0 km/h
334 15-02-2009 18:38:52 0.7 C 2.75 g/m*3 0.7 C 0 km/h
335 15-02-2009 18:50:51 0.7 C 2.75 g/m*3 0.7 C 0 km/h
336 15-02-2009 19:02:51 0.7 C 2.69 g/m*3 0.7 C 0 km/h
337 15-02-2009 19:14:51 0.8 C 2.76 g/m*3 0.8 C 0 km/h
338 15-02-2009 19:26:51 1 C 2.7 g/m*3 1 C 0 km/h
339 15-02-2009 19:38:51 1.1 C 2.67 g/m*3 1.1 C 0 km/h
340 15-02-2009 19:50:50 1.2 C 2.68 g/m*3 1.2 C 0 km/h
341 15-02-2009 20:02:51 1.3 C 2.65 g/m*3 1.3 C 0 km/h
342 15-02-2009 20:14:51 1.4 C 2.67 g/m*3 1.4 C 0 km/h
343 15-02-2009 20:26:51 1.4 C 2.67 g/m*3 1.4 C 0 km/h
344 15-02-2009 20:38:50 1.4 C 2.67 g/m*3 1.4 C 0 km/h
345 15-02-2009 20:50:51 1.4 C 2.72 g/m*3 1.4 C 0 km/h
346 15-02-2009 21:02:50 1.3 C 2.86 g/m*3 1.3 C 0 km/h
347 15-02-2009 21:14:50 1.2 C 3 g/m*3 1.2 C 0 km/h
348 15-02-2009 21:26:50 1 C 3.11 g/m*3 1 C 0 km/h
349 15-02-2009 21:38:49 0.8 C 3.28 g/m*3 0.8 C 0 km/h
350 15-02-2009 21:50:00 0.8 C 3.33 g/m*3 0.8 C 0 km/h
Sensor: Nr:Datum:Temp:Abs-Feuchte:Windchill:Wind:
Aussen-T/F 351 15-02-2009 22:03:51 0.6 C 3.43 g/m*3 0.6 C 0 km/h
352 15-02-2009 22:15:51 0.5 C 3.51 g/m*3 0.5 C 0 km/h
353 15-02-2009 22:27:51 0.5 C 3.61 g/m*3 0.5 C 0 km/h
354 15-02-2009 22:39:51 0.5 C 3.61 g/m*3 0.5 C 0 km/h
355 15-02-2009 22:51:51 0.4 C 3.64 g/m*3 0.4 C 0 km/h
356 15-02-2009 23:03:51 0.4 C 3.74 g/m*3 0.4 C 0 km/h
357 15-02-2009 23:15:51 0.3 C 3.76 g/m*3 0.3 C 0 km/h
358 15-02-2009 23:27:51 0.3 C 3.81 g/m*3 0.3 C 0 km/h
359 15-02-2009 23:39:51 0.2 C 3.83 g/m*3 0.2 C 0 km/h
360 15-02-2009 23:51:51 0.2 C 3.83 g/m*3 0.2 C 0 km/h
361 16-02-2009 00:03:51 0.2 C 3.83 g/m*3 0.2 C 0 km/h
362 16-02-2009 00:15:51 0.2 C 3.88 g/m*3 0.2 C 0 km/h
363 16-02-2009 00:27:51 0.1 C 3.9 g/m*3 0.1 C 0 km/h
364 16-02-2009 00:39:51 0.1 C 4 g/m*3 0.1 C 0 km/h
365 16-02-2009 00:51:51 0 C 4.02 g/m*3 0 C 0 km/h
366 16-02-2009 01:03:51 0 C 4.02 g/m*3 0 C 0 km/h
367 16-02-2009 01:15:51 0 C 4.02 g/m*3 0 C 0 km/h
368 16-02-2009 01:27:51 0 C 4.02 g/m*3 0 C 0 km/h
369 16-02-2009 01:39:52 0 C 4.02 g/m*3 0 C 0 km/h
370 16-02-2009 01:51:52 0 C 4.02 g/m*3 0 C 0 km/h
371 16-02-2009 02:03:52 0 C 4.02 g/m*3 0 C 0 km/h
372 16-02-2009 02:15:52 0.1 C 4 g/m*3 0.1 C 0 km/h
373 16-02-2009 02:27:52 0.1 C 3.95 g/m*3 0.1 C 0 km/h
374 16-02-2009 02:39:52 0.2 C 3.98 g/m*3 0.2 C 0 km/h
375 16-02-2009 02:51:52 0.2 C 3.93 g/m*3 0.2 C 0 km/h
Sensor: Nr:Datum:Temp:Abs-Feuchte:Windchill:Wind:
Aussen-T/F 376 16-02-2009 03:03:52 0.2 C 3.93 g/m*3 0.2 C 0 km/h
377 16-02-2009 03:15:52 0.2 C 3.93 g/m*3 0.2 C 0 km/h
378 16-02-2009 03:27:52 0.2 C 3.93 g/m*3 0.2 C 0 km/h
379 16-02-2009 03:39:52 0.3 C 3.96 g/m*3 0.3 C 0 km/h
380 16-02-2009 03:51:52 0.3 C 3.91 g/m*3 0.3 C 0 km/h
381 16-02-2009 04:03:52 0.3 C 3.86 g/m*3 0.3 C 0 km/h
382 16-02-2009 04:15:52 0.4 C 3.88 g/m*3 0.4 C 0 km/h
383 16-02-2009 04:27:52 0.4 C 3.88 g/m*3 0.4 C 0 km/h
384 16-02-2009 04:39:52 0.4 C 3.88 g/m*3 0.4 C 0 km/h
385 16-02-2009 04:51:52 0.4 C 3.88 g/m*3 0.4 C 0 km/h
386 16-02-2009 05:03:52 0.5 C 3.91 g/m*3 0.5 C 0 km/h
387 16-02-2009 05:15:52 0.5 C 3.91 g/m*3 0.5 C 0 km/h
388 16-02-2009 05:27:52 0.5 C 3.91 g/m*3 0.5 C 0 km/h
389 16-02-2009 05:39:53 0.5 C 3.91 g/m*3 0.5 C 0 km/h
390 16-02-2009 05:51:53 0.4 C 3.88 g/m*3 0.4 C 0 km/h
391 16-02-2009 06:03:53 0.4 C 3.93 g/m*3 0.4 C 0 km/h
392 16-02-2009 06:15:53 0.4 C 4.03 g/m*3 0.4 C 0 km/h
393 16-02-2009 06:27:53 0.3 C 4.06 g/m*3 0.3 C 0 km/h
394 16-02-2009 06:39:53 0.4 C 4.13 g/m*3 0.4 C 0 km/h
395 16-02-2009 06:51:53 0.4 C 4.13 g/m*3 0.4 C 0 km/h
396 16-02-2009 07:03:51 0.4 C 4.18 g/m*3 0.4 C 0 km/h
397 16-02-2009 07:15:50 0.4 C 4.23 g/m*3 0.4 C 0 km/h
398 16-02-2009 07:27:50 0.4 C 4.23 g/m*3 0.4 C 0 km/h
399 16-02-2009 07:39:51 0.4 C 4.23 g/m*3 0.4 C 0 km/h
400 16-02-2009 07:51:50 0.5 C 4.26 g/m*3 0.5 C 0 km/h
Sensor: Nr:Datum:Temp:Abs-Feuchte:Windchill:Wind:
Aussen-T/F 401 16-02-2009 08:03:50 0.5 C 4.26 g/m*3 0.5 C 0 km/h
402 16-02-2009 08:15:50 0.5 C 4.26 g/m*3 0.5 C 0 km/h
403 16-02-2009 08:27:50 0.5 C 4.26 g/m*3 0.5 C 0 km/h
404 16-02-2009 08:39:50 0.6 C 4.29 g/m*3 0.6 C 0 km/h
405 16-02-2009 08:51:49 0.7 C 4.32 g/m*3 0.7 C 0 km/h
406 16-02-2009 09:03:50 0.8 C 4.35 g/m*3 0.8 C 0 km/h
407 16-02-2009 09:15:50 1 C 4.31 g/m*3 1 C 0 km/h
408 16-02-2009 09:27:50 1.1 C 4.34 g/m*3 1.1 C 0 km/h
409 16-02-2009 09:39:49 1.2 C 4.31 g/m*3 1.2 C 0 km/h
410 16-02-2009 09:51:50 1.3 C 4.29 g/m*3 1.3 C 0 km/h
411 16-02-2009 10:03:49 1.3 C 4.24 g/m*3 1.3 C 0 km/h
412 16-02-2009 10:15:49 1.3 C 4.24 g/m*3 1.3 C 0 km/h
413 16-02-2009 10:27:49 1.5 C 4.4 g/m*3 1.5 C 0 km/h
414 16-02-2009 10:39:48 1.5 C 4.46 g/m*3 1.5 C 0 km/h
415 16-02-2009 10:51:49 1.4 C 4.48 g/m*3 1.4 C 0 km/h
416 16-02-2009 11:03:48 1.2 C 4.47 g/m*3 1.2 C 0 km/h
417 16-02-2009 11:15:48 1.5 C 4.62 g/m*3 1.5 C 0 km/h
418 16-02-2009 11:27:48 1.6 C 4.7 g/m*3 1.6 C 0 km/h
419 16-02-2009 11:39:48 1.7 C 4.68 g/m*3 1.7 C 0 km/h
420 16-02-2009 11:51:48 1.8 C 4.71 g/m*3 1.8 C 0 km/h
421 16-02-2009 12:03:48 1.9 C 4.8 g/m*3 1.9 C 0 km/h
422 16-02-2009 12:15:47 2.1 C 4.81 g/m*3 2.1 C 0 km/h
423 16-02-2009 12:27:47 2.3 C 4.88 g/m*3 2.3 C 0 km/h
424 16-02-2009 12:39:48 2.6 C 4.86 g/m*3 2.6 C 0 km/h
425 16-02-2009 12:51:47 2.7 C 4.84 g/m*3 2.7 C 0 km/h
Sensor: Nr:Datum:Temp:Abs-Feuchte:Windchill:Wind:
Aussen-T/F 426 16-02-2009 13:03:47 2.8 C 4.81 g/m*3 2.8 C 0 km/h
427 16-02-2009 13:15:47 3 C 4.82 g/m*3 3 C 0 km/h
428 16-02-2009 13:27:47 3.4 C 4.89 g/m*3 3.4 C 0 km/h
429 16-02-2009 13:39:47 3.8 C 4.89 g/m*3 3.8 C 0 km/h
430 16-02-2009 13:51:46 3.8 C 4.89 g/m*3 3.8 C 0 km/h
431 16-02-2009 14:03:47 3.9 C 4.86 g/m*3 3.9 C 0 km/h
432 16-02-2009 14:15:47 4 C 4.83 g/m*3 4 C 0 km/h
433 16-02-2009 14:27:47 3.8 C 4.83 g/m*3 3.8 C 0 km/h
434 16-02-2009 14:39:46 3.8 C 4.89 g/m*3 3.8 C 0 km/h
435 16-02-2009 14:51:47 3.6 C 4.83 g/m*3 3.6 C 0 km/h
436 16-02-2009 15:03:46 3.5 C 4.86 g/m*3 3.5 C 0 km/h
437 16-02-2009 15:15:46 3.4 C 4.95 g/m*3 3.4 C 0 km/h
438 16-02-2009 15:27:46 3.4 C 5.01 g/m*3 3.4 C 0 km/h
439 16-02-2009 15:39:45 3.4 C 5.07 g/m*3 3.4 C 0 km/h
440 16-02-2009 15:51:46 3.4 C 5.13 g/m*3 3.4 C 0 km/h
441 16-02-2009 16:03:45 3.4 C 5.19 g/m*3 3.4 C 0 km/h
442 16-02-2009 16:15:45 3.4 C 5.19 g/m*3 3.4 C 0 km/h
443 16-02-2009 16:27:45 3.4 C 5.25 g/m*3 3.4 C 0 km/h
444 16-02-2009 16:39:46 3.3 C 5.22 g/m*3 3.3 C 0 km/h
445 16-02-2009 16:51:45 3.3 C 5.28 g/m*3 3.3 C 0 km/h
446 16-02-2009 17:03:45 3.3 C 5.28 g/m*3 3.3 C 0 km/h
447 16-02-2009 17:15:45 3.3 C 5.34 g/m*3 3.3 C 0 km/h
448 16-02-2009 17:27:45 3.2 C 5.3 g/m*3 3.2 C 0 km/h
449 16-02-2009 17:39:45 3.2 C 5.3 g/m*3 3.2 C 0 km/h
450 16-02-2009 17:51:44 3.2 C 5.36 g/m*3 3.2 C 0 km/h
Sensor: Nr:Datum:Temp:Abs-Feuchte:Windchill:Wind:
Aussen-T/F 451 16-02-2009 18:03:45 3.2 C 5.36 g/m*3 3.2 C 0 km/h
452 16-02-2009 18:15:44 3.3 C 5.46 g/m*3 3.3 C 0 km/h
453 16-02-2009 18:27:44 3.3 C 5.46 g/m*3 3.3 C 0 km/h
454 16-02-2009 18:39:44 3.3 C 5.46 g/m*3 3.3 C 0 km/h
455 16-02-2009 18:51:44 3.3 C 5.46 g/m*3 3.3 C 0 km/h
456 16-02-2009 19:03:44 3.4 C 5.56 g/m*3 3.4 C 0 km/h
457 16-02-2009 19:15:44 3.4 C 5.56 g/m*3 3.4 C 0 km/h
458 16-02-2009 19:27:44 3.5 C 5.6 g/m*3 3.5 C 0 km/h
459 16-02-2009 19:39:43 3.4 C 5.56 g/m*3 3.4 C 0 km/h
460 16-02-2009 19:51:44 3.4 C 5.56 g/m*3 3.4 C 0 km/h
461 16-02-2009 20:03:43 3.4 C 5.56 g/m*3 3.4 C 0 km/h
462 16-02-2009 20:15:43 3.6 C 5.63 g/m*3 3.6 C 0 km/h
463 16-02-2009 20:27:43 3.6 C 5.63 g/m*3 3.6 C 0 km/h
464 16-02-2009 20:39:43 3.5 C 5.6 g/m*3 3.5 C 0 km/h
465 16-02-2009 20:51:43 3.5 C 5.6 g/m*3 3.5 C 0 km/h
466 16-02-2009 21:03:43 3.5 C 5.6 g/m*3 3.5 C 0 km/h
467 16-02-2009 21:15:43 3.5 C 5.6 g/m*3 3.5 C 0 km/h
468 16-02-2009 21:27:43 3.6 C 5.63 g/m*3 3.6 C 0 km/h
469 16-02-2009 21:39:42 3.4 C 5.56 g/m*3 3.4 C 0 km/h
470 16-02-2009 21:52:59 3.5 C 5.6 g/m*3 3.5 C 0 km/h
471 16-02-2009 22:04:59 3.3 C 5.52 g/m*3 3.3 C 0 km/h
472 16-02-2009 22:16:59 3.3 C 5.58 g/m*3 3.3 C 0 km/h
473 16-02-2009 22:28:59 3.3 C 5.58 g/m*3 3.3 C 0 km/h
474 16-02-2009 22:40:59 3.4 C 5.62 g/m*3 3.4 C 0 km/h
475 16-02-2009 22:52:59 3.4 C 5.68 g/m*3 3.4 C 0 km/h
Sensor: Nr:Datum:Temp:Abs-Feuchte:Windchill:Wind:
Aussen-T/F 476 16-02-2009 23:04:59 3.5 C 5.72 g/m*3 3.5 C 0 km/h
477 16-02-2009 23:16:59 3.8 C 5.83 g/m*3 3.8 C 0 km/h
478 16-02-2009 23:28:59 3.9 C 5.87 g/m*3 3.9 C 0 km/h
479 16-02-2009 23:40:59 3.9 C 5.81 g/m*3 3.9 C 0 km/h
480 16-02-2009 23:52:59 4 C 5.79 g/m*3 4 C 0 km/h
481 17-02-2009 00:04:59 4 C 5.79 g/m*3 4 C 0 km/h
482 17-02-2009 00:16:59 4 C 5.79 g/m*3 4 C 0 km/h
483 17-02-2009 00:28:59 3.9 C 5.75 g/m*3 3.9 C 0 km/h
484 17-02-2009 00:40:59 3.9 C 5.81 g/m*3 3.9 C 0 km/h
485 17-02-2009 00:51:59 3.9 C 5.81 g/m*3 3.9 C 0 km/h
486 17-02-2009 01:04:00 3.9 C 5.81 g/m*3 3.9 C 0 km/h
487 17-02-2009 01:16:00 3.9 C 5.81 g/m*3 3.9 C 0 km/h
488 17-02-2009 01:28:00 3.9 C 5.81 g/m*3 3.9 C 0 km/h
489 17-02-2009 01:40:00 4 C 5.85 g/m*3 4 C 0 km/h
490 17-02-2009 01:52:00 3.9 C 5.87 g/m*3 3.9 C 0 km/h
491 17-02-2009 02:04:00 3.9 C 5.87 g/m*3 3.9 C 0 km/h
492 17-02-2009 02:16:00 3.9 C 5.87 g/m*3 3.9 C 0 km/h
493 17-02-2009 02:28:00 3.9 C 5.87 g/m*3 3.9 C 0 km/h
494 17-02-2009 02:40:00 3.9 C 5.87 g/m*3 3.9 C 0 km/h
495 17-02-2009 02:52:00 3.9 C 5.87 g/m*3 3.9 C 0 km/h
496 17-02-2009 03:04:00 4 C 5.91 g/m*3 4 C 0 km/h
497 17-02-2009 03:16:00 4 C 5.91 g/m*3 4 C 0 km/h
498 17-02-2009 03:28:00 4 C 5.91 g/m*3 4 C 0 km/h
499 17-02-2009 03:40:00 4 C 5.91 g/m*3 4 C 0 km/h
500 17-02-2009 03:52:00 4 C 5.91 g/m*3 4 C 0 km/h
Sensor: Nr:Datum:Temp:Abs-Feuchte:Windchill:Wind:
Aussen-T/F 501 17-02-2009 04:04:00 4 C 5.91 g/m*3 4 C 0 km/h
502 17-02-2009 04:16:00 4.1 C 6.02 g/m*3 4.1 C 0 km/h
503 17-02-2009 04:28:00 4.2 C 6.06 g/m*3 4.2 C 0 km/h
504 17-02-2009 04:40:00 4.2 C 6.06 g/m*3 4.2 C 0 km/h
505 17-02-2009 04:52:00 4.3 C 6.1 g/m*3 4.3 C 0 km/h
506 17-02-2009 05:04:00 4.3 C 6.1 g/m*3 4.3 C 0 km/h
507 17-02-2009 05:16:01 4.3 C 6.1 g/m*3 4.3 C 0 km/h
508 17-02-2009 05:28:01 4.4 C 6.14 g/m*3 4.4 C 0 km/h
509 17-02-2009 05:40:01 4.4 C 6.14 g/m*3 4.4 C 0 km/h
510 17-02-2009 05:52:01 4.4 C 6.14 g/m*3 4.4 C 0 km/h
511 17-02-2009 06:04:01 4.5 C 6.18 g/m*3 4.5 C 0 km/h
512 17-02-2009 06:16:01 4.4 C 6.14 g/m*3 4.4 C 0 km/h
513 17-02-2009 06:28:01 4.4 C 6.14 g/m*3 4.4 C 0 km/h
514 17-02-2009 06:40:01 4.4 C 6.14 g/m*3 4.4 C 0 km/h
515 17-02-2009 06:52:01 4.5 C 6.18 g/m*3 4.5 C 0 km/h
516 17-02-2009 07:04:43 4.5 C 6.18 g/m*3 4.5 C 0 km/h
517 17-02-2009 07:16:43 4.7 C 6.33 g/m*3 4.7 C 0 km/h
518 17-02-2009 07:28:43 4.7 C 6.33 g/m*3 4.7 C 0 km/h
519 17-02-2009 07:40:43 4.6 C 6.29 g/m*3 4.6 C 0 km/h
520 17-02-2009 07:52:43 4.7 C 6.33 g/m*3 4.7 C 0 km/h
521 17-02-2009 08:04:42 4.6 C 6.29 g/m*3 4.6 C 0 km/h
522 17-02-2009 08:16:43 4.6 C 6.29 g/m*3 4.6 C 0 km/h
523 17-02-2009 08:28:44 4.8 C 6.37 g/m*3 4.8 C 0 km/h
524 17-02-2009 08:40:42 5 C 6.46 g/m*3 5 C 0 km/h
525 17-02-2009 08:52:42 5.1 C 6.5 g/m*3 5.1 C 0 km/h
Sensor: Nr:Datum:Temp:Abs-Feuchte:Windchill:Wind:
Aussen-T/F 526 17-02-2009 09:04:42 5.3 C 6.58 g/m*3 5.3 C 0 km/h
527 17-02-2009 09:16:42 5.5 C 6.67 g/m*3 5.5 C 0 km/h
528 17-02-2009 09:28:42 5.5 C 6.67 g/m*3 5.5 C 0 km/h
529 17-02-2009 09:40:42 5.6 C 6.72 g/m*3 5.6 C 0 km/h
530 17-02-2009 09:52:42 5.6 C 6.65 g/m*3 5.6 C 0 km/h
531 17-02-2009 10:04:42 5.7 C 6.69 g/m*3 5.7 C 0 km/h
532 17-02-2009 10:16:41 5.7 C 6.69 g/m*3 5.7 C 0 km/h
533 17-02-2009 10:28:41 5.7 C 6.62 g/m*3 5.7 C 0 km/h
534 17-02-2009 10:40:41 6 C 6.68 g/m*3 6 C 0 km/h
535 17-02-2009 10:52:41 6 C 6.68 g/m*3 6 C 0 km/h
536 17-02-2009 11:04:41 5.9 C 6.71 g/m*3 5.9 C 0 km/h
537 17-02-2009 11:16:40 5.9 C 6.71 g/m*3 5.9 C 0 km/h
538 17-02-2009 11:28:40 6 C 6.68 g/m*3 6 C 0 km/h
539 17-02-2009 11:40:41 6 C 6.68 g/m*3 6 C 0 km/h
540 17-02-2009 11:52:41 6 C 6.68 g/m*3 6 C 0 km/h
541 17-02-2009 12:04:40 6.1 C 6.72 g/m*3 6.1 C 0 km/h
542 17-02-2009 12:16:41 6.3 C 6.88 g/m*3 6.3 C 0 km/h
543 17-02-2009 12:28:41 6.3 C 6.88 g/m*3 6.3 C 0 km/h
544 17-02-2009 12:40:40 6.3 C 6.88 g/m*3 6.3 C 0 km/h
545 17-02-2009 12:52:40 6.6 C 7.02 g/m*3 6.6 C 0 km/h
546 17-02-2009 13:04:39 6.7 C 7.07 g/m*3 6.7 C 0 km/h
547 17-02-2009 13:16:40 6.7 C 6.99 g/m*3 6.7 C 0 km/h
548 17-02-2009 13:28:40 6.5 C 6.9 g/m*3 6.5 C 0 km/h
549 17-02-2009 13:40:39 6.5 C 6.9 g/m*3 6.5 C 0 km/h
550 17-02-2009 13:52:39 6.4 C 6.71 g/m*3 6.4 C 0 km/h
Sensor: Nr:Datum:Temp:Abs-Feuchte:Windchill:Wind:
Aussen-T/F 551 17-02-2009 14:04:40 6.4 C 6.71 g/m*3 6.4 C 0 km/h
552 17-02-2009 14:16:39 6.5 C 6.6 g/m*3 6.5 C 0 km/h
553 17-02-2009 14:28:39 6.7 C 6.53 g/m*3 6.7 C 0 km/h
554 17-02-2009 14:40:39 6.8 C 6.35 g/m*3 6.8 C 0 km/h
555 17-02-2009 14:52:39 7 C 6.2 g/m*3 7 C 0 km/h
556 17-02-2009 15:04:39 6.9 C 6.16 g/m*3 6.9 C 0 km/h
557 17-02-2009 15:16:38 6.9 C 6.08 g/m*3 6.9 C 0 km/h
558 17-02-2009 15:28:38 7 C 5.81 g/m*3 7 C 0 km/h
559 17-02-2009 15:40:38 6.9 C 5.93 g/m*3 6.9 C 0 km/h
560 17-02-2009 15:52:38 6.8 C 5.58 g/m*3 6.8 C 0 km/h
561 17-02-2009 16:04:38 5.9 C 5.19 g/m*3 5.9 C 0 km/h
562 17-02-2009 16:16:38 5.5 C 5.06 g/m*3 5.5 C 0 km/h
563 17-02-2009 16:28:38 5.1 C 4.99 g/m*3 5.1 C 0 km/h
564 17-02-2009 16:40:38 4.9 C 5 g/m*3 4.9 C 0 km/h
565 17-02-2009 16:52:38 4.6 C 4.76 g/m*3 4.6 C 0 km/h
566 17-02-2009 17:04:37 4.4 C 4.7 g/m*3 4.4 C 0 km/h
567 17-02-2009 17:16:38 4 C 4.51 g/m*3 4 C 0 km/h
568 17-02-2009 17:28:38 3.7 C 4.42 g/m*3 3.7 C 0 km/h
569 17-02-2009 17:40:37 3.6 C 4.33 g/m*3 3.6 C 0 km/h
570 17-02-2009 17:52:37 3.4 C 4.15 g/m*3 3.4 C 0 km/h
571 17-02-2009 18:04:37 3.1 C 4.07 g/m*3 3.1 C 0 km/h
572 17-02-2009 18:16:37 2.9 C 4.02 g/m*3 2.9 C 0 km/h
573 17-02-2009 18:28:37 2.8 C 4.05 g/m*3 2.8 C 0 km/h
574 17-02-2009 18:40:37 2.5 C 3.97 g/m*3 2.5 C 0 km/h
575 17-02-2009 18:52:37 2.3 C 3.74 g/m*3 2.3 C 0 km/h
Sensor: Nr:Datum:Temp:Abs-Feuchte:Windchill:Wind:
Aussen-T/F 576 17-02-2009 19:04:37 2.1 C 3.41 g/m*3 2.1 C 0 km/h
577 17-02-2009 19:16:36 2.1 C 3.3 g/m*3 2.1 C 0 km/h
578 17-02-2009 19:28:36 1.9 C 3.09 g/m*3 1.9 C 0 km/h
579 17-02-2009 19:40:36 1.6 C 2.97 g/m*3 1.6 C 0 km/h
580 17-02-2009 19:52:36 1.1 C 2.98 g/m*3 1.1 C 0 km/h
581 17-02-2009 20:04:36 0.7 C 2.85 g/m*3 0.7 C 0 km/h
582 17-02-2009 20:16:35 0.3 C 2.67 g/m*3 0.3 C 0 km/h
583 17-02-2009 20:28:35 0 C 2.66 g/m*3 0 C 0 km/h
584 17-02-2009 20:40:36 -0.3 C 2.66 g/m*3 -0.3 C 0 km/h
585 17-02-2009 20:52:35 -0.4 C 2.54 g/m*3 -0.4 C 0 km/h
586 17-02-2009 21:04:36 -0.5 C 2.57 g/m*3 -0.5 C 0 km/h
587 17-02-2009 21:16:35 -0.7 C 2.45 g/m*3 -0.7 C 0 km/h
588 17-02-2009 21:28:35 -0.9 C 2.46 g/m*3 -0.9 C 0 km/h
589 17-02-2009 21:41:36 -1 C 2.44 g/m*3 -1 C 0 km/h
590 17-02-2009 21:53:36 -1.2 C 2.41 g/m*3 -1.2 C 0 km/h
591 17-02-2009 22:05:36 -1.3 C 2.39 g/m*3 -1.3 C 0 km/h
592 17-02-2009 22:17:36 -1.5 C 2.49 g/m*3 -1.5 C 0 km/h
593 17-02-2009 22:29:36 -1.7 C 2.5 g/m*3 -1.7 C 0 km/h
594 17-02-2009 22:41:36 -1.9 C 2.55 g/m*3 -1.9 C 0 km/h
595 17-02-2009 22:53:36 -2 C 2.49 g/m*3 -2 C 0 km/h
596 17-02-2009 23:05:36 -2.2 C 2.49 g/m*3 -2.2 C 0 km/h
597 17-02-2009 23:17:36 -2.3 C 2.48 g/m*3 -2.3 C 0 km/h
598 17-02-2009 23:29:36 -2.4 C 2.5 g/m*3 -2.4 C 0 km/h
599 17-02-2009 23:41:36 -2.6 C 2.51 g/m*3 -2.6 C 0 km/h
600 17-02-2009 23:53:36 -2.6 C 2.51 g/m*3 -2.6 C 0 km/h
Sensor: Nr:Datum:Temp:Abs-Feuchte:Windchill:Wind:
Aussen-T/F 601 18-02-2009 00:05:36 -2.8 C 2.51 g/m*3 -2.8 C 0 km/h
602 18-02-2009 00:17:36 -2.9 C 2.53 g/m*3 -2.9 C 0 km/h
603 18-02-2009 00:29:37 -2.9 C 2.57 g/m*3 -2.9 C 0 km/h
604 18-02-2009 00:41:37 -3 C 2.59 g/m*3 -3 C 0 km/h
605 18-02-2009 00:53:37 -3.2 C 2.52 g/m*3 -3.2 C 0 km/h
606 18-02-2009 01:05:37 -3.3 C 2.5 g/m*3 -3.3 C 0 km/h
607 18-02-2009 01:17:37 -3.4 C 2.48 g/m*3 -3.4 C 0 km/h
608 18-02-2009 01:29:37 -3.5 C 2.5 g/m*3 -3.5 C 0 km/h
609 18-02-2009 01:41:37 -3.5 C 2.5 g/m*3 -3.5 C 0 km/h
610 18-02-2009 01:53:37 -3.6 C 2.48 g/m*3 -3.6 C 0 km/h
611 18-02-2009 02:05:37 -3.7 C 2.47 g/m*3 -3.7 C 0 km/h
612 18-02-2009 02:17:37 -3.7 C 2.5 g/m*3 -3.7 C 0 km/h
613 18-02-2009 02:29:37 -3.7 C 2.54 g/m*3 -3.7 C 0 km/h
614 18-02-2009 02:41:37 -3.8 C 2.52 g/m*3 -3.8 C 0 km/h
615 18-02-2009 02:53:37 -4 C 2.49 g/m*3 -4 C 0 km/h
616 18-02-2009 03:05:37 -4 C 2.52 g/m*3 -4 C 0 km/h
617 18-02-2009 03:17:37 -4.1 C 2.51 g/m*3 -4.1 C 0 km/h
618 18-02-2009 03:29:37 -4.3 C 2.47 g/m*3 -4.3 C 0 km/h
619 18-02-2009 03:41:37 -4.3 C 2.51 g/m*3 -4.3 C 0 km/h
620 18-02-2009 03:53:37 -4.5 C 2.47 g/m*3 -4.5 C 0 km/h
621 18-02-2009 04:05:37 -4.5 C 2.47 g/m*3 -4.5 C 0 km/h
622 18-02-2009 04:17:37 -4.7 C 2.44 g/m*3 -4.7 C 0 km/h
623 18-02-2009 04:29:37 -4.8 C 2.42 g/m*3 -4.8 C 0 km/h
624 18-02-2009 04:41:38 -4.8 C 2.42 g/m*3 -4.8 C 0 km/h
625 18-02-2009 04:53:38 -4.9 C 2.4 g/m*3 -4.9 C 0 km/h
Sensor: Nr:Datum:Temp:Abs-Feuchte:Windchill:Wind:
Aussen-T/F 626 18-02-2009 05:05:38 -4.9 C 2.4 g/m*3 -4.9 C 0 km/h
627 18-02-2009 05:17:38 -5.1 C 2.4 g/m*3 -5.1 C 0 km/h
628 18-02-2009 05:29:38 -5 C 2.45 g/m*3 -5 C 0 km/h
629 18-02-2009 05:41:38 -5.1 C 2.43 g/m*3 -5.1 C 0 km/h
630 18-02-2009 05:53:38 -5.4 C 2.38 g/m*3 -5.4 C 0 km/h
631 18-02-2009 06:05:38 -5.5 C 2.36 g/m*3 -5.5 C 0 km/h
632 18-02-2009 06:17:38 -5.6 C 2.35 g/m*3 -5.6 C 0 km/h
633 18-02-2009 06:29:38 -5.7 C 2.36 g/m*3 -5.7 C 0 km/h
634 18-02-2009 06:41:38 -5.5 C 2.4 g/m*3 -5.5 C 0 km/h
635 18-02-2009 06:53:38 -5.5 C 2.43 g/m*3 -5.5 C 0 km/h
636 18-02-2009 07:05:36 -5.7 C 2.4 g/m*3 -5.7 C 0 km/h
637 18-02-2009 07:17:35 -6.1 C 2.3 g/m*3 -6.1 C 0 km/h
638 18-02-2009 07:29:36 -6.2 C 2.28 g/m*3 -6.2 C 0 km/h
639 18-02-2009 07:41:36 -5.9 C 2.36 g/m*3 -5.9 C 0 km/h
640 18-02-2009 07:53:35 -5.8 C 2.41 g/m*3 -5.8 C 0 km/h
641 18-02-2009 08:05:35 -5.7 C 2.43 g/m*3 -5.7 C 0 km/h
642 18-02-2009 08:17:35 -5.6 C 2.48 g/m*3 -5.6 C 0 km/h
643 18-02-2009 08:29:35 -5.8 C 2.44 g/m*3 -5.8 C 0 km/h
644 18-02-2009 08:41:35 -5.9 C 2.42 g/m*3 -5.9 C 0 km/h
645 18-02-2009 08:53:34 -5.7 C 2.46 g/m*3 -5.7 C 0 km/h
646 18-02-2009 09:05:35 -5.7 C 2.46 g/m*3 -5.7 C 0 km/h
647 18-02-2009 09:17:35 -5.5 C 2.53 g/m*3 -5.5 C 0 km/h
648 18-02-2009 09:29:34 -5.4 C 2.55 g/m*3 -5.4 C 0 km/h
649 18-02-2009 09:41:34 -4.9 C 2.64 g/m*3 -4.9 C 0 km/h
650 18-02-2009 09:53:35 -4.7 C 2.68 g/m*3 -4.7 C 0 km/h
Sensor: Nr:Datum:Temp:Abs-Feuchte:Windchill:Wind:
Aussen-T/F 651 18-02-2009 10:05:34 -4.2 C 2.78 g/m*3 -4.2 C 0 km/h
652 18-02-2009 10:17:34 -3.5 C 2.84 g/m*3 -3.5 C 0 km/h
653 18-02-2009 10:29:34 -2.4 C 2.87 g/m*3 -2.4 C 0 km/h
654 18-02-2009 10:41:34 -1.7 C 2.67 g/m*3 -1.7 C 0 km/h
655 18-02-2009 10:53:34 -1.3 C 2.52 g/m*3 -1.3 C 0 km/h
656 18-02-2009 11:05:34 -1.5 C 2.36 g/m*3 -1.5 C 0 km/h
657 18-02-2009 11:17:33 -1.3 C 2.39 g/m*3 -1.3 C 0 km/h
658 18-02-2009 11:29:33 -1 C 2.35 g/m*3 -1 C 0 km/h
659 18-02-2009 11:41:33 -0.7 C 2.12 g/m*3 -0.7 C 0 km/h
660 18-02-2009 11:53:33 -0.3 C 2.28 g/m*3 -0.3 C 0 km/h
661 18-02-2009 12:05:33 0 C 2.33 g/m*3 0 C 0 km/h
662 18-02-2009 12:17:32 0.2 C 2.36 g/m*3 0.2 C 0 km/h
663 18-02-2009 12:29:33 0.5 C 2.31 g/m*3 0.5 C 0 km/h
664 18-02-2009 12:41:33 0.7 C 2.29 g/m*3 0.7 C 0 km/h
665 18-02-2009 12:53:32 1.1 C 2.09 g/m*3 1.1 C 0 km/h
666 18-02-2009 13:05:32 1.9 C 2.1 g/m*3 1.9 C 0 km/h
667 18-02-2009 13:17:33 2.3 C 2.04 g/m*3 2.3 C 0 km/h
668 18-02-2009 13:29:32 2.7 C 2.04 g/m*3 2.7 C 0 km/h
669 18-02-2009 13:41:32 2.8 C 1.82 g/m*3 2.8 C 0 km/h
670 18-02-2009 13:53:32 3.6 C 1.55 g/m*3 3.6 C 0 km/h
671 18-02-2009 14:05:32 3.6 C 1.55 g/m*3 3.6 C 0 km/h
672 18-02-2009 14:17:32 4.4 C 1.31 g/m*3 4.4 C 0 km/h
673 18-02-2009 14:29:31 4.8 C 1.34 g/m*3 4.8 C 0 km/h
674 18-02-2009 14:41:31 5.5 C 1.4 g/m*3 5.5 C 0 km/h
675 18-02-2009 14:53:32 5.7 C 1.42 g/m*3 5.7 C 0 km/h
Sensor: Nr:Datum:Temp:Abs-Feuchte:Windchill:Wind:
Aussen-T/F 676 18-02-2009 15:05:31 5.9 C 1.44 g/m*3 5.9 C 0 km/h
677 18-02-2009 15:17:31 5.5 C 1.4 g/m*3 5.5 C 0 km/h
678 18-02-2009 15:29:31 5.7 C 1.42 g/m*3 5.7 C 0 km/h
679 18-02-2009 15:41:31 6 C 1.45 g/m*3 6 C 0 km/h
680 18-02-2009 15:53:31 6 C 1.45 g/m*3 6 C 0 km/h
681 18-02-2009 16:05:31 6.7 C 1.52 g/m*3 6.7 C 0 km/h
682 18-02-2009 16:17:30 6.9 C 1.54 g/m*3 6.9 C 0 km/h
683 18-02-2009 16:29:31 5.1 C 1.37 g/m*3 5.1 C 0 km/h
684 18-02-2009 16:41:31 5.5 C 1.4 g/m*3 5.5 C 0 km/h
685 18-02-2009 16:53:30 5.7 C 1.42 g/m*3 5.7 C 0 km/h
686 18-02-2009 17:05:30 5.4 C 1.4 g/m*3 5.4 C 0 km/h
687 18-02-2009 17:17:30 4.7 C 1.67 g/m*3 4.7 C 0 km/h
688 18-02-2009 17:29:30 3.2 C 1.81 g/m*3 3.2 C 0 km/h
689 18-02-2009 17:41:30 1.9 C 2.04 g/m*3 1.9 C 0 km/h
690 18-02-2009 17:53:30 1 C 2.13 g/m*3 1 C 0 km/h
691 18-02-2009 18:05:29 0.4 C 2.14 g/m*3 0.4 C 0 km/h
692 18-02-2009 18:17:29 -0.1 C 2.21 g/m*3 -0.1 C 0 km/h
693 18-02-2009 18:29:30 -0.4 C 2.26 g/m*3 -0.4 C 0 km/h
694 18-02-2009 18:41:30 -0.6 C 2.28 g/m*3 -0.6 C 0 km/h
695 18-02-2009 18:53:29 -0.9 C 2.37 g/m*3 -0.9 C 0 km/h
696 18-02-2009 19:05:29 -1 C 2.26 g/m*3 -1 C 0 km/h
697 18-02-2009 19:17:29 -1.2 C 2.27 g/m*3 -1.2 C 0 km/h
698 18-02-2009 19:29:29 -1.3 C 2.26 g/m*3 -1.3 C 0 km/h
699 18-02-2009 19:41:29 -1.4 C 2.33 g/m*3 -1.4 C 0 km/h
700 18-02-2009 19:53:28 -1.6 C 2.3 g/m*3 -1.6 C 0 km/h
Sensor: Nr:Datum:Temp:Abs-Feuchte:Windchill:Wind:
Aussen-T/F 701 18-02-2009 20:05:29 -1.7 C 2.32 g/m*3 -1.7 C 0 km/h
702 18-02-2009 20:17:28 -1.8 C 2.35 g/m*3 -1.8 C 0 km/h
703 18-02-2009 20:29:28 -1.9 C 2.33 g/m*3 -1.9 C 0 km/h
704 18-02-2009 20:41:28 -2 C 2.32 g/m*3 -2 C 0 km/h
705 18-02-2009 20:53:28 -2.1 C 2.22 g/m*3 -2.1 C 0 km/h
706 18-02-2009 21:05:28 -2.2 C 2.29 g/m*3 -2.2 C 0 km/h
707 18-02-2009 21:17:28 -2.3 C 2.27 g/m*3 -2.3 C 0 km/h
708 18-02-2009 21:29:27 -2.3 C 2.23 g/m*3 -2.3 C 0 km/h
709 18-02-2009 21:41:27 -2.4 C 2.17 g/m*3 -2.4 C 0 km/h
710 18-02-2009 21:53:28 -2.6 C 2.3 g/m*3 -2.6 C 0 km/h
711 18-02-2009 22:06:27 -2.7 C 2.33 g/m*3 -2.7 C 0 km/h
712 18-02-2009 22:18:27 -2.9 C 2.33 g/m*3 -2.9 C 0 km/h
713 18-02-2009 22:30:27 -2.9 C 2.37 g/m*3 -2.9 C 0 km/h
714 18-02-2009 22:42:27 -2.9 C 2.41 g/m*3 -2.9 C 0 km/h
715 18-02-2009 22:54:27 -3.1 C 2.38 g/m*3 -3.1 C 0 km/h
716 18-02-2009 23:06:27 -3.3 C 2.35 g/m*3 -3.3 C 0 km/h
717 18-02-2009 23:18:27 -3.2 C 2.4 g/m*3 -3.2 C 0 km/h
718 18-02-2009 23:30:27 -2.9 C 2.45 g/m*3 -2.9 C 0 km/h
719 18-02-2009 23:42:28 -2.7 C 2.45 g/m*3 -2.7 C 0 km/h
720 18-02-2009 23:54:28 -2.5 C 2.48 g/m*3 -2.5 C 0 km/h
721 19-02-2009 00:06:28 -2.5 C 2.56 g/m*3 -2.5 C 0 km/h
722 19-02-2009 00:18:28 -2.4 C 2.58 g/m*3 -2.4 C 0 km/h
723 19-02-2009 00:30:28 -2.3 C 2.6 g/m*3 -2.3 C 0 km/h
724 19-02-2009 00:42:28 -2.3 C 2.56 g/m*3 -2.3 C 0 km/h
725 19-02-2009 00:54:28 -2.2 C 2.58 g/m*3 -2.2 C 0 km/h
Sensor: Nr:Datum:Temp:Abs-Feuchte:Windchill:Wind:
Aussen-T/F 726 19-02-2009 01:06:28 -2.1 C 2.6 g/m*3 -2.1 C 0 km/h
727 19-02-2009 01:18:28 -2.1 C 2.6 g/m*3 -2.1 C 0 km/h
728 19-02-2009 01:30:28 -2.1 C 2.55 g/m*3 -2.1 C 0 km/h
729 19-02-2009 01:42:28 -2.1 C 2.55 g/m*3 -2.1 C 0 km/h
730 19-02-2009 01:54:28 -2.3 C 2.52 g/m*3 -2.3 C 0 km/h
731 19-02-2009 02:06:28 -2.1 C 2.6 g/m*3 -2.1 C 0 km/h
732 19-02-2009 02:18:28 -2 C 2.57 g/m*3 -2 C 0 km/h
733 19-02-2009 02:30:28 -2 C 2.57 g/m*3 -2 C 0 km/h
734 19-02-2009 02:42:28 -2 C 2.57 g/m*3 -2 C 0 km/h
735 19-02-2009 02:54:28 -2.1 C 2.55 g/m*3 -2.1 C 0 km/h
736 19-02-2009 03:06:28 -2.2 C 2.58 g/m*3 -2.2 C 0 km/h
737 19-02-2009 03:18:28 -2.3 C 2.56 g/m*3 -2.3 C 0 km/h
738 19-02-2009 03:30:29 -2.3 C 2.6 g/m*3 -2.3 C 0 km/h
739 19-02-2009 03:42:29 -2.1 C 2.64 g/m*3 -2.1 C 0 km/h
740 19-02-2009 03:54:29 -2.1 C 2.64 g/m*3 -2.1 C 0 km/h
741 19-02-2009 04:06:29 -2.1 C 2.64 g/m*3 -2.1 C 0 km/h
742 19-02-2009 04:18:29 -2.2 C 2.58 g/m*3 -2.2 C 0 km/h
743 19-02-2009 04:30:29 -2.1 C 2.64 g/m*3 -2.1 C 0 km/h
744 19-02-2009 04:42:29 -2.1 C 2.64 g/m*3 -2.1 C 0 km/h
745 19-02-2009 04:54:29 -2.1 C 2.64 g/m*3 -2.1 C 0 km/h
746 19-02-2009 05:06:29 -2.1 C 2.64 g/m*3 -2.1 C 0 km/h
747 19-02-2009 05:18:29 -2.1 C 2.64 g/m*3 -2.1 C 0 km/h
748 19-02-2009 05:30:27 -2.2 C 2.62 g/m*3 -2.2 C 0 km/h
749 19-02-2009 05:42:27 -2.3 C 2.6 g/m*3 -2.3 C 0 km/h
750 19-02-2009 05:54:27 -2.3 C 2.64 g/m*3 -2.3 C 0 km/h
Sensor: Nr:Datum:Temp:Abs-Feuchte:Windchill:Wind:
Aussen-T/F 751 19-02-2009 06:06:27 -2.3 C 2.64 g/m*3 -2.3 C 0 km/h
752 19-02-2009 06:18:27 -2.3 C 2.64 g/m*3 -2.3 C 0 km/h
753 19-02-2009 06:30:27 -2.2 C 2.66 g/m*3 -2.2 C 0 km/h
754 19-02-2009 06:42:27 -2.2 C 2.66 g/m*3 -2.2 C 0 km/h
755 19-02-2009 06:54:27 -2.1 C 2.64 g/m*3 -2.1 C 0 km/h
756 19-02-2009 07:06:27 -2.1 C 2.55 g/m*3 -2.1 C 0 km/h
757 19-02-2009 07:18:02 -2 C 2.57 g/m*3 -2 C 0 km/h
758 19-02-2009 07:30:02 -2 C 2.53 g/m*3 -2 C 0 km/h
759 19-02-2009 07:42:02 -2 C 2.57 g/m*3 -2 C 0 km/h
760 19-02-2009 07:54:01 -2 C 2.61 g/m*3 -2 C 0 km/h
761 19-02-2009 08:06:01 -1.9 C 2.63 g/m*3 -1.9 C 0 km/h
762 19-02-2009 08:18:02 -1.9 C 2.63 g/m*3 -1.9 C 0 km/h
763 19-02-2009 08:30:02 -1.6 C 2.69 g/m*3 -1.6 C 0 km/h
764 19-02-2009 08:42:01 -1.3 C 2.7 g/m*3 -1.3 C 0 km/h
765 19-02-2009 08:54:01 -1 C 2.71 g/m*3 -1 C 0 km/h
766 19-02-2009 09:06:01 -0.8 C 2.61 g/m*3 -0.8 C 0 km/h
767 19-02-2009 09:18:01 -0.9 C 2.55 g/m*3 -0.9 C 0 km/h
768 19-02-2009 09:30:01 -0.7 C 2.58 g/m*3 -0.7 C 0 km/h
769 19-02-2009 09:42:00 -0.7 C 2.54 g/m*3 -0.7 C 0 km/h
770 19-02-2009 09:54:01 -0.6 C 2.56 g/m*3 -0.6 C 0 km/h
771 19-02-2009 10:06:01 -0.4 C 2.59 g/m*3 -0.4 C 0 km/h
772 19-02-2009 10:18:00 -0.1 C 2.55 g/m*3 -0.1 C 0 km/h
773 19-02-2009 10:30:00 0.1 C 2.54 g/m*3 0.1 C 0 km/h
774 19-02-2009 10:42:00 0.5 C 2.56 g/m*3 0.5 C 0 km/h
775 19-02-2009 10:54:00 0.5 C 2.46 g/m*3 0.5 C 0 km/h
Sensor: Nr:Datum:Temp:Abs-Feuchte:Windchill:Wind:
Aussen-T/F 776 19-02-2009 11:06:00 0.8 C 2.51 g/m*3 0.8 C 0 km/h
777 19-02-2009 11:18:59 1 C 2.44 g/m*3 1 C 0 km/h
778 19-02-2009 11:29:59 0.9 C 2.47 g/m*3 0.9 C 0 km/h
779 19-02-2009 11:41:59 1 C 2.44 g/m*3 1 C 0 km/h
780 19-02-2009 11:54:59 1.1 C 2.4 g/m*3 1.1 C 0 km/h
781 19-02-2009 12:06:59 1.2 C 2.42 g/m*3 1.2 C 0 km/h
782 19-02-2009 12:29:59 1.6 C 2.38 g/m*3 1.6 C 0 km/h
783 19-02-2009 12:30:59 2 C 2.22 g/m*3 2 C 0 km/h
784 19-02-2009 12:42:59 2.4 C 2.11 g/m*3 2.4 C 0 km/h
785 19-02-2009 12:54:59 3 C 1.96 g/m*3 3 C 0 km/h
786 19-02-2009 13:06:58 3.5 C 1.91 g/m*3 3.5 C 0 km/h
787 19-02-2009 13:18:59 3.9 C 1.96 g/m*3 3.9 C 0 km/h
788 19-02-2009 13:30:58 4.5 C 1.84 g/m*3 4.5 C 0 km/h
789 19-02-2009 13:42:58 4.2 C 1.8 g/m*3 4.2 C 0 km/h
790 19-02-2009 13:54:58 4.3 C 1.82 g/m*3 4.3 C 0 km/h
791 19-02-2009 14:06:59 4.9 C 1.82 g/m*3 4.9 C 0 km/h
792 19-02-2009 14:18:58 5.7 C 1.78 g/m*3 5.7 C 0 km/h
793 19-02-2009 14:30:58 5.8 C 1.43 g/m*3 5.8 C 0 km/h
794 19-02-2009 14:42:58 6.5 C 1.5 g/m*3 6.5 C 0 km/h
795 19-02-2009 14:54:58 6.8 C 1.53 g/m*3 6.8 C 0 km/h
796 19-02-2009 15:06:58 7.1 C 1.56 g/m*3 7.1 C 0 km/h
797 19-02-2009 15:18:57 6.6 C 1.51 g/m*3 6.6 C 0 km/h
798 19-02-2009 15:30:57 6.3 C 1.48 g/m*3 6.3 C 0 km/h
799 19-02-2009 15:42:57 6.7 C 1.52 g/m*3 6.7 C 0 km/h
800 19-02-2009 15:54:57 7.1 C 1.56 g/m*3 7.1 C 0 km/h
Sensor: Nr:Datum:Temp:Abs-Feuchte:Windchill:Wind:
Aussen-T/F 801 19-02-2009 16:06:57 7.1 C 1.56 g/m*3 7.1 C 0 km/h
802 19-02-2009 16:18:57 7.4 C 1.59 g/m*3 7.4 C 0 km/h
803 19-02-2009 16:30:54 7 C 1.55 g/m*3 7 C 0 km/h
804 19-02-2009 16:42:54 6.5 C 1.72 g/m*3 6.5 C 0 km/h
805 19-02-2009 16:54:57 5.8 C 1.79 g/m*3 5.8 C 0 km/h
806 19-02-2009 17:06:02 5.4 C 2.09 g/m*3 5.4 C 0 km/h
807 19-02-2009 17:18:02 4.8 C 2.08 g/m*3 4.8 C 0 km/h
808 19-02-2009 17:30:02 4.4 C 2.15 g/m*3 4.4 C 0 km/h
809 19-02-2009 17:42:02 4 C 2.29 g/m*3 4 C 0 km/h
810 19-02-2009 17:54:02 3.7 C 2.43 g/m*3 3.7 C 0 km/h
811 19-02-2009 18:06:02 3.5 C 2.46 g/m*3 3.5 C 0 km/h
812 19-02-2009 18:18:02 3.4 C 2.5 g/m*3 3.4 C 0 km/h
813 19-02-2009 18:30:02 3.3 C 2.43 g/m*3 3.3 C 0 km/h
814 19-02-2009 18:42:01 3.2 C 2.47 g/m*3 3.2 C 0 km/h
815 19-02-2009 18:54:01 3.1 C 2.45 g/m*3 3.1 C 0 km/h
816 19-02-2009 19:06:01 2.9 C 2.48 g/m*3 2.9 C 0 km/h
817 19-02-2009 19:18:01 2.9 C 2.6 g/m*3 2.9 C 0 km/h
818 19-02-2009 19:30:01 3 C 2.5 g/m*3 3 C 0 km/h
819 19-02-2009 19:42:01 2.9 C 2.6 g/m*3 2.9 C 0 km/h
820 19-02-2009 19:54:00 2.8 C 2.64 g/m*3 2.8 C 0 km/h
821 19-02-2009 20:06:01 2.7 C 2.68 g/m*3 2.7 C 0 km/h
822 19-02-2009 20:18:01 2.9 C 2.66 g/m*3 2.9 C 0 km/h
823 19-02-2009 20:30:01 2.5 C 2.99 g/m*3 2.5 C 0 km/h
824 19-02-2009 20:42:00 2 C 3.39 g/m*3 2 C 0 km/h
825 19-02-2009 20:54:01 1.9 C 3.59 g/m*3 1.9 C 0 km/h
Sensor: Nr:Datum:Temp:Abs-Feuchte:Windchill:Wind:
Aussen-T/F 826 19-02-2009 21:06:00 1.8 C 3.73 g/m*3 1.8 C 0 km/h
827 19-02-2009 21:18:00 1.7 C 3.81 g/m*3 1.7 C 0 km/h
828 19-02-2009 21:30:00 1.6 C 3.89 g/m*3 1.6 C 0 km/h
829 19-02-2009 21:42:00 1.5 C 3.97 g/m*3 1.5 C 0 km/h
830 19-02-2009 21:54:00 1.3 C 3.97 g/m*3 1.3 C 0 km/h
831 19-02-2009 22:06:59 1.3 C 4.03 g/m*3 1.3 C 0 km/h
832 19-02-2009 22:29:59 1.3 C 4.08 g/m*3 1.3 C 0 km/h
833 19-02-2009 22:30:59 1.3 C 4.13 g/m*3 1.3 C 0 km/h
834 19-02-2009 22:42:59 1.3 C 4.13 g/m*3 1.3 C 0 km/h
835 19-02-2009 22:54:59 1.3 C 4.13 g/m*3 1.3 C 0 km/h
836 19-02-2009 23:06:58 1.2 C 4.1 g/m*3 1.2 C 0 km/h
837 19-02-2009 23:18:59 1.3 C 4.13 g/m*3 1.3 C 0 km/h
838 19-02-2009 23:30:59 1.3 C 4.13 g/m*3 1.3 C 0 km/h
839 19-02-2009 23:42:59 1.3 C 4.08 g/m*3 1.3 C 0 km/h
840 19-02-2009 23:54:58 1.4 C 4.05 g/m*3 1.4 C 0 km/h
841 20-02-2009 00:06:59 1.6 C 4.11 g/m*3 1.6 C 0 km/h
842 20-02-2009 00:18:59 1.6 C 4 g/m*3 1.6 C 0 km/h
843 20-02-2009 00:30:58 1.6 C 4 g/m*3 1.6 C 0 km/h
844 20-02-2009 00:42:58 1.6 C 4 g/m*3 1.6 C 0 km/h
845 20-02-2009 00:54:58 1.7 C 4.03 g/m*3 1.7 C 0 km/h
846 20-02-2009 01:06:58 1.7 C 4.03 g/m*3 1.7 C 0 km/h
847 20-02-2009 01:18:58 1.7 C 4.03 g/m*3 1.7 C 0 km/h
848 20-02-2009 01:30:57 1.7 C 4.03 g/m*3 1.7 C 0 km/h
849 20-02-2009 01:42:57 1.6 C 4.11 g/m*3 1.6 C 0 km/h
850 20-02-2009 01:54:57 1.5 C 4.14 g/m*3 1.5 C 0 km/h
Sensor: Nr:Datum:Temp:Abs-Feuchte:Windchill:Wind:
Aussen-T/F 851 20-02-2009 02:06:57 1.5 C 4.19 g/m*3 1.5 C 0 km/h
852 20-02-2009 02:18:57 1.5 C 4.24 g/m*3 1.5 C 0 km/h
853 20-02-2009 02:30:57 1.5 C 4.35 g/m*3 1.5 C 0 km/h
854 20-02-2009 02:42:57 1.5 C 4.3 g/m*3 1.5 C 0 km/h
855 20-02-2009 02:55:01 1.6 C 4.27 g/m*3 1.6 C 0 km/h
856 20-02-2009 03:07:01 1.7 C 4.25 g/m*3 1.7 C 0 km/h
857 20-02-2009 03:19:01 1.8 C 4.28 g/m*3 1.8 C 0 km/h
858 20-02-2009 03:31:01 1.7 C 4.19 g/m*3 1.7 C 0 km/h
859 20-02-2009 03:43:01 1.7 C 4.19 g/m*3 1.7 C 0 km/h
860 20-02-2009 03:55:02 1.8 C 4.28 g/m*3 1.8 C 0 km/h
861 20-02-2009 04:07:01 1.7 C 4.25 g/m*3 1.7 C 0 km/h
862 20-02-2009 04:19:01 1.7 C 4.25 g/m*3 1.7 C 0 km/h
863 20-02-2009 04:31:02 1.8 C 4.28 g/m*3 1.8 C 0 km/h
864 20-02-2009 04:43:02 1.9 C 4.3 g/m*3 1.9 C 0 km/h
865 20-02-2009 04:55:02 1.9 C 4.25 g/m*3 1.9 C 0 km/h
866 20-02-2009 05:07:01 1.9 C 4.25 g/m*3 1.9 C 0 km/h
867 20-02-2009 05:19:01 1.9 C 4.19 g/m*3 1.9 C 0 km/h
868 20-02-2009 05:31:02 2 C 4.17 g/m*3 2 C 0 km/h
869 20-02-2009 05:43:02 2 C 4.17 g/m*3 2 C 0 km/h
870 20-02-2009 05:55:01 2.1 C 4.2 g/m*3 2.1 C 0 km/h
871 20-02-2009 06:07:01 2.1 C 4.2 g/m*3 2.1 C 0 km/h
872 20-02-2009 06:19:02 2.1 C 4.25 g/m*3 2.1 C 0 km/h
873 20-02-2009 06:31:01 2.1 C 4.25 g/m*3 2.1 C 0 km/h
874 20-02-2009 06:43:01 2 C 4.28 g/m*3 2 C 0 km/h
875 20-02-2009 06:55:02 1.8 C 4.49 g/m*3 1.8 C 0 km/h
Sensor: Nr:Datum:Temp:Abs-Feuchte:Windchill:Wind:
Aussen-T/F 876 20-02-2009 07:07:01 1.8 C 4.6 g/m*3 1.8 C 0 km/h
877 20-02-2009 07:19:02 1.8 C 4.66 g/m*3 1.8 C 0 km/h
878 20-02-2009 07:31:01 1.8 C 4.71 g/m*3 1.8 C 0 km/h
879 20-02-2009 07:43:01 1.8 C 4.71 g/m*3 1.8 C 0 km/h
880 20-02-2009 07:55:02 1.9 C 4.75 g/m*3 1.9 C 0 km/h
881 20-02-2009 08:07:01 1.9 C 4.75 g/m*3 1.9 C 0 km/h
882 20-02-2009 08:19:01 2 C 4.67 g/m*3 2 C 0 km/h
883 20-02-2009 08:31:02 2.3 C 4.71 g/m*3 2.3 C 0 km/h
884 20-02-2009 08:43:02 2.4 C 4.68 g/m*3 2.4 C 0 km/h
885 20-02-2009 08:55:01 2.4 C 4.68 g/m*3 2.4 C 0 km/h
886 20-02-2009 09:07:02 2.3 C 4.71 g/m*3 2.3 C 0 km/h
887 20-02-2009 09:19:01 2.3 C 4.76 g/m*3 2.3 C 0 km/h
888 20-02-2009 09:31:02 2.4 C 4.85 g/m*3 2.4 C 0 km/h
889 20-02-2009 09:43:02 2.5 C 4.94 g/m*3 2.5 C 0 km/h
890 20-02-2009 09:55:01 2.8 C 4.99 g/m*3 2.8 C 0 km/h
891 20-02-2009 10:07:02 2.8 C 4.93 g/m*3 2.8 C 0 km/h
892 20-02-2009 10:19:01 3 C 4.93 g/m*3 3 C 0 km/h
893 20-02-2009 10:31:01 3.2 C 4.94 g/m*3 3.2 C 0 km/h
894 20-02-2009 10:43:01 3.2 C 4.88 g/m*3 3.2 C 0 km/h
895 20-02-2009 10:55:01 3.3 C 4.91 g/m*3 3.3 C 0 km/h
896 20-02-2009 11:07:01 3.4 C 4.89 g/m*3 3.4 C 0 km/h
897 20-02-2009 11:19:02 3.5 C 4.92 g/m*3 3.5 C 0 km/h
898 20-02-2009 11:31:01 3.5 C 4.98 g/m*3 3.5 C 0 km/h
899 20-02-2009 11:43:01 3.4 C 5.01 g/m*3 3.4 C 0 km/h
900 20-02-2009 11:55:02 3.4 C 5.07 g/m*3 3.4 C 0 km/h
Sensor: Nr:Datum:Temp:Abs-Feuchte:Windchill:Wind:
Aussen-T/F 901 20-02-2009 12:07:01 3.3 C 5.04 g/m*3 3.3 C 0 km/h
902 20-02-2009 12:19:02 3.3 C 5.1 g/m*3 3.3 C 0 km/h
903 20-02-2009 12:31:01 3.5 C 5.29 g/m*3 3.5 C 0 km/h
904 20-02-2009 12:43:01 3.7 C 5.36 g/m*3 3.7 C 0 km/h
905 20-02-2009 12:55:02 3.8 C 5.4 g/m*3 3.8 C 0 km/h
906 20-02-2009 13:07:01 4.1 C 5.44 g/m*3 4.1 C 0 km/h
907 20-02-2009 13:19:01 4.4 C 5.48 g/m*3 4.4 C 0 km/h
908 20-02-2009 13:31:02 4.5 C 5.46 g/m*3 4.5 C 0 km/h
909 20-02-2009 13:43:02 4.7 C 5.53 g/m*3 4.7 C 0 km/h
910 20-02-2009 13:55:01 4.9 C 5.54 g/m*3 4.9 C 0 km/h
911 20-02-2009 14:07:02 5.2 C 5.51 g/m*3 5.2 C 0 km/h
912 20-02-2009 14:19:01 5.4 C 5.37 g/m*3 5.4 C 0 km/h
913 20-02-2009 14:31:02 5.5 C 5.34 g/m*3 5.5 C 0 km/h
914 20-02-2009 14:43:02 5.7 C 5.27 g/m*3 5.7 C 0 km/h
915 20-02-2009 14:55:01 5.7 C 5.19 g/m*3 5.7 C 0 km/h
916 20-02-2009 15:07:02 5.8 C 5.23 g/m*3 5.8 C 0 km/h
917 20-02-2009 15:19:01 5.7 C 5.12 g/m*3 5.7 C 0 km/h
918 20-02-2009 15:31:01 5.5 C 4.99 g/m*3 5.5 C 0 km/h
919 20-02-2009 15:43:01 5.4 C 5.09 g/m*3 5.4 C 0 km/h
920 20-02-2009 15:55:01 5.5 C 5.13 g/m*3 5.5 C 0 km/h
921 20-02-2009 16:07:01 5.6 C 5.3 g/m*3 5.6 C 0 km/h
922 20-02-2009 16:19:01 5.6 C 5.3 g/m*3 5.6 C 0 km/h
923 20-02-2009 16:31:01 5.4 C 5.23 g/m*3 5.4 C 0 km/h
924 20-02-2009 16:43:01 5.3 C 5.34 g/m*3 5.3 C 0 km/h
925 20-02-2009 16:55:01 5.1 C 5.4 g/m*3 5.1 C 0 km/h
Sensor: Nr:Datum:Temp:Abs-Feuchte:Windchill:Wind:
Aussen-T/F 926 20-02-2009 17:07:01 5 C 5.5 g/m*3 5 C 0 km/h
927 20-02-2009 17:19:01 4.9 C 5.67 g/m*3 4.9 C 0 km/h
928 20-02-2009 17:31:01 4.8 C 5.77 g/m*3 4.8 C 0 km/h
929 20-02-2009 17:43:01 4.7 C 5.8 g/m*3 4.7 C 0 km/h
930 20-02-2009 17:55:01 4.7 C 5.86 g/m*3 4.7 C 0 km/h
931 20-02-2009 18:07:01 4.6 C 5.76 g/m*3 4.6 C 0 km/h
932 20-02-2009 18:19:02 4.6 C 5.76 g/m*3 4.6 C 0 km/h
933 20-02-2009 18:31:01 4.6 C 5.76 g/m*3 4.6 C 0 km/h
934 20-02-2009 18:43:01 4.7 C 5.8 g/m*3 4.7 C 0 km/h
935 20-02-2009 18:55:02 4.6 C 5.82 g/m*3 4.6 C 0 km/h
936 20-02-2009 19:07:01 4.6 C 5.82 g/m*3 4.6 C 0 km/h
937 20-02-2009 19:19:02 4.5 C 5.85 g/m*3 4.5 C 0 km/h
938 20-02-2009 19:31:01 4.5 C 5.85 g/m*3 4.5 C 0 km/h
939 20-02-2009 19:43:01 4.6 C 5.96 g/m*3 4.6 C 0 km/h
940 20-02-2009 19:54:01 4.5 C 5.92 g/m*3 4.5 C 0 km/h
941 20-02-2009 20:06:02 4.5 C 5.92 g/m*3 4.5 C 0 km/h
942 20-02-2009 20:18:01 4.6 C 6.02 g/m*3 4.6 C 0 km/h
943 20-02-2009 20:30:01 4.6 C 6.02 g/m*3 4.6 C 0 km/h
944 20-02-2009 20:42:02 4.6 C 6.02 g/m*3 4.6 C 0 km/h
945 20-02-2009 20:54:01 4.6 C 6.02 g/m*3 4.6 C 0 km/h
946 20-02-2009 21:06:01 4.7 C 6.06 g/m*3 4.7 C 0 km/h
947 20-02-2009 21:18:01 4.8 C 6.04 g/m*3 4.8 C 0 km/h
948 20-02-2009 21:30:01 4.8 C 6.04 g/m*3 4.8 C 0 km/h
949 20-02-2009 21:42:01 4.8 C 5.97 g/m*3 4.8 C 0 km/h
950 20-02-2009 21:54:01 4.7 C 5.86 g/m*3 4.7 C 0 km/h
Sensor: Nr:Datum:Temp:Abs-Feuchte:Windchill:Wind:
Aussen-T/F 951 20-02-2009 22:06:01 4.6 C 5.82 g/m*3 4.6 C 0 km/h
952 20-02-2009 22:19:03 4.6 C 5.82 g/m*3 4.6 C 0 km/h
953 20-02-2009 22:31:03 4.5 C 5.78 g/m*3 4.5 C 0 km/h
954 20-02-2009 22:43:03 4.5 C 5.78 g/m*3 4.5 C 0 km/h
955 20-02-2009 22:55:03 4.5 C 5.78 g/m*3 4.5 C 0 km/h
956 20-02-2009 23:07:03 4.4 C 5.75 g/m*3 4.4 C 0 km/h
957 20-02-2009 23:19:03 4.4 C 5.75 g/m*3 4.4 C 0 km/h
958 20-02-2009 23:31:03 4.3 C 5.71 g/m*3 4.3 C 0 km/h
959 20-02-2009 23:43:03 4.3 C 5.71 g/m*3 4.3 C 0 km/h
960 20-02-2009 23:55:03 4.3 C 5.71 g/m*3 4.3 C 0 km/h
961 21-02-2009 00:07:03 4.2 C 5.67 g/m*3 4.2 C 0 km/h
962 21-02-2009 00:19:03 4.2 C 5.61 g/m*3 4.2 C 0 km/h
963 21-02-2009 00:31:03 4.1 C 5.57 g/m*3 4.1 C 0 km/h
964 21-02-2009 00:43:03 4.1 C 5.5 g/m*3 4.1 C 0 km/h
965 21-02-2009 00:55:03 4.1 C 5.44 g/m*3 4.1 C 0 km/h
966 21-02-2009 01:07:03 4 C 5.4 g/m*3 4 C 0 km/h
967 21-02-2009 01:19:03 4 C 5.4 g/m*3 4 C 0 km/h
968 21-02-2009 01:31:03 4 C 5.34 g/m*3 4 C 0 km/h
969 21-02-2009 01:43:04 4 C 5.34 g/m*3 4 C 0 km/h
970 21-02-2009 01:55:04 4 C 5.34 g/m*3 4 C 0 km/h
971 21-02-2009 02:07:04 4 C 5.28 g/m*3 4 C 0 km/h
972 21-02-2009 02:19:04 4 C 5.28 g/m*3 4 C 0 km/h
973 21-02-2009 02:31:04 4 C 5.28 g/m*3 4 C 0 km/h
974 21-02-2009 02:43:04 3.9 C 5.31 g/m*3 3.9 C 0 km/h
975 21-02-2009 02:55:04 3.9 C 5.31 g/m*3 3.9 C 0 km/h
Sensor: Nr:Datum:Temp:Abs-Feuchte:Windchill:Wind:
Aussen-T/F 976 21-02-2009 03:07:04 3.9 C 5.31 g/m*3 3.9 C 0 km/h
977 21-02-2009 03:19:04 3.8 C 5.27 g/m*3 3.8 C 0 km/h
978 21-02-2009 03:31:04 3.8 C 5.27 g/m*3 3.8 C 0 km/h
979 21-02-2009 03:43:04 3.8 C 5.27 g/m*3 3.8 C 0 km/h
980 21-02-2009 03:55:04 3.8 C 5.27 g/m*3 3.8 C 0 km/h
981 21-02-2009 04:07:04 3.8 C 5.27 g/m*3 3.8 C 0 km/h
982 21-02-2009 04:19:04 3.8 C 5.27 g/m*3 3.8 C 0 km/h
983 21-02-2009 04:31:04 3.7 C 5.23 g/m*3 3.7 C 0 km/h
984 21-02-2009 04:43:04 3.7 C 5.23 g/m*3 3.7 C 0 km/h
985 21-02-2009 04:55:04 3.7 C 5.3 g/m*3 3.7 C 0 km/h
986 21-02-2009 05:07:04 3.6 C 5.26 g/m*3 3.6 C 0 km/h
987 21-02-2009 05:19:04 3.6 C 5.26 g/m*3 3.6 C 0 km/h
988 21-02-2009 05:31:04 3.7 C 5.36 g/m*3 3.7 C 0 km/h
989 21-02-2009 05:43:05 3.8 C 5.4 g/m*3 3.8 C 0 km/h
990 21-02-2009 05:55:05 3.7 C 5.36 g/m*3 3.7 C 0 km/h
991 21-02-2009 06:07:05 3.7 C 5.36 g/m*3 3.7 C 0 km/h
992 21-02-2009 06:19:05 3.7 C 5.42 g/m*3 3.7 C 0 km/h
993 21-02-2009 06:31:05 3.8 C 5.46 g/m*3 3.8 C 0 km/h
994 21-02-2009 06:43:05 3.8 C 5.46 g/m*3 3.8 C 0 km/h
995 21-02-2009 06:55:05 3.8 C 5.46 g/m*3 3.8 C 0 km/h
996 21-02-2009 07:07:05 3.8 C 5.52 g/m*3 3.8 C 0 km/h
997 21-02-2009 07:19:05 3.7 C 5.48 g/m*3 3.7 C 0 km/h
998 21-02-2009 07:31:05 3.7 C 5.48 g/m*3 3.7 C 0 km/h
999 21-02-2009 07:43:05 3.7 C 5.48 g/m*3 3.7 C 0 km/h
1000 21-02-2009 07:55:05 3.6 C 5.45 g/m*3 3.6 C 0 km/h
Sensor: Nr:Datum:Temp:Abs-Feuchte:Windchill:Wind:
Aussen-T/F 1001 21-02-2009 08:07:03 3.6 C 5.45 g/m*3 3.6 C 0 km/h
1002 21-02-2009 08:19:03 3.6 C 5.45 g/m*3 3.6 C 0 km/h
1003 21-02-2009 08:31:02 3.6 C 5.45 g/m*3 3.6 C 0 km/h
1004 21-02-2009 08:43:02 3.8 C 5.52 g/m*3 3.8 C 0 km/h
1005 21-02-2009 08:55:03 3.9 C 5.56 g/m*3 3.9 C 0 km/h
1006 21-02-2009 09:07:02 4 C 5.59 g/m*3 4 C 0 km/h
1007 21-02-2009 09:19:02 4 C 5.53 g/m*3 4 C 0 km/h
1008 21-02-2009 09:31:02 4.1 C 5.57 g/m*3 4.1 C 0 km/h
1009 21-02-2009 09:43:02 4.4 C 5.68 g/m*3 4.4 C 0 km/h
1010 21-02-2009 09:55:02 4.4 C 5.62 g/m*3 4.4 C 0 km/h
1011 21-02-2009 10:07:01 4.5 C 5.52 g/m*3 4.5 C 0 km/h
1012 21-02-2009 10:19:02 4.7 C 5.46 g/m*3 4.7 C 0 km/h
1013 21-02-2009 10:31:02 5.1 C 5.47 g/m*3 5.1 C 0 km/h
1014 21-02-2009 10:43:02 5.3 C 5.41 g/m*3 5.3 C 0 km/h
1015 21-02-2009 10:55:01 5.5 C 5.2 g/m*3 5.5 C 0 km/h
1016 21-02-2009 11:07:02 5.5 C 5.13 g/m*3 5.5 C 0 km/h
1017 21-02-2009 11:19:01 5.7 C 5.12 g/m*3 5.7 C 0 km/h
1018 21-02-2009 11:31:01 6 C 5.01 g/m*3 6 C 0 km/h
1019 21-02-2009 11:43:01 6 C 4.94 g/m*3 6 C 0 km/h
1020 21-02-2009 11:55:01 6.4 C 4.92 g/m*3 6.4 C 0 km/h
1021 21-02-2009 12:07:01 6.7 C 4.86 g/m*3 6.7 C 0 km/h
1022 21-02-2009 12:19:00 6.2 C 4.49 g/m*3 6.2 C 0 km/h
1023 21-02-2009 12:31:00 6.4 C 4.62 g/m*3 6.4 C 0 km/h
1024 21-02-2009 12:43:00 6.4 C 4.62 g/m*3 6.4 C 0 km/h
1025 21-02-2009 12:55:00 6.4 C 4.55 g/m*3 6.4 C 0 km/h
Sensor: Nr:Datum:Temp:Abs-Feuchte:Windchill:Wind:
Aussen-T/F 1026 21-02-2009 13:07:00 6.5 C 4.42 g/m*3 6.5 C 0 km/h
1027 21-02-2009 13:19:00 6.6 C 4.23 g/m*3 6.6 C 0 km/h
1028 21-02-2009 13:31:00 6.8 C 4.28 g/m*3 6.8 C 0 km/h
1029 21-02-2009 13:43:00 6.7 C 4.1 g/m*3 6.7 C 0 km/h
1030 21-02-2009 13:55:59 6.5 C 4.05 g/m*3 6.5 C 0 km/h
1031 21-02-2009 14:07:00 6.5 C 4.05 g/m*3 6.5 C 0 km/h
1032 21-02-2009 14:19:00 6.5 C 4.05 g/m*3 6.5 C 0 km/h
1033 21-02-2009 14:31:59 6.8 C 4.05 g/m*3 6.8 C 0 km/h
1034 21-02-2009 14:43:59 6.7 C 4.03 g/m*3 6.7 C 0 km/h
1035 21-02-2009 14:54:59 6.5 C 3.97 g/m*3 6.5 C 0 km/h
1036 21-02-2009 15:07:59 6.5 C 3.97 g/m*3 6.5 C 0 km/h
1037 21-02-2009 15:19:59 6.4 C 3.87 g/m*3 6.4 C 0 km/h
1038 21-02-2009 15:31:59 6.3 C 3.78 g/m*3 6.3 C 0 km/h
1039 21-02-2009 15:43:59 6.2 C 3.75 g/m*3 6.2 C 0 km/h
1040 21-02-2009 15:55:59 6.2 C 3.9 g/m*3 6.2 C 0 km/h
1041 21-02-2009 16:07:59 6.1 C 4.02 g/m*3 6.1 C 0 km/h
1042 21-02-2009 16:19:58 6 C 4.06 g/m*3 6 C 0 km/h
1043 21-02-2009 16:31:58 5.8 C 4.15 g/m*3 5.8 C 0 km/h
1044 21-02-2009 16:43:58 5.8 C 4.15 g/m*3 5.8 C 0 km/h
1045 21-02-2009 16:55:58 5.7 C 4.2 g/m*3 5.7 C 0 km/h
1046 21-02-2009 17:07:58 5.7 C 4.2 g/m*3 5.7 C 0 km/h
1047 21-02-2009 17:19:57 5.7 C 4.13 g/m*3 5.7 C 0 km/h
1048 21-02-2009 17:31:58 5.6 C 4.24 g/m*3 5.6 C 0 km/h
1049 21-02-2009 17:43:58 5.4 C 4.26 g/m*3 5.4 C 0 km/h
1050 21-02-2009 17:55:57 5.3 C 4.23 g/m*3 5.3 C 0 km/h
Sensor: Nr:Datum:Temp:Abs-Feuchte:Windchill:Wind:
Aussen-T/F 1051 21-02-2009 18:07:57 5.1 C 4.24 g/m*3 5.1 C 0 km/h
1052 21-02-2009 18:19:58 4.9 C 4.39 g/m*3 4.9 C 0 km/h
1053 21-02-2009 18:31:57 4.7 C 4.46 g/m*3 4.7 C 0 km/h
1054 21-02-2009 18:43:57 4.6 C 4.43 g/m*3 4.6 C 0 km/h
1055 21-02-2009 18:55:57 4.5 C 4.4 g/m*3 4.5 C 0 km/h
1056 21-02-2009 19:07:57 4.4 C 4.44 g/m*3 4.4 C 0 km/h
1057 21-02-2009 19:19:57 4.2 C 4.32 g/m*3 4.2 C 0 km/h
1058 21-02-2009 19:31:56 4.1 C 4.29 g/m*3 4.1 C 0 km/h
1059 21-02-2009 19:43:56 4.2 C 4.32 g/m*3 4.2 C 0 km/h
1060 21-02-2009 19:55:57 4.3 C 4.35 g/m*3 4.3 C 0 km/h
1061 21-02-2009 20:07:56 4.3 C 4.41 g/m*3 4.3 C 0 km/h
1062 21-02-2009 20:19:56 4.3 C 4.41 g/m*3 4.3 C 0 km/h
1063 21-02-2009 20:31:56 4.3 C 4.41 g/m*3 4.3 C 0 km/h
1064 21-02-2009 20:43:56 4.3 C 4.41 g/m*3 4.3 C 0 km/h
1065 21-02-2009 20:55:56 4.2 C 4.38 g/m*3 4.2 C 0 km/h
1066 21-02-2009 21:07:55 4.2 C 4.45 g/m*3 4.2 C 0 km/h
1067 21-02-2009 21:19:56 4.2 C 4.45 g/m*3 4.2 C 0 km/h
1068 21-02-2009 21:31:56 4.3 C 4.48 g/m*3 4.3 C 0 km/h
1069 21-02-2009 21:43:56 4.3 C 4.48 g/m*3 4.3 C 0 km/h
1070 21-02-2009 21:55:55 4.3 C 4.48 g/m*3 4.3 C 0 km/h
1071 21-02-2009 22:07:56 4.3 C 4.48 g/m*3 4.3 C 0 km/h
1072 21-02-2009 22:19:55 4.2 C 4.45 g/m*3 4.2 C 0 km/h
1073 21-02-2009 22:31:55 4.2 C 4.45 g/m*3 4.2 C 0 km/h
1074 21-02-2009 22:43:56 4.2 C 4.45 g/m*3 4.2 C 0 km/h
1075 21-02-2009 22:56:57 4.2 C 4.45 g/m*3 4.2 C 0 km/h
Sensor: Nr:Datum:Temp:Abs-Feuchte:Windchill:Wind:
Aussen-T/F 1076 21-02-2009 23:08:57 4.4 C 4.37 g/m*3 4.4 C 0 km/h
1077 21-02-2009 23:20:57 4.5 C 4.4 g/m*3 4.5 C 0 km/h
1078 21-02-2009 23:32:57 4.6 C 4.37 g/m*3 4.6 C 0 km/h
1079 21-02-2009 23:44:57 4.6 C 4.37 g/m*3 4.6 C 0 km/h
1080 21-02-2009 23:56:57 4.6 C 4.37 g/m*3 4.6 C 0 km/h
1081 22-02-2009 00:08:57 4.4 C 4.44 g/m*3 4.4 C 0 km/h
1082 22-02-2009 00:20:57 4.2 C 4.45 g/m*3 4.2 C 0 km/h
1083 22-02-2009 00:32:57 4 C 4.58 g/m*3 4 C 0 km/h
1084 22-02-2009 00:44:57 3.7 C 4.74 g/m*3 3.7 C 0 km/h
1085 22-02-2009 00:56:57 3.7 C 4.86 g/m*3 3.7 C 0 km/h
1086 22-02-2009 01:08:57 3.7 C 4.86 g/m*3 3.7 C 0 km/h
1087 22-02-2009 01:20:57 3.7 C 4.86 g/m*3 3.7 C 0 km/h
1088 22-02-2009 01:32:57 3.8 C 4.96 g/m*3 3.8 C 0 km/h
1089 22-02-2009 01:44:58 3.6 C 4.95 g/m*3 3.6 C 0 km/h
1090 22-02-2009 01:56:58 3.6 C 4.95 g/m*3 3.6 C 0 km/h
1091 22-02-2009 02:08:58 3.5 C 5.04 g/m*3 3.5 C 0 km/h
1092 22-02-2009 02:20:58 3.4 C 5.01 g/m*3 3.4 C 0 km/h
1093 22-02-2009 02:32:58 3.4 C 5.07 g/m*3 3.4 C 0 km/h
1094 22-02-2009 02:44:58 3.5 C 5.16 g/m*3 3.5 C 0 km/h
1095 22-02-2009 02:56:58 3.5 C 5.16 g/m*3 3.5 C 0 km/h
1096 22-02-2009 03:08:58 3.5 C 5.16 g/m*3 3.5 C 0 km/h
1097 22-02-2009 03:20:58 3.4 C 5.13 g/m*3 3.4 C 0 km/h
1098 22-02-2009 03:32:58 3.3 C 5.16 g/m*3 3.3 C 0 km/h
1099 22-02-2009 03:44:58 3.3 C 5.22 g/m*3 3.3 C 0 km/h
1100 22-02-2009 03:56:58 3.3 C 5.28 g/m*3 3.3 C 0 km/h
Sensor: Nr:Datum:Temp:Abs-Feuchte:Windchill:Wind:
Aussen-T/F 1101 22-02-2009 04:08:58 3.2 C 5.24 g/m*3 3.2 C 0 km/h
1102 22-02-2009 04:20:58 3.2 C 5.3 g/m*3 3.2 C 0 km/h
1103 22-02-2009 04:32:58 3.3 C 5.4 g/m*3 3.3 C 0 km/h
1104 22-02-2009 04:44:58 3.3 C 5.4 g/m*3 3.3 C 0 km/h
1105 22-02-2009 04:56:58 3.3 C 5.4 g/m*3 3.3 C 0 km/h
1106 22-02-2009 05:08:58 3.3 C 5.4 g/m*3 3.3 C 0 km/h
1107 22-02-2009 05:20:58 3.4 C 5.44 g/m*3 3.4 C 0 km/h
1108 22-02-2009 05:32:59 3.5 C 5.53 g/m*3 3.5 C 0 km/h
1109 22-02-2009 05:44:59 3.5 C 5.47 g/m*3 3.5 C 0 km/h
1110 22-02-2009 05:56:59 3.6 C 5.51 g/m*3 3.6 C 0 km/h
1111 22-02-2009 06:08:59 3.7 C 5.55 g/m*3 3.7 C 0 km/h
1112 22-02-2009 06:20:59 3.7 C 5.55 g/m*3 3.7 C 0 km/h
1113 22-02-2009 06:32:59 3.8 C 5.58 g/m*3 3.8 C 0 km/h
1114 22-02-2009 06:44:59 3.8 C 5.58 g/m*3 3.8 C 0 km/h
1115 22-02-2009 06:56:59 3.8 C 5.58 g/m*3 3.8 C 0 km/h
1116 22-02-2009 07:08:56 3.9 C 5.56 g/m*3 3.9 C 0 km/h
1117 22-02-2009 07:20:56 4 C 5.59 g/m*3 4 C 0 km/h
1118 22-02-2009 07:32:56 4 C 5.59 g/m*3 4 C 0 km/h
1119 22-02-2009 07:44:56 4 C 5.59 g/m*3 4 C 0 km/h
1120 22-02-2009 07:56:56 4.1 C 5.63 g/m*3 4.1 C 0 km/h
1121 22-02-2009 08:08:56 4.1 C 5.63 g/m*3 4.1 C 0 km/h
1122 22-02-2009 08:20:55 4.2 C 5.67 g/m*3 4.2 C 0 km/h
1123 22-02-2009 08:32:55 4.3 C 5.71 g/m*3 4.3 C 0 km/h
1124 22-02-2009 08:44:55 4.3 C 5.64 g/m*3 4.3 C 0 km/h
1125 22-02-2009 08:56:55 4.3 C 5.64 g/m*3 4.3 C 0 km/h
Sensor: Nr:Datum:Temp:Abs-Feuchte:Windchill:Wind:
Aussen-T/F 1126 22-02-2009 09:08:55 4.5 C 5.72 g/m*3 4.5 C 0 km/h
1127 22-02-2009 09:20:55 4.5 C 5.72 g/m*3 4.5 C 0 km/h
1128 22-02-2009 09:32:55 4.6 C 5.76 g/m*3 4.6 C 0 km/h
1129 22-02-2009 09:44:55 4.6 C 5.69 g/m*3 4.6 C 0 km/h
1130 22-02-2009 09:56:55 4.6 C 5.76 g/m*3 4.6 C 0 km/h
1131 22-02-2009 10:08:54 4.7 C 5.8 g/m*3 4.7 C 0 km/h
1132 22-02-2009 10:20:55 4.8 C 5.83 g/m*3 4.8 C 0 km/h
1133 22-02-2009 10:32:54 4.9 C 5.87 g/m*3 4.9 C 0 km/h
1134 22-02-2009 10:44:55 5 C 5.84 g/m*3 5 C 0 km/h
1135 22-02-2009 10:56:55 5.1 C 5.81 g/m*3 5.1 C 0 km/h
1136 22-02-2009 11:08:54 5.2 C 5.85 g/m*3 5.2 C 0 km/h
1137 22-02-2009 11:20:55 5.4 C 6 g/m*3 5.4 C 0 km/h
1138 22-02-2009 11:32:54 5.4 C 6 g/m*3 5.4 C 0 km/h
1139 22-02-2009 11:44:54 5.8 C 6.09 g/m*3 5.8 C 0 km/h
1140 22-02-2009 11:56:54 6.1 C 6.14 g/m*3 6.1 C 0 km/h
1141 22-02-2009 12:08:54 6.2 C 6.18 g/m*3 6.2 C 0 km/h
1142 22-02-2009 12:20:54 6.2 C 6.18 g/m*3 6.2 C 0 km/h
1143 22-02-2009 12:32:54 6.3 C 6.22 g/m*3 6.3 C 0 km/h
1144 22-02-2009 12:44:54 6.5 C 6.22 g/m*3 6.5 C 0 km/h
1145 22-02-2009 12:56:54 6.9 C 6.16 g/m*3 6.9 C 0 km/h
1146 22-02-2009 13:08:54 7.1 C 5.93 g/m*3 7.1 C 0 km/h
1147 22-02-2009 13:20:53 7.1 C 5.85 g/m*3 7.1 C 0 km/h
1148 22-02-2009 13:32:53 7.2 C 5.73 g/m*3 7.2 C 0 km/h
1149 22-02-2009 13:44:53 7.2 C 5.73 g/m*3 7.2 C 0 km/h
1150 22-02-2009 13:56:53 7.3 C 5.69 g/m*3 7.3 C 0 km/h
Sensor: Nr:Datum:Temp:Abs-Feuchte:Windchill:Wind:
Aussen-T/F 1151 22-02-2009 14:08:53 7.5 C 5.68 g/m*3 7.5 C 0 km/h
1152 22-02-2009 14:20:52 7.6 C 5.64 g/m*3 7.6 C 0 km/h
1153 22-02-2009 14:32:53 7.5 C 5.52 g/m*3 7.5 C 0 km/h
1154 22-02-2009 14:44:52 7.5 C 5.6 g/m*3 7.5 C 0 km/h
1155 22-02-2009 14:56:52 7.4 C 5.65 g/m*3 7.4 C 0 km/h
1156 22-02-2009 15:08:52 7.3 C 5.77 g/m*3 7.3 C 0 km/h
1157 22-02-2009 15:20:53 7.1 C 6.01 g/m*3 7.1 C 0 km/h
1158 22-02-2009 15:32:52 7 C 6.28 g/m*3 7 C 0 km/h
1159 22-02-2009 15:44:52 7 C 6.43 g/m*3 7 C 0 km/h
1160 22-02-2009 15:56:52 6.9 C 6.54 g/m*3 6.9 C 0 km/h
1161 22-02-2009 16:08:52 6.9 C 6.7 g/m*3 6.9 C 0 km/h
1162 22-02-2009 16:20:52 6.8 C 6.65 g/m*3 6.8 C 0 km/h
1163 22-02-2009 16:32:52 6.8 C 6.73 g/m*3 6.8 C 0 km/h
1164 22-02-2009 16:44:51 6.8 C 6.73 g/m*3 6.8 C 0 km/h
1165 22-02-2009 16:56:51 6.7 C 6.69 g/m*3 6.7 C 0 km/h
1166 22-02-2009 17:08:51 6.7 C 6.76 g/m*3 6.7 C 0 km/h
1167 22-02-2009 17:20:51 6.7 C 6.76 g/m*3 6.7 C 0 km/h
1168 22-02-2009 17:32:51 6.6 C 6.64 g/m*3 6.6 C 0 km/h
1169 22-02-2009 17:44:51 6.6 C 6.57 g/m*3 6.6 C 0 km/h
1170 22-02-2009 17:56:51 6.6 C 6.49 g/m*3 6.6 C 0 km/h
1171 22-02-2009 18:08:51 6.6 C 6.49 g/m*3 6.6 C 0 km/h
1172 22-02-2009 18:20:50 6.6 C 6.42 g/m*3 6.6 C 0 km/h
1173 22-02-2009 18:32:51 6.5 C 6.3 g/m*3 6.5 C 0 km/h
1174 22-02-2009 18:44:50 6.6 C 6.27 g/m*3 6.6 C 0 km/h
1175 22-02-2009 18:56:50 6.4 C 6.18 g/m*3 6.4 C 0 km/h
Sensor: Nr:Datum:Temp:Abs-Feuchte:Windchill:Wind:
Aussen-T/F 1176 22-02-2009 19:08:50 6.3 C 6.22 g/m*3 6.3 C 0 km/h
1177 22-02-2009 19:20:50 6.2 C 6.32 g/m*3 6.2 C 0 km/h
1178 22-02-2009 19:32:50 6.1 C 6.28 g/m*3 6.1 C 0 km/h
1179 22-02-2009 19:44:49 6 C 6.24 g/m*3 6 C 0 km/h
1180 22-02-2009 19:56:49 5.9 C 6.2 g/m*3 5.9 C 0 km/h
1181 22-02-2009 20:08:50 5.9 C 6.13 g/m*3 5.9 C 0 km/h
1182 22-02-2009 20:20:50 5.9 C 6.06 g/m*3 5.9 C 0 km/h
1183 22-02-2009 20:32:49 5.9 C 6.06 g/m*3 5.9 C 0 km/h
1184 22-02-2009 20:44:50 6 C 5.95 g/m*3 6 C 0 km/h
1185 22-02-2009 20:56:50 6.2 C 5.88 g/m*3 6.2 C 0 km/h
1186 22-02-2009 21:08:49 6.1 C 5.77 g/m*3 6.1 C 0 km/h
1187 22-02-2009 21:20:49 6 C 5.81 g/m*3 6 C 0 km/h
1188 22-02-2009 21:32:49 5.9 C 5.84 g/m*3 5.9 C 0 km/h
1189 22-02-2009 21:44:49 5.9 C 5.91 g/m*3 5.9 C 0 km/h
1190 22-02-2009 21:56:49 5.9 C 5.91 g/m*3 5.9 C 0 km/h
1191 22-02-2009 22:08:48 5.9 C 5.98 g/m*3 5.9 C 0 km/h
1192 22-02-2009 22:20:49 5.9 C 5.98 g/m*3 5.9 C 0 km/h
1193 22-02-2009 22:33:49 5.8 C 6.02 g/m*3 5.8 C 0 km/h
1194 22-02-2009 22:45:49 5.7 C 6.05 g/m*3 5.7 C 0 km/h
1195 22-02-2009 22:57:49 5.7 C 6.05 g/m*3 5.7 C 0 km/h
1196 22-02-2009 23:09:49 5.6 C 6.01 g/m*3 5.6 C 0 km/h
1197 22-02-2009 23:21:49 5.6 C 5.94 g/m*3 5.6 C 0 km/h
1198 22-02-2009 23:33:50 5.7 C 5.84 g/m*3 5.7 C 0 km/h
1199 22-02-2009 23:45:50 5.7 C 5.76 g/m*3 5.7 C 0 km/h
1200 22-02-2009 23:57:50 5.8 C 5.73 g/m*3 5.8 C 0 km/h
Sensor: Nr:Datum:Temp:Abs-Feuchte:Windchill:Wind:
Aussen-T/F 1201 23-02-2009 00:09:50 5.8 C 5.59 g/m*3 5.8 C 0 km/h
1202 23-02-2009 00:21:50 5.9 C 5.48 g/m*3 5.9 C 0 km/h
1203 23-02-2009 00:33:50 5.8 C 5.37 g/m*3 5.8 C 0 km/h
1204 23-02-2009 00:45:50 5.8 C 5.3 g/m*3 5.8 C 0 km/h
1205 23-02-2009 00:57:50 5.6 C 5.09 g/m*3 5.6 C 0 km/h
1206 23-02-2009 01:09:50 5.2 C 4.96 g/m*3 5.2 C 0 km/h
1207 23-02-2009 01:21:50 5 C 4.89 g/m*3 5 C 0 km/h
1208 23-02-2009 01:33:50 5.1 C 4.79 g/m*3 5.1 C 0 km/h
1209 23-02-2009 01:45:50 5.2 C 4.68 g/m*3 5.2 C 0 km/h
1210 23-02-2009 01:57:50 5.2 C 4.61 g/m*3 5.2 C 0 km/h
1211 23-02-2009 02:09:50 5.2 C 4.54 g/m*3 5.2 C 0 km/h
1212 23-02-2009 02:21:50 5.2 C 4.48 g/m*3 5.2 C 0 km/h
1213 23-02-2009 02:33:50 5.3 C 4.44 g/m*3 5.3 C 0 km/h
1214 23-02-2009 02:45:50 5.3 C 4.37 g/m*3 5.3 C 0 km/h
1215 23-02-2009 02:57:50 5.3 C 4.3 g/m*3 5.3 C 0 km/h
1216 23-02-2009 03:09:50 5.4 C 4.26 g/m*3 5.4 C 0 km/h
1217 23-02-2009 03:21:51 5.6 C 4.03 g/m*3 5.6 C 0 km/h
1218 23-02-2009 03:33:51 5.4 C 3.98 g/m*3 5.4 C 0 km/h
1219 23-02-2009 03:45:51 5.3 C 4.02 g/m*3 5.3 C 0 km/h
1220 23-02-2009 03:57:51 5.3 C 4.02 g/m*3 5.3 C 0 km/h
1221 23-02-2009 04:09:51 5.3 C 3.95 g/m*3 5.3 C 0 km/h
1222 23-02-2009 04:21:51 5.2 C 3.86 g/m*3 5.2 C 0 km/h
1223 23-02-2009 04:33:51 5.2 C 3.86 g/m*3 5.2 C 0 km/h
1224 23-02-2009 04:45:51 5.2 C 3.92 g/m*3 5.2 C 0 km/h
1225 23-02-2009 04:57:51 5.3 C 3.88 g/m*3 5.3 C 0 km/h
Sensor: Nr:Datum:Temp:Abs-Feuchte:Windchill:Wind:
Aussen-T/F 1226 23-02-2009 05:09:51 5.4 C 4.05 g/m*3 5.4 C 0 km/h
1227 23-02-2009 05:21:51 5.4 C 4.12 g/m*3 5.4 C 0 km/h
1228 23-02-2009 05:33:51 5.4 C 4.12 g/m*3 5.4 C 0 km/h
1229 23-02-2009 05:45:51 5.3 C 4.09 g/m*3 5.3 C 0 km/h
1230 23-02-2009 05:57:51 5 C 4.21 g/m*3 5 C 0 km/h
1231 23-02-2009 06:09:51 4.2 C 4.64 g/m*3 4.2 C 0 km/h
1232 23-02-2009 06:21:51 4.2 C 4.9 g/m*3 4.2 C 0 km/h
1233 23-02-2009 06:33:51 4 C 5.02 g/m*3 4 C 0 km/h
1234 23-02-2009 06:45:51 3.9 C 5.18 g/m*3 3.9 C 0 km/h
1235 23-02-2009 06:57:51 3.8 C 5.21 g/m*3 3.8 C 0 km/h
1236 23-02-2009 07:09:52 3.9 C 5.31 g/m*3 3.9 C 0 km/h
1237 23-02-2009 07:21:52 4 C 5.28 g/m*3 4 C 0 km/h
1238 23-02-2009 07:33:52 4 C 5.28 g/m*3 4 C 0 km/h
1239 23-02-2009 07:45:52 4.3 C 5.25 g/m*3 4.3 C 0 km/h
1240 23-02-2009 07:57:52 4.7 C 5.13 g/m*3 4.7 C 0 km/h
1241 23-02-2009 08:09:52 4.8 C 4.96 g/m*3 4.8 C 0 km/h
1242 23-02-2009 08:21:52 4.9 C 4.93 g/m*3 4.9 C 0 km/h
1243 23-02-2009 08:33:52 5 C 4.82 g/m*3 5 C 0 km/h
1244 23-02-2009 08:45:52 5.1 C 4.79 g/m*3 5.1 C 0 km/h
1245 23-02-2009 08:57:52 5.2 C 4.75 g/m*3 5.2 C 0 km/h
1246 23-02-2009 09:09:52 5 C 4.89 g/m*3 5 C 0 km/h
1247 23-02-2009 09:21:52 4.9 C 5.06 g/m*3 4.9 C 0 km/h
1248 23-02-2009 09:33:49 5 C 5.03 g/m*3 5 C 0 km/h
1249 23-02-2009 09:45:48 5.2 C 4.89 g/m*3 5.2 C 0 km/h
1250 23-02-2009 09:57:48 5.2 C 4.89 g/m*3 5.2 C 0 km/h
Sensor: Nr:Datum:Temp:Abs-Feuchte:Windchill:Wind:
Aussen-T/F 1251 23-02-2009 10:09:49 5.3 C 4.85 g/m*3 5.3 C 0 km/h
1252 23-02-2009 10:21:49 5.6 C 4.81 g/m*3 5.6 C 0 km/h
1253 23-02-2009 10:33:48 5.8 C 4.87 g/m*3 5.8 C 0 km/h
1254 23-02-2009 10:45:48 6 C 4.79 g/m*3 6 C 0 km/h
1255 23-02-2009 10:57:48 6.3 C 4.81 g/m*3 6.3 C 0 km/h
1256 23-02-2009 11:09:48 6.7 C 4.79 g/m*3 6.7 C 0 km/h
1257 23-02-2009 11:21:48 6.6 C 4.68 g/m*3 6.6 C 0 km/h
1258 23-02-2009 11:33:48 6.6 C 4.68 g/m*3 6.6 C 0 km/h
1259 23-02-2009 11:45:47 6.6 C 4.68 g/m*3 6.6 C 0 km/h
1260 23-02-2009 11:57:47 6.7 C 4.64 g/m*3 6.7 C 0 km/h
1261 23-02-2009 12:09:48 6.7 C 4.71 g/m*3 6.7 C 0 km/h
1262 23-02-2009 12:21:47 6.8 C 4.67 g/m*3 6.8 C 0 km/h
1263 23-02-2009 12:33:47 6.9 C 4.62 g/m*3 6.9 C 0 km/h
1264 23-02-2009 12:45:47 7 C 4.57 g/m*3 7 C 0 km/h
1265 23-02-2009 12:57:47 7.3 C 4.58 g/m*3 7.3 C 0 km/h
1266 23-02-2009 13:09:47 7.3 C 4.66 g/m*3 7.3 C 0 km/h
1267 23-02-2009 13:21:47 6.4 C 4.92 g/m*3 6.4 C 0 km/h
1268 23-02-2009 13:33:47 5.9 C 5.34 g/m*3 5.9 C 0 km/h
1269 23-02-2009 13:45:47 5.9 C 5.41 g/m*3 5.9 C 0 km/h
1270 23-02-2009 13:57:47 6.1 C 5.48 g/m*3 6.1 C 0 km/h
1271 23-02-2009 14:09:46 6.2 C 5.37 g/m*3 6.2 C 0 km/h
1272 23-02-2009 14:21:47 6.4 C 5.44 g/m*3 6.4 C 0 km/h
1273 23-02-2009 14:33:46 6.3 C 5.18 g/m*3 6.3 C 0 km/h
1274 23-02-2009 14:45:46 5.9 C 5.26 g/m*3 5.9 C 0 km/h
1275 23-02-2009 14:57:46 5.7 C 5.48 g/m*3 5.7 C 0 km/h
Sensor: Nr:Datum:Temp:Abs-Feuchte:Windchill:Wind:
Aussen-T/F 1276 23-02-2009 15:09:46 5.8 C 5.59 g/m*3 5.8 C 0 km/h
1277 23-02-2009 15:21:46 6 C 5.59 g/m*3 6 C 0 km/h
1278 23-02-2009 15:33:46 6.5 C 5.47 g/m*3 6.5 C 0 km/h
1279 23-02-2009 15:45:45 6.9 C 5.47 g/m*3 6.9 C 0 km/h
1280 23-02-2009 15:57:45 6.8 C 4.89 g/m*3 6.8 C 0 km/h
1281 23-02-2009 16:09:46 6.3 C 4.96 g/m*3 6.3 C 0 km/h
1282 23-02-2009 16:21:45 6 C 5.08 g/m*3 6 C 0 km/h
1283 23-02-2009 16:33:45 5.8 C 5.16 g/m*3 5.8 C 0 km/h
1284 23-02-2009 16:45:45 5.9 C 5.19 g/m*3 5.9 C 0 km/h
1285 23-02-2009 16:57:45 5.9 C 5.05 g/m*3 5.9 C 0 km/h
1286 23-02-2009 17:09:45 5.9 C 5.05 g/m*3 5.9 C 0 km/h
1287 23-02-2009 17:21:44 5.7 C 5.05 g/m*3 5.7 C 0 km/h
1288 23-02-2009 17:33:45 5.7 C 4.98 g/m*3 5.7 C 0 km/h
1289 23-02-2009 17:45:44 5.7 C 4.91 g/m*3 5.7 C 0 km/h
1290 23-02-2009 17:57:44 5.7 C 4.91 g/m*3 5.7 C 0 km/h
1291 23-02-2009 18:09:03 5.7 C 4.84 g/m*3 5.7 C 0 km/h
1292 23-02-2009 18:21:02 5.6 C 4.88 g/m*3 5.6 C 0 km/h
1293 23-02-2009 18:33:02 5.4 C 4.81 g/m*3 5.4 C 0 km/h
1294 23-02-2009 18:45:02 5.3 C 4.85 g/m*3 5.3 C 0 km/h
1295 23-02-2009 18:57:02 5.3 C 4.85 g/m*3 5.3 C 0 km/h
1296 23-02-2009 19:09:02 5.4 C 4.88 g/m*3 5.4 C 0 km/h
1297 23-02-2009 19:21:01 5.4 C 4.88 g/m*3 5.4 C 0 km/h
1298 23-02-2009 19:33:02 5.4 C 4.6 g/m*3 5.4 C 0 km/h
1299 23-02-2009 19:45:01 5.6 C 4.45 g/m*3 5.6 C 0 km/h
1300 23-02-2009 19:57:01 5.6 C 4.31 g/m*3 5.6 C 0 km/h
Sensor: Nr:Datum:Temp:Abs-Feuchte:Windchill:Wind:
Aussen-T/F 1301 23-02-2009 20:09:01 5.6 C 4.31 g/m*3 5.6 C 0 km/h
1302 23-02-2009 20:21:01 5.6 C 4.17 g/m*3 5.6 C 0 km/h
1303 23-02-2009 20:33:01 5.6 C 4.1 g/m*3 5.6 C 0 km/h
1304 23-02-2009 20:45:00 5.6 C 4.1 g/m*3 5.6 C 0 km/h
1305 23-02-2009 20:57:00 5.6 C 4.03 g/m*3 5.6 C 0 km/h
1306 23-02-2009 21:09:01 5.6 C 4.03 g/m*3 5.6 C 0 km/h
1307 23-02-2009 21:21:00 5.7 C 3.99 g/m*3 5.7 C 0 km/h
1308 23-02-2009 21:34:01 5.5 C 4 g/m*3 5.5 C 0 km/h
1309 23-02-2009 21:46:01 5.6 C 4.03 g/m*3 5.6 C 0 km/h
1310 23-02-2009 21:58:01 5.5 C 4 g/m*3 5.5 C 0 km/h
1311 23-02-2009 22:10:01 5.3 C 4.09 g/m*3 5.3 C 0 km/h
1312 23-02-2009 22:22:01 5.1 C 4.17 g/m*3 5.1 C 0 km/h
1313 23-02-2009 22:34:01 5 C 4.28 g/m*3 5 C 0 km/h
1314 23-02-2009 22:46:01 4.9 C 4.39 g/m*3 4.9 C 0 km/h
1315 23-02-2009 22:58:01 4.6 C 4.5 g/m*3 4.6 C 0 km/h
1316 23-02-2009 23:10:01 4.6 C 4.57 g/m*3 4.6 C 0 km/h
1317 23-02-2009 23:22:01 4.6 C 4.57 g/m*3 4.6 C 0 km/h
1318 23-02-2009 23:34:01 4.6 C 4.57 g/m*3 4.6 C 0 km/h
1319 23-02-2009 23:46:01 4.6 C 4.5 g/m*3 4.6 C 0 km/h
1320 23-02-2009 23:58:01 4.7 C 4.53 g/m*3 4.7 C 0 km/h
1321 24-02-2009 00:10:01 4.7 C 4.53 g/m*3 4.7 C 0 km/h
1322 24-02-2009 00:22:01 4.7 C 4.46 g/m*3 4.7 C 0 km/h
1323 24-02-2009 00:34:01 4.7 C 4.53 g/m*3 4.7 C 0 km/h
1324 24-02-2009 00:46:01 4.7 C 4.46 g/m*3 4.7 C 0 km/h
1325 24-02-2009 00:58:01 4.7 C 4.46 g/m*3 4.7 C 0 km/h
Sensor: Nr:Datum:Temp:Abs-Feuchte:Windchill:Wind:
Aussen-T/F 1326 24-02-2009 01:10:02 4.6 C 4.43 g/m*3 4.6 C 0 km/h
1327 24-02-2009 01:22:02 4.6 C 4.43 g/m*3 4.6 C 0 km/h
1328 24-02-2009 01:34:02 4.5 C 4.47 g/m*3 4.5 C 0 km/h
1329 24-02-2009 01:46:02 4.5 C 4.47 g/m*3 4.5 C 0 km/h
1330 24-02-2009 01:58:02 4.5 C 4.47 g/m*3 4.5 C 0 km/h
1331 24-02-2009 02:10:02 4.4 C 4.51 g/m*3 4.4 C 0 km/h
1332 24-02-2009 02:22:02 4.3 C 4.61 g/m*3 4.3 C 0 km/h
1333 24-02-2009 02:34:02 4.2 C 4.64 g/m*3 4.2 C 0 km/h
1334 24-02-2009 02:46:02 4.3 C 4.67 g/m*3 4.3 C 0 km/h
1335 24-02-2009 02:58:02 4.3 C 4.61 g/m*3 4.3 C 0 km/h
1336 24-02-2009 03:10:02 4.2 C 4.57 g/m*3 4.2 C 0 km/h
1337 24-02-2009 03:22:02 4.2 C 4.57 g/m*3 4.2 C 0 km/h
1338 24-02-2009 03:34:02 4.2 C 4.57 g/m*3 4.2 C 0 km/h
1339 24-02-2009 03:46:02 4.1 C 4.54 g/m*3 4.1 C 0 km/h
1340 24-02-2009 03:58:02 4.1 C 4.54 g/m*3 4.1 C 0 km/h
1341 24-02-2009 04:10:02 4.2 C 4.51 g/m*3 4.2 C 0 km/h
1342 24-02-2009 04:22:02 4.1 C 4.48 g/m*3 4.1 C 0 km/h
1343 24-02-2009 04:34:02 4.1 C 4.42 g/m*3 4.1 C 0 km/h
1344 24-02-2009 04:46:02 4.1 C 4.42 g/m*3 4.1 C 0 km/h
1345 24-02-2009 04:58:02 4.1 C 4.35 g/m*3 4.1 C 0 km/h
1346 24-02-2009 05:10:03 4.1 C 4.35 g/m*3 4.1 C 0 km/h
1347 24-02-2009 05:22:03 4.1 C 4.35 g/m*3 4.1 C 0 km/h
1348 24-02-2009 05:34:03 4 C 4.32 g/m*3 4 C 0 km/h
1349 24-02-2009 05:46:03 4 C 4.32 g/m*3 4 C 0 km/h
1350 24-02-2009 05:58:03 4.1 C 4.35 g/m*3 4.1 C 0 km/h
Sensor: Nr:Datum:Temp:Abs-Feuchte:Windchill:Wind:
Aussen-T/F 1351 24-02-2009 06:10:03 4.1 C 4.35 g/m*3 4.1 C 0 km/h
1352 24-02-2009 06:22:03 4.1 C 4.35 g/m*3 4.1 C 0 km/h
1353 24-02-2009 06:34:03 4 C 4.32 g/m*3 4 C 0 km/h
1354 24-02-2009 06:46:03 4.1 C 4.29 g/m*3 4.1 C 0 km/h
1355 24-02-2009 06:58:03 4 C 4.32 g/m*3 4 C 0 km/h
1356 24-02-2009 07:10:01 4 C 4.32 g/m*3 4 C 0 km/h
1357 24-02-2009 07:22:01 4 C 4.32 g/m*3 4 C 0 km/h
1358 24-02-2009 07:34:01 4 C 4.32 g/m*3 4 C 0 km/h
1359 24-02-2009 07:46:01 4 C 4.32 g/m*3 4 C 0 km/h
1360 24-02-2009 07:58:01 4 C 4.26 g/m*3 4 C 0 km/h
1361 24-02-2009 08:10:00 4.1 C 4.29 g/m*3 4.1 C 0 km/h
1362 24-02-2009 08:22:01 4.1 C 4.29 g/m*3 4.1 C 0 km/h
1363 24-02-2009 08:34:00 4.1 C 4.29 g/m*3 4.1 C 0 km/h
1364 24-02-2009 08:46:00 4.2 C 4.32 g/m*3 4.2 C 0 km/h
1365 24-02-2009 08:58:01 4.2 C 4.32 g/m*3 4.2 C 0 km/h
1366 24-02-2009 09:09:59 4.3 C 4.35 g/m*3 4.3 C 0 km/h
1367 24-02-2009 09:22:00 4.4 C 4.31 g/m*3 4.4 C 0 km/h
1368 24-02-2009 09:34:59 4.6 C 4.3 g/m*3 4.6 C 0 km/h
1369 24-02-2009 09:46:00 4.8 C 4.36 g/m*3 4.8 C 0 km/h
1370 24-02-2009 09:58:00 4.7 C 4.26 g/m*3 4.7 C 0 km/h
1371 24-02-2009 10:10:59 4.9 C 4.25 g/m*3 4.9 C 0 km/h
1372 24-02-2009 10:22:59 5 C 4.21 g/m*3 5 C 0 km/h
1373 24-02-2009 10:34:59 5.1 C 4.24 g/m*3 5.1 C 0 km/h
1374 24-02-2009 10:46:59 5.3 C 4.3 g/m*3 5.3 C 0 km/h
1375 24-02-2009 10:59:00 5.1 C 4.24 g/m*3 5.1 C 0 km/h
Sensor: Nr:Datum:Temp:Abs-Feuchte:Windchill:Wind:
Aussen-T/F 1376 24-02-2009 11:10:58 5.1 C 4.24 g/m*3 5.1 C 0 km/h
1377 24-02-2009 11:22:59 5.4 C 4.4 g/m*3 5.4 C 0 km/h
1378 24-02-2009 11:34:59 5.4 C 4.26 g/m*3 5.4 C 0 km/h
1379 24-02-2009 11:46:58 5.7 C 4.34 g/m*3 5.7 C 0 km/h
1380 24-02-2009 11:58:58 5.9 C 3.97 g/m*3 5.9 C 0 km/h
1381 24-02-2009 12:10:59 6.1 C 3.8 g/m*3 6.1 C 0 km/h
1382 24-02-2009 12:22:58 6 C 3.7 g/m*3 6 C 0 km/h
1383 24-02-2009 12:34:58 6.1 C 3.8 g/m*3 6.1 C 0 km/h
1384 24-02-2009 12:46:58 6.3 C 4 g/m*3 6.3 C 0 km/h
1385 24-02-2009 12:58:58 6 C 3.85 g/m*3 6 C 0 km/h
1386 24-02-2009 13:10:58 6.2 C 3.82 g/m*3 6.2 C 0 km/h
1387 24-02-2009 13:22:57 6.3 C 3.78 g/m*3 6.3 C 0 km/h
1388 24-02-2009 13:34:57 6.4 C 3.8 g/m*3 6.4 C 0 km/h
1389 24-02-2009 13:46:57 6.7 C 3.8 g/m*3 6.7 C 0 km/h
1390 24-02-2009 13:58:57 6.8 C 3.67 g/m*3 6.8 C 0 km/h
1391 24-02-2009 14:10:57 6.9 C 3.54 g/m*3 6.9 C 0 km/h
1392 24-02-2009 14:22:57 6.4 C 3.65 g/m*3 6.4 C 0 km/h
1393 24-02-2009 14:34:57 6.7 C 3.72 g/m*3 6.7 C 0 km/h
1394 24-02-2009 14:46:56 6.9 C 3.77 g/m*3 6.9 C 0 km/h
1395 24-02-2009 14:58:56 7.1 C 3.59 g/m*3 7.1 C 0 km/h
1396 24-02-2009 15:10:56 7 C 3.41 g/m*3 7 C 0 km/h
1397 24-02-2009 15:22:57 6.9 C 3.39 g/m*3 6.9 C 0 km/h
1398 24-02-2009 15:34:56 6.9 C 3.31 g/m*3 6.9 C 0 km/h
1399 24-02-2009 15:46:56 7.5 C 3.44 g/m*3 7.5 C 0 km/h
1400 24-02-2009 15:58:56 7.6 C 3.3 g/m*3 7.6 C 0 km/h
Sensor: Nr:Datum:Temp:Abs-Feuchte:Windchill:Wind:
Aussen-T/F 1401 24-02-2009 16:10:56 8.1 C 3.25 g/m*3 8.1 C 0 km/h
1402 24-02-2009 16:22:56 8.1 C 3 g/m*3 8.1 C 0 km/h
1403 24-02-2009 16:34:55 7.9 C 3.04 g/m*3 7.9 C 0 km/h
1404 24-02-2009 16:46:56 8.4 C 3.05 g/m*3 8.4 C 0 km/h
1405 24-02-2009 16:58:57 7.8 C 3.1 g/m*3 7.8 C 0 km/h
1406 24-02-2009 17:10:55 7.2 C 3.14 g/m*3 7.2 C 0 km/h
1407 24-02-2009 17:22:55 6.6 C 3.17 g/m*3 6.6 C 0 km/h
1408 24-02-2009 17:34:55 6.5 C 3.15 g/m*3 6.5 C 0 km/h
1409 24-02-2009 17:46:55 6.5 C 3.37 g/m*3 6.5 C 0 km/h
1410 24-02-2009 17:58:55 6.3 C 3.41 g/m*3 6.3 C 0 km/h
1411 24-02-2009 18:10:55 6.2 C 3.24 g/m*3 6.2 C 0 km/h
1412 24-02-2009 18:22:54 6.1 C 3.29 g/m*3 6.1 C 0 km/h
1413 24-02-2009 18:34:55 5.9 C 3.53 g/m*3 5.9 C 0 km/h
1414 24-02-2009 18:46:54 5.8 C 3.58 g/m*3 5.8 C 0 km/h
1415 24-02-2009 18:58:54 5.6 C 3.68 g/m*3 5.6 C 0 km/h
1416 24-02-2009 19:10:54 5.4 C 3.77 g/m*3 5.4 C 0 km/h
1417 24-02-2009 19:22:54 5 C 3.67 g/m*3 5 C 0 km/h
1418 24-02-2009 19:34:54 4.4 C 3.72 g/m*3 4.4 C 0 km/h
1419 24-02-2009 19:46:53 3.9 C 3.6 g/m*3 3.9 C 0 km/h
1420 24-02-2009 19:58:53 3.5 C 3.63 g/m*3 3.5 C 0 km/h
1421 24-02-2009 20:10:54 3.4 C 3.6 g/m*3 3.4 C 0 km/h
1422 24-02-2009 20:22:54 3.4 C 3.73 g/m*3 3.4 C 0 km/h
1423 24-02-2009 20:34:53 3.5 C 3.94 g/m*3 3.5 C 0 km/h
1424 24-02-2009 20:46:54 3.4 C 4.09 g/m*3 3.4 C 0 km/h
1425 24-02-2009 20:58:54 3.3 C 4.13 g/m*3 3.3 C 0 km/h
Sensor: Nr:Datum:Temp:Abs-Feuchte:Windchill:Wind:
Aussen-T/F 1426 24-02-2009 21:10:53 3.1 C 4.13 g/m*3 3.1 C 0 km/h
1427 24-02-2009 21:22:53 2.8 C 4.16 g/m*3 2.8 C 0 km/h
1428 24-02-2009 21:34:52 2.7 C 4.2 g/m*3 2.7 C 0 km/h
1429 24-02-2009 21:46:53 2.8 C 4.28 g/m*3 2.8 C 0 km/h
1430 24-02-2009 21:58:53 2.7 C 4.2 g/m*3 2.7 C 0 km/h
1431 24-02-2009 22:10:52 3 C 4.34 g/m*3 3 C 0 km/h
1432 24-02-2009 22:22:52 2.8 C 4.22 g/m*3 2.8 C 0 km/h
1433 24-02-2009 22:34:53 2.6 C 4.22 g/m*3 2.6 C 0 km/h
1434 24-02-2009 22:46:53 2.6 C 4.22 g/m*3 2.6 C 0 km/h
1435 24-02-2009 22:58:53 2.6 C 4.28 g/m*3 2.6 C 0 km/h
1436 24-02-2009 23:10:53 2.6 C 4.22 g/m*3 2.6 C 0 km/h
1437 24-02-2009 23:22:53 2.4 C 4.23 g/m*3 2.4 C 0 km/h
1438 24-02-2009 23:34:53 2.3 C 4.2 g/m*3 2.3 C 0 km/h
1439 24-02-2009 23:46:53 2 C 4.17 g/m*3 2 C 0 km/h
1440 24-02-2009 23:58:53 1.8 C 4.17 g/m*3 1.8 C 0 km/h
1441 25-02-2009 00:10:53 1.7 C 4.19 g/m*3 1.7 C 0 km/h
1442 25-02-2009 00:22:52 1.7 C 4.19 g/m*3 1.7 C 0 km/h
1443 25-02-2009 00:34:52 1.5 C 4.19 g/m*3 1.5 C 0 km/h
1444 25-02-2009 00:46:51 1.3 C 4.19 g/m*3 1.3 C 0 km/h
1445 25-02-2009 00:58:51 1.1 C 4.13 g/m*3 1.1 C 0 km/h
1446 25-02-2009 01:10:52 1.1 C 4.18 g/m*3 1.1 C 0 km/h
1447 25-02-2009 01:22:52 0.9 C 4.18 g/m*3 0.9 C 0 km/h
1448 25-02-2009 01:34:51 0.7 C 4.17 g/m*3 0.7 C 0 km/h
1449 25-02-2009 01:46:51 0.7 C 4.17 g/m*3 0.7 C 0 km/h
1450 25-02-2009 01:58:51 0.6 C 4.19 g/m*3 0.6 C 0 km/h
Sensor: Nr:Datum:Temp:Abs-Feuchte:Windchill:Wind:
Aussen-T/F 1451 25-02-2009 02:10:51 0.5 C 4.16 g/m*3 0.5 C 0 km/h
1452 25-02-2009 02:22:51 0.2 C 4.08 g/m*3 0.2 C 0 km/h
1453 25-02-2009 02:34:50 0 C 4.02 g/m*3 0 C 0 km/h
1454 25-02-2009 02:47:53 -0.3 C 3.94 g/m*3 -0.3 C 0 km/h
1455 25-02-2009 02:59:53 -0.3 C 3.94 g/m*3 -0.3 C 0 km/h
1456 25-02-2009 03:11:52 -0.4 C 3.96 g/m*3 -0.4 C 0 km/h
1457 25-02-2009 03:23:52 -0.5 C 3.93 g/m*3 -0.5 C 0 km/h
1458 25-02-2009 03:35:52 -0.4 C 3.96 g/m*3 -0.4 C 0 km/h
1459 25-02-2009 03:47:52 -0.7 C 3.88 g/m*3 -0.7 C 0 km/h
1460 25-02-2009 03:59:52 -0.7 C 3.88 g/m*3 -0.7 C 0 km/h
1461 25-02-2009 04:11:52 -0.8 C 3.85 g/m*3 -0.8 C 0 km/h
1462 25-02-2009 04:23:52 -0.8 C 3.85 g/m*3 -0.8 C 0 km/h
1463 25-02-2009 04:35:51 -0.8 C 3.9 g/m*3 -0.8 C 0 km/h
1464 25-02-2009 04:47:51 -0.9 C 3.91 g/m*3 -0.9 C 0 km/h
1465 25-02-2009 04:59:51 -0.7 C 4.02 g/m*3 -0.7 C 0 km/h
1466 25-02-2009 05:11:51 -0.7 C 4.02 g/m*3 -0.7 C 0 km/h
1467 25-02-2009 05:23:52 -0.6 C 4.09 g/m*3 -0.6 C 0 km/h
1468 25-02-2009 05:35:51 -0.7 C 4.11 g/m*3 -0.7 C 0 km/h
1469 25-02-2009 05:47:51 -0.6 C 4.14 g/m*3 -0.6 C 0 km/h
1470 25-02-2009 05:59:51 -0.6 C 4.14 g/m*3 -0.6 C 0 km/h
1471 25-02-2009 06:11:51 -0.7 C 4.11 g/m*3 -0.7 C 0 km/h
1472 25-02-2009 06:23:50 -0.9 C 4.05 g/m*3 -0.9 C 0 km/h
1473 25-02-2009 06:35:51 -0.8 C 4.13 g/m*3 -0.8 C 0 km/h
1474 25-02-2009 06:47:50 -0.9 C 4.1 g/m*3 -0.9 C 0 km/h
1475 25-02-2009 06:59:50 -0.8 C 4.13 g/m*3 -0.8 C 0 km/h
Sensor: Nr:Datum:Temp:Abs-Feuchte:Windchill:Wind:
Aussen-T/F 1476 25-02-2009 07:11:50 -0.7 C 4.15 g/m*3 -0.7 C 0 km/h
1477 25-02-2009 07:23:50 -0.7 C 4.15 g/m*3 -0.7 C 0 km/h
1478 25-02-2009 07:35:50 -0.6 C 4.18 g/m*3 -0.6 C 0 km/h
1479 25-02-2009 07:47:49 -0.7 C 4.15 g/m*3 -0.7 C 0 km/h
1480 25-02-2009 07:59:49 -0.8 C 4.13 g/m*3 -0.8 C 0 km/h
1481 25-02-2009 08:11:50 -0.8 C 4.13 g/m*3 -0.8 C 0 km/h
1482 25-02-2009 08:23:50 -0.9 C 4.05 g/m*3 -0.9 C 0 km/h
1483 25-02-2009 08:35:49 -0.9 C 4.05 g/m*3 -0.9 C 0 km/h
1484 25-02-2009 08:47:49 -0.8 C 4.08 g/m*3 -0.8 C 0 km/h
1485 25-02-2009 08:59:49 -0.3 C 4.22 g/m*3 -0.3 C 0 km/h
1486 25-02-2009 09:11:49 -0.1 C 4.28 g/m*3 -0.1 C 0 km/h
1487 25-02-2009 09:23:49 -0.2 C 4.21 g/m*3 -0.2 C 0 km/h
1488 25-02-2009 09:35:48 -0.2 C 4.16 g/m*3 -0.2 C 0 km/h
1489 25-02-2009 09:47:49 -0.2 C 4.16 g/m*3 -0.2 C 0 km/h
1490 25-02-2009 09:59:49 -0.1 C 4.19 g/m*3 -0.1 C 0 km/h
1491 25-02-2009 10:11:48 0.1 C 4.24 g/m*3 0.1 C 0 km/h
1492 25-02-2009 10:23:48 0.3 C 4.3 g/m*3 0.3 C 0 km/h
1493 25-02-2009 10:35:49 1 C 4.46 g/m*3 1 C 0 km/h
1494 25-02-2009 10:47:48 1.1 C 4.34 g/m*3 1.1 C 0 km/h
1495 25-02-2009 10:59:48 1.4 C 4.37 g/m*3 1.4 C 0 km/h
1496 25-02-2009 11:11:48 2 C 4.45 g/m*3 2 C 0 km/h
1497 25-02-2009 11:23:48 1.7 C 4.25 g/m*3 1.7 C 0 km/h
1498 25-02-2009 11:35:48 2.3 C 4.37 g/m*3 2.3 C 0 km/h
1499 25-02-2009 11:47:47 3.2 C 4.46 g/m*3 3.2 C 0 km/h
1500 25-02-2009 11:59:47 3.5 C 4.49 g/m*3 3.5 C 0 km/h
Sensor: Nr:Datum:Temp:Abs-Feuchte:Windchill:Wind:
Aussen-T/F 1501 25-02-2009 12:11:48 3.9 C 4.55 g/m*3 3.9 C 0 km/h
1502 25-02-2009 12:23:47 4.8 C 4.69 g/m*3 4.8 C 0 km/h
1503 25-02-2009 12:35:47 5.8 C 4.51 g/m*3 5.8 C 0 km/h
1504 25-02-2009 12:47:47 6.4 C 3.95 g/m*3 6.4 C 0 km/h
1505 25-02-2009 12:59:47 6.9 C 3.46 g/m*3 6.9 C 0 km/h
1506 25-02-2009 13:11:47 7.4 C 3.18 g/m*3 7.4 C 0 km/h
1507 25-02-2009 13:23:46 7.5 C 3.2 g/m*3 7.5 C 0 km/h
1508 25-02-2009 13:35:46 7.6 C 3.22 g/m*3 7.6 C 0 km/h
1509 25-02-2009 13:47:47 7.8 C 3.1 g/m*3 7.8 C 0 km/h
1510 25-02-2009 13:59:47 7.9 C 3.12 g/m*3 7.9 C 0 km/h
1511 25-02-2009 14:11:46 8 C 3.14 g/m*3 8 C 0 km/h
1512 25-02-2009 14:23:46 8.1 C 3.16 g/m*3 8.1 C 0 km/h
1513 25-02-2009 14:35:46 8.4 C 3.14 g/m*3 8.4 C 0 km/h
1514 25-02-2009 14:47:46 8.7 C 3.11 g/m*3 8.7 C 0 km/h
1515 25-02-2009 14:59:46 8.6 C 3.01 g/m*3 8.6 C 0 km/h
1516 25-02-2009 15:11:45 8.6 C 3.09 g/m*3 8.6 C 0 km/h
1517 25-02-2009 15:23:46 8.7 C 3.11 g/m*3 8.7 C 0 km/h
1518 25-02-2009 15:35:46 8.9 C 3.07 g/m*3 8.9 C 0 km/h
1519 25-02-2009 15:47:45 8.6 C 3.09 g/m*3 8.6 C 0 km/h
1520 25-02-2009 15:59:45 8.4 C 3.14 g/m*3 8.4 C 0 km/h
1521 25-02-2009 16:11:46 8.5 C 3.24 g/m*3 8.5 C 0 km/h
1522 25-02-2009 16:23:45 8.6 C 3.35 g/m*3 8.6 C 0 km/h
1523 25-02-2009 16:35:45 8.6 C 3.27 g/m*3 8.6 C 0 km/h
1524 25-02-2009 16:47:44 8.4 C 3.39 g/m*3 8.4 C 0 km/h
1525 25-02-2009 16:59:44 8.1 C 3.33 g/m*3 8.1 C 0 km/h
Sensor: Nr:Datum:Temp:Abs-Feuchte:Windchill:Wind:
Aussen-T/F 1526 25-02-2009 17:11:45 7.8 C 3.43 g/m*3 7.8 C 0 km/h
1527 25-02-2009 17:23:44 7.5 C 3.6 g/m*3 7.5 C 0 km/h
1528 25-02-2009 17:35:44 7.2 C 3.53 g/m*3 7.2 C 0 km/h
1529 25-02-2009 17:47:44 6.9 C 3.62 g/m*3 6.9 C 0 km/h
1530 25-02-2009 17:59:44 6.6 C 3.55 g/m*3 6.6 C 0 km/h
1531 25-02-2009 18:11:44 6.4 C 3.5 g/m*3 6.4 C 0 km/h
1532 25-02-2009 18:23:44 6.2 C 3.6 g/m*3 6.2 C 0 km/h
1533 25-02-2009 18:35:43 6.2 C 3.68 g/m*3 6.2 C 0 km/h
1534 25-02-2009 18:47:44 6 C 3.63 g/m*3 6 C 0 km/h
1535 25-02-2009 18:59:44 5.8 C 3.65 g/m*3 5.8 C 0 km/h
1536 25-02-2009 19:11:43 5.6 C 3.61 g/m*3 5.6 C 0 km/h
1537 25-02-2009 19:23:43 5.4 C 3.56 g/m*3 5.4 C 0 km/h
1538 25-02-2009 19:35:43 5.4 C 3.56 g/m*3 5.4 C 0 km/h
1539 25-02-2009 19:47:43 5.4 C 3.56 g/m*3 5.4 C 0 km/h
1540 25-02-2009 19:59:43 5.3 C 3.53 g/m*3 5.3 C 0 km/h
1541 25-02-2009 20:11:42 5.1 C 3.56 g/m*3 5.1 C 0 km/h
1542 25-02-2009 20:23:43 5 C 3.53 g/m*3 5 C 0 km/h
1543 25-02-2009 20:35:43 5.2 C 3.58 g/m*3 5.2 C 0 km/h
1544 25-02-2009 20:47:42 5.3 C 3.53 g/m*3 5.3 C 0 km/h
1545 25-02-2009 20:59:42 5.3 C 3.6 g/m*3 5.3 C 0 km/h
1546 25-02-2009 21:11:42 5.5 C 3.51 g/m*3 5.5 C 0 km/h
1547 25-02-2009 21:23:42 5.6 C 3.53 g/m*3 5.6 C 0 km/h
1548 25-02-2009 21:35:42 5.5 C 3.51 g/m*3 5.5 C 0 km/h
1549 25-02-2009 21:47:42 5.5 C 3.51 g/m*3 5.5 C 0 km/h
1550 25-02-2009 21:59:42 5.6 C 3.53 g/m*3 5.6 C 0 km/h
Sensor: Nr:Datum:Temp:Abs-Feuchte:Windchill:Wind:
Aussen-T/F 1551 25-02-2009 22:11:41 5.7 C 3.49 g/m*3 5.7 C 0 km/h
1552 25-02-2009 22:23:42 5.7 C 3.49 g/m*3 5.7 C 0 km/h
1553 25-02-2009 22:36:43 5.7 C 3.49 g/m*3 5.7 C 0 km/h
1554 25-02-2009 22:48:43 5.7 C 3.49 g/m*3 5.7 C 0 km/h
1555 25-02-2009 23:00:43 5.7 C 3.49 g/m*3 5.7 C 0 km/h
1556 25-02-2009 23:12:43 5.7 C 3.49 g/m*3 5.7 C 0 km/h
1557 25-02-2009 23:24:43 5.8 C 3.51 g/m*3 5.8 C 0 km/h
1558 25-02-2009 23:36:43 5.7 C 3.49 g/m*3 5.7 C 0 km/h
1559 25-02-2009 23:48:43 5.6 C 3.53 g/m*3 5.6 C 0 km/h
1560 26-02-2009 00:00:43 5.6 C 3.53 g/m*3 5.6 C 0 km/h
1561 26-02-2009 00:12:43 5.5 C 3.58 g/m*3 5.5 C 0 km/h
1562 26-02-2009 00:24:43 5.6 C 3.61 g/m*3 5.6 C 0 km/h
1563 26-02-2009 00:36:43 5.6 C 3.68 g/m*3 5.6 C 0 km/h
1564 26-02-2009 00:48:43 5.6 C 3.68 g/m*3 5.6 C 0 km/h
1565 26-02-2009 01:00:43 5.6 C 3.68 g/m*3 5.6 C 0 km/h
1566 26-02-2009 01:12:43 5.4 C 3.7 g/m*3 5.4 C 0 km/h
1567 26-02-2009 01:24:43 5.3 C 3.67 g/m*3 5.3 C 0 km/h
1568 26-02-2009 01:36:43 5.3 C 3.67 g/m*3 5.3 C 0 km/h
1569 26-02-2009 01:48:44 5.2 C 3.72 g/m*3 5.2 C 0 km/h
1570 26-02-2009 02:00:44 5.2 C 3.79 g/m*3 5.2 C 0 km/h
1571 26-02-2009 02:12:44 5.2 C 3.79 g/m*3 5.2 C 0 km/h
1572 26-02-2009 02:24:44 5.2 C 3.86 g/m*3 5.2 C 0 km/h
1573 26-02-2009 02:36:44 5.2 C 3.86 g/m*3 5.2 C 0 km/h
1574 26-02-2009 02:48:44 5.1 C 3.83 g/m*3 5.1 C 0 km/h
1575 26-02-2009 03:00:44 5.1 C 3.9 g/m*3 5.1 C 0 km/h
Sensor: Nr:Datum:Temp:Abs-Feuchte:Windchill:Wind:
Aussen-T/F 1576 26-02-2009 03:12:44 5 C 3.87 g/m*3 5 C 0 km/h
1577 26-02-2009 03:24:44 5 C 3.94 g/m*3 5 C 0 km/h
1578 26-02-2009 03:36:44 5.1 C 3.97 g/m*3 5.1 C 0 km/h
1579 26-02-2009 03:48:44 5 C 3.94 g/m*3 5 C 0 km/h
1580 26-02-2009 04:00:44 5 C 3.94 g/m*3 5 C 0 km/h
1581 26-02-2009 04:12:44 5 C 3.94 g/m*3 5 C 0 km/h
1582 26-02-2009 04:24:44 5.2 C 4.13 g/m*3 5.2 C 0 km/h
1583 26-02-2009 04:36:44 5.3 C 4.3 g/m*3 5.3 C 0 km/h
1584 26-02-2009 04:48:44 5.4 C 4.33 g/m*3 5.4 C 0 km/h
1585 26-02-2009 05:00:44 5.5 C 4.35 g/m*3 5.5 C 0 km/h
1586 26-02-2009 05:12:44 5.5 C 4.35 g/m*3 5.5 C 0 km/h
1587 26-02-2009 05:24:44 5.4 C 4.33 g/m*3 5.4 C 0 km/h
1588 26-02-2009 05:36:44 5.4 C 4.33 g/m*3 5.4 C 0 km/h
1589 26-02-2009 05:48:45 5.4 C 4.33 g/m*3 5.4 C 0 km/h
1590 26-02-2009 06:00:45 5.4 C 4.33 g/m*3 5.4 C 0 km/h
1591 26-02-2009 06:12:45 5.4 C 4.33 g/m*3 5.4 C 0 km/h
1592 26-02-2009 06:24:45 5.3 C 4.3 g/m*3 5.3 C 0 km/h
1593 26-02-2009 06:36:45 5.2 C 4.34 g/m*3 5.2 C 0 km/h
1594 26-02-2009 06:48:45 5.2 C 4.41 g/m*3 5.2 C 0 km/h
1595 26-02-2009 07:00:42 5.2 C 4.41 g/m*3 5.2 C 0 km/h
1596 26-02-2009 07:12:42 5.2 C 4.48 g/m*3 5.2 C 0 km/h
1597 26-02-2009 07:24:42 5.2 C 4.48 g/m*3 5.2 C 0 km/h
1598 26-02-2009 07:36:42 5.3 C 4.51 g/m*3 5.3 C 0 km/h
1599 26-02-2009 07:48:41 5.3 C 4.51 g/m*3 5.3 C 0 km/h
1600 26-02-2009 08:00:42 5.3 C 4.57 g/m*3 5.3 C 0 km/h
Sensor: Nr:Datum:Temp:Abs-Feuchte:Windchill:Wind:
Aussen-T/F 1601 26-02-2009 08:12:42 5.3 C 4.57 g/m*3 5.3 C 0 km/h
1602 26-02-2009 08:24:41 5.3 C 4.64 g/m*3 5.3 C 0 km/h
1603 26-02-2009 08:36:41 5.4 C 4.67 g/m*3 5.4 C 0 km/h
1604 26-02-2009 08:48:41 5.4 C 4.67 g/m*3 5.4 C 0 km/h
1605 26-02-2009 09:00:41 5.5 C 4.71 g/m*3 5.5 C 0 km/h
1606 26-02-2009 09:12:41 5.6 C 4.81 g/m*3 5.6 C 0 km/h
1607 26-02-2009 09:24:41 5.6 C 4.88 g/m*3 5.6 C 0 km/h
1608 26-02-2009 09:36:41 5.5 C 5.06 g/m*3 5.5 C 0 km/h
1609 26-02-2009 09:48:41 5.4 C 5.16 g/m*3 5.4 C 0 km/h
1610 26-02-2009 10:00:40 5.3 C 5.27 g/m*3 5.3 C 0 km/h
1611 26-02-2009 10:12:40 5.4 C 5.37 g/m*3 5.4 C 0 km/h
1612 26-02-2009 10:24:40 5.4 C 5.3 g/m*3 5.4 C 0 km/h
1613 26-02-2009 10:36:40 5.5 C 5.34 g/m*3 5.5 C 0 km/h
1614 26-02-2009 10:48:40 5.6 C 5.3 g/m*3 5.6 C 0 km/h
1615 26-02-2009 11:00:39 5.7 C 5.34 g/m*3 5.7 C 0 km/h
1616 26-02-2009 11:12:39 5.9 C 5.34 g/m*3 5.9 C 0 km/h
1617 26-02-2009 11:24:40 6.3 C 5.33 g/m*3 6.3 C 0 km/h
1618 26-02-2009 11:36:40 6.8 C 5.2 g/m*3 6.8 C 0 km/h
1619 26-02-2009 11:48:39 7.1 C 5.07 g/m*3 7.1 C 0 km/h
1620 26-02-2009 12:00:40 7.3 C 5.06 g/m*3 7.3 C 0 km/h
1621 26-02-2009 12:12:40 7.8 C 5.06 g/m*3 7.8 C 0 km/h
1622 26-02-2009 12:24:39 7.8 C 4.9 g/m*3 7.8 C 0 km/h
1623 26-02-2009 12:36:39 8 C 4.8 g/m*3 8 C 0 km/h
1624 26-02-2009 12:48:39 8 C 4.8 g/m*3 8 C 0 km/h
1625 26-02-2009 13:00:39 7.9 C 4.85 g/m*3 7.9 C 0 km/h
Sensor: Nr:Datum:Temp:Abs-Feuchte:Windchill:Wind:
Aussen-T/F 1626 26-02-2009 13:12:40 7.9 C 4.93 g/m*3 7.9 C 0 km/h
1627 26-02-2009 13:24:38 8 C 4.88 g/m*3 8 C 0 km/h
1628 26-02-2009 13:36:38 8.2 C 4.86 g/m*3 8.2 C 0 km/h
1629 26-02-2009 13:48:38 8.3 C 4.89 g/m*3 8.3 C 0 km/h
1630 26-02-2009 14:00:38 8.6 C 4.9 g/m*3 8.6 C 0 km/h
1631 26-02-2009 14:12:38 8.9 C 4.73 g/m*3 8.9 C 0 km/h
1632 26-02-2009 14:24:38 8.8 C 4.53 g/m*3 8.8 C 0 km/h
1633 26-02-2009 14:36:38 9.2 C 3.93 g/m*3 9.2 C 0 km/h
1634 26-02-2009 14:48:38 9.6 C 3.66 g/m*3 9.6 C 0 km/h
1635 26-02-2009 15:00:37 9.5 C 3.64 g/m*3 9.5 C 0 km/h
1636 26-02-2009 15:12:37 9.5 C 3.64 g/m*3 9.5 C 0 km/h
1637 26-02-2009 15:24:38 9.6 C 3.57 g/m*3 9.6 C 0 km/h
1638 26-02-2009 15:36:37 9.4 C 3.44 g/m*3 9.4 C 0 km/h
1639 26-02-2009 15:48:37 9.4 C 3.62 g/m*3 9.4 C 0 km/h
1640 26-02-2009 16:00:37 9.3 C 3.5 g/m*3 9.3 C 0 km/h
1641 26-02-2009 16:12:37 9.4 C 3.71 g/m*3 9.4 C 0 km/h
1642 26-02-2009 16:24:37 9.2 C 3.66 g/m*3 9.2 C 0 km/h
1643 26-02-2009 16:36:37 9 C 3.61 g/m*3 9 C 0 km/h
1644 26-02-2009 16:48:37 9 C 3.61 g/m*3 9 C 0 km/h
1645 26-02-2009 17:00:37 8.8 C 3.57 g/m*3 8.8 C 0 km/h
1646 26-02-2009 17:12:37 8.6 C 3.61 g/m*3 8.6 C 0 km/h
1647 26-02-2009 17:24:36 8.6 C 3.69 g/m*3 8.6 C 0 km/h
1648 26-02-2009 17:36:36 8.3 C 3.71 g/m*3 8.3 C 0 km/h
1649 26-02-2009 17:48:36 8.2 C 3.77 g/m*3 8.2 C 0 km/h
1650 26-02-2009 18:00:36 8.1 C 3.74 g/m*3 8.1 C 0 km/h
Sensor: Nr:Datum:Temp:Abs-Feuchte:Windchill:Wind:
Aussen-T/F 1651 26-02-2009 18:12:36 8 C 3.8 g/m*3 8 C 0 km/h
1652 26-02-2009 18:24:35 7.9 C 3.78 g/m*3 7.9 C 0 km/h
1653 26-02-2009 18:36:02 7.8 C 3.84 g/m*3 7.8 C 0 km/h
1654 26-02-2009 18:48:01 7.8 C 3.84 g/m*3 7.8 C 0 km/h
1655 26-02-2009 19:00:01 7.7 C 3.89 g/m*3 7.7 C 0 km/h
1656 26-02-2009 19:12:01 7.6 C 3.87 g/m*3 7.6 C 0 km/h
1657 26-02-2009 19:24:01 7.6 C 3.95 g/m*3 7.6 C 0 km/h
1658 26-02-2009 19:36:01 7.5 C 4.08 g/m*3 7.5 C 0 km/h
1659 26-02-2009 19:48:00 7.5 C 4.24 g/m*3 7.5 C 0 km/h
1660 26-02-2009 20:00:00 7.4 C 4.29 g/m*3 7.4 C 0 km/h
1661 26-02-2009 20:12:01 7.4 C 4.37 g/m*3 7.4 C 0 km/h
1662 26-02-2009 20:24:00 7.5 C 4.24 g/m*3 7.5 C 0 km/h
1663 26-02-2009 20:36:00 7.5 C 4.24 g/m*3 7.5 C 0 km/h
1664 26-02-2009 20:48:00 7.4 C 4.29 g/m*3 7.4 C 0 km/h
1665 26-02-2009 21:00:00 7.3 C 4.35 g/m*3 7.3 C 0 km/h
1666 26-02-2009 21:12:00 7.2 C 4.32 g/m*3 7.2 C 0 km/h
1667 26-02-2009 21:24:00 7.2 C 4.32 g/m*3 7.2 C 0 km/h
1668 26-02-2009 21:36:00 7.2 C 4.32 g/m*3 7.2 C 0 km/h
1669 26-02-2009 22:00:00 7.2 C 4.24 g/m*3 7.2 C 0 km/h
1670 26-02-2009 22:00:00 7.2 C 4.32 g/m*3 7.2 C 0 km/h
1671 26-02-2009 22:00:00 7.2 C 4.24 g/m*3 7.2 C 0 km/h
1672 26-02-2009 22:00:00 7.2 C 4.32 g/m*3 7.2 C 0 km/h
1673 26-02-2009 22:12:00 7.2 C 4.32 g/m*3 7.2 C 0 km/h
1674 26-02-2009 22:25:00 7.2 C 4.32 g/m*3 7.2 C 0 km/h
1675 26-02-2009 22:37:00 7.1 C 4.21 g/m*3 7.1 C 0 km/h
Sensor: Nr:Datum:Temp:Abs-Feuchte:Windchill:Wind:
Aussen-T/F 1676 26-02-2009 22:49:00 7.1 C 4.21 g/m*3 7.1 C 0 km/h
1677 26-02-2009 23:01:00 7.2 C 4.24 g/m*3 7.2 C 0 km/h
1678 26-02-2009 23:13:00 7.2 C 4.16 g/m*3 7.2 C 0 km/h
1679 26-02-2009 23:25:00 7.2 C 4.24 g/m*3 7.2 C 0 km/h
1680 26-02-2009 23:37:01 7.1 C 4.21 g/m*3 7.1 C 0 km/h
1681 26-02-2009 23:49:01 7.3 C 4.11 g/m*3 7.3 C 0 km/h
1682 27-02-2009 00:01:01 7.2 C 4.08 g/m*3 7.2 C 0 km/h
1683 27-02-2009 00:13:01 7.2 C 4.16 g/m*3 7.2 C 0 km/h
1684 27-02-2009 00:25:01 7.2 C 4.08 g/m*3 7.2 C 0 km/h
1685 27-02-2009 00:37:01 7.2 C 4.16 g/m*3 7.2 C 0 km/h
1686 27-02-2009 00:49:01 7.2 C 4.16 g/m*3 7.2 C 0 km/h
1687 27-02-2009 01:01:01 7.2 C 4.24 g/m*3 7.2 C 0 km/h
1688 27-02-2009 01:13:01 7.2 C 4.24 g/m*3 7.2 C 0 km/h
1689 27-02-2009 01:25:01 7.3 C 4.27 g/m*3 7.3 C 0 km/h
1690 27-02-2009 01:37:01 7.2 C 4.32 g/m*3 7.2 C 0 km/h
1691 27-02-2009 01:49:01 7.2 C 4.32 g/m*3 7.2 C 0 km/h
1692 27-02-2009 02:01:01 7.2 C 4.32 g/m*3 7.2 C 0 km/h
1693 27-02-2009 02:13:01 7.1 C 4.52 g/m*3 7.1 C 0 km/h
1694 27-02-2009 02:25:01 7 C 4.57 g/m*3 7 C 0 km/h
1695 27-02-2009 02:37:01 7 C 4.65 g/m*3 7 C 0 km/h
1696 27-02-2009 02:49:01 7 C 4.65 g/m*3 7 C 0 km/h
1697 27-02-2009 03:01:01 7 C 4.65 g/m*3 7 C 0 km/h
1698 27-02-2009 03:13:02 7 C 4.65 g/m*3 7 C 0 km/h
1699 27-02-2009 03:25:02 6.9 C 4.85 g/m*3 6.9 C 0 km/h
1700 27-02-2009 03:37:02 6.4 C 5.22 g/m*3 6.4 C 0 km/h
Sensor: Nr:Datum:Temp:Abs-Feuchte:Windchill:Wind:
Aussen-T/F 1701 27-02-2009 03:49:02 6 C 5.37 g/m*3 6 C 0 km/h
1702 27-02-2009 04:01:02 5.9 C 5.62 g/m*3 5.9 C 0 km/h
1703 27-02-2009 04:13:02 6.1 C 5.63 g/m*3 6.1 C 0 km/h
1704 27-02-2009 04:25:02 5.9 C 5.7 g/m*3 5.9 C 0 km/h
1705 27-02-2009 04:37:02 5.9 C 5.77 g/m*3 5.9 C 0 km/h
1706 27-02-2009 04:49:02 5.9 C 5.84 g/m*3 5.9 C 0 km/h
1707 27-02-2009 05:01:02 5.7 C 5.84 g/m*3 5.7 C 0 km/h
1708 27-02-2009 05:13:02 5.6 C 5.94 g/m*3 5.6 C 0 km/h
1709 27-02-2009 05:25:02 5.6 C 6.01 g/m*3 5.6 C 0 km/h
1710 27-02-2009 05:37:02 5.6 C 6.08 g/m*3 5.6 C 0 km/h
1711 27-02-2009 05:49:02 5.6 C 6.08 g/m*3 5.6 C 0 km/h
1712 27-02-2009 06:01:02 5.6 C 6.08 g/m*3 5.6 C 0 km/h
1713 27-02-2009 06:13:02 5.6 C 6.01 g/m*3 5.6 C 0 km/h
1714 27-02-2009 06:25:02 5.6 C 6.01 g/m*3 5.6 C 0 km/h
1715 27-02-2009 06:37:02 5.6 C 5.94 g/m*3 5.6 C 0 km/h
1716 27-02-2009 06:49:02 5.6 C 5.94 g/m*3 5.6 C 0 km/h
1717 27-02-2009 07:01:00 5.6 C 5.87 g/m*3 5.6 C 0 km/h
1718 27-02-2009 07:13:00 5.7 C 5.84 g/m*3 5.7 C 0 km/h
1719 27-02-2009 07:25:00 5.9 C 5.77 g/m*3 5.9 C 0 km/h
1720 27-02-2009 07:37:00 6.1 C 5.63 g/m*3 6.1 C 0 km/h
1721 27-02-2009 07:49:00 6.1 C 5.48 g/m*3 6.1 C 0 km/h
1722 27-02-2009 08:01:59 6.2 C 5.37 g/m*3 6.2 C 0 km/h
1723 27-02-2009 08:13:59 6.4 C 5.29 g/m*3 6.4 C 0 km/h
1724 27-02-2009 08:25:00 6.5 C 5.17 g/m*3 6.5 C 0 km/h
1725 27-02-2009 08:37:00 6.6 C 5.13 g/m*3 6.6 C 0 km/h
Sensor: Nr:Datum:Temp:Abs-Feuchte:Windchill:Wind:
Aussen-T/F 1726 27-02-2009 08:49:59 6.7 C 5.09 g/m*3 6.7 C 0 km/h
1727 27-02-2009 09:00:59 6.8 C 5.05 g/m*3 6.8 C 0 km/h
1728 27-02-2009 09:12:59 6.9 C 5.08 g/m*3 6.9 C 0 km/h
1729 27-02-2009 09:25:59 7 C 4.96 g/m*3 7 C 0 km/h
1730 27-02-2009 09:37:59 7.2 C 4.95 g/m*3 7.2 C 0 km/h
1731 27-02-2009 09:49:58 7.7 C 4.95 g/m*3 7.7 C 0 km/h
1732 27-02-2009 10:01:59 7.9 C 4.85 g/m*3 7.9 C 0 km/h
1733 27-02-2009 10:13:59 8 C 4.71 g/m*3 8 C 0 km/h
1734 27-02-2009 10:25:58 8.1 C 4.66 g/m*3 8.1 C 0 km/h
1735 27-02-2009 10:37:58 8.6 C 4.81 g/m*3 8.6 C 0 km/h
1736 27-02-2009 10:49:58 8.6 C 4.55 g/m*3 8.6 C 0 km/h
1737 27-02-2009 11:01:58 8.7 C 4.58 g/m*3 8.7 C 0 km/h
1738 27-02-2009 11:13:58 8.7 C 4.5 g/m*3 8.7 C 0 km/h
1739 27-02-2009 11:25:57 8.7 C 4.67 g/m*3 8.7 C 0 km/h
1740 27-02-2009 11:37:58 8.5 C 4.7 g/m*3 8.5 C 0 km/h
1741 27-02-2009 11:49:58 8.3 C 4.97 g/m*3 8.3 C 0 km/h
1742 27-02-2009 12:01:57 8 C 5.13 g/m*3 8 C 0 km/h
1743 27-02-2009 12:13:57 7.7 C 5.43 g/m*3 7.7 C 0 km/h
1744 27-02-2009 12:25:58 7.4 C 5.57 g/m*3 7.4 C 0 km/h
1745 27-02-2009 12:37:57 7.2 C 5.73 g/m*3 7.2 C 0 km/h
1746 27-02-2009 12:49:57 7 C 5.97 g/m*3 7 C 0 km/h
1747 27-02-2009 13:01:56 6.8 C 6.12 g/m*3 6.8 C 0 km/h
1748 27-02-2009 13:13:56 6.8 C 6.27 g/m*3 6.8 C 0 km/h
1749 27-02-2009 13:25:57 7 C 6.35 g/m*3 7 C 0 km/h
1750 27-02-2009 13:37:56 7.1 C 6.4 g/m*3 7.1 C 0 km/h
Sensor: Nr:Datum:Temp:Abs-Feuchte:Windchill:Wind:
Aussen-T/F 1751 27-02-2009 13:49:56 7.1 C 6.24 g/m*3 7.1 C 0 km/h
1752 27-02-2009 14:01:57 7.1 C 6.16 g/m*3 7.1 C 0 km/h
1753 27-02-2009 14:13:57 7.3 C 6.16 g/m*3 7.3 C 0 km/h
1754 27-02-2009 14:25:56 7.5 C 6.24 g/m*3 7.5 C 0 km/h
1755 27-02-2009 14:37:56 7.5 C 6.24 g/m*3 7.5 C 0 km/h
1756 27-02-2009 14:49:56 7.7 C 6.24 g/m*3 7.7 C 0 km/h
1757 27-02-2009 15:01:56 7.5 C 5.92 g/m*3 7.5 C 0 km/h
1758 27-02-2009 15:13:56 7.6 C 5.88 g/m*3 7.6 C 0 km/h
1759 27-02-2009 15:25:56 7.5 C 5.76 g/m*3 7.5 C 0 km/h
1760 27-02-2009 15:37:55 7.7 C 5.76 g/m*3 7.7 C 0 km/h
1761 27-02-2009 15:49:56 7.9 C 5.75 g/m*3 7.9 C 0 km/h
1762 27-02-2009 16:01:55 8 C 5.54 g/m*3 8 C 0 km/h
1763 27-02-2009 16:13:55 8 C 5.46 g/m*3 8 C 0 km/h
1764 27-02-2009 16:25:55 8 C 5.46 g/m*3 8 C 0 km/h
1765 27-02-2009 16:37:55 8 C 5.29 g/m*3 8 C 0 km/h
1766 27-02-2009 16:49:54 7.9 C 5.42 g/m*3 7.9 C 0 km/h
1767 27-02-2009 17:01:54 7.9 C 5.42 g/m*3 7.9 C 0 km/h
1768 27-02-2009 17:13:54 7.9 C 5.42 g/m*3 7.9 C 0 km/h
1769 27-02-2009 17:25:55 7.8 C 5.55 g/m*3 7.8 C 0 km/h
1770 27-02-2009 17:37:54 7.6 C 5.64 g/m*3 7.6 C 0 km/h
1771 27-02-2009 17:49:54 7.5 C 5.68 g/m*3 7.5 C 0 km/h
1772 27-02-2009 18:01:54 7.5 C 5.68 g/m*3 7.5 C 0 km/h
1773 27-02-2009 18:13:54 7.6 C 5.72 g/m*3 7.6 C 0 km/h
1774 27-02-2009 18:25:54 7.6 C 5.64 g/m*3 7.6 C 0 km/h
1775 27-02-2009 18:37:53 7.6 C 5.64 g/m*3 7.6 C 0 km/h
Sensor: Nr:Datum:Temp:Abs-Feuchte:Windchill:Wind:
Aussen-T/F 1776 27-02-2009 18:49:54 7.6 C 5.64 g/m*3 7.6 C 0 km/h
1777 27-02-2009 19:01:53 7.6 C 5.56 g/m*3 7.6 C 0 km/h
1778 27-02-2009 19:13:53 7.7 C 5.59 g/m*3 7.7 C 0 km/h
1779 27-02-2009 19:25:53 7.8 C 5.63 g/m*3 7.8 C 0 km/h
1780 27-02-2009 19:37:54 7.8 C 5.55 g/m*3 7.8 C 0 km/h
1781 27-02-2009 19:49:53 7.9 C 5.59 g/m*3 7.9 C 0 km/h
1782 27-02-2009 20:01:53 7.8 C 5.55 g/m*3 7.8 C 0 km/h
1783 27-02-2009 20:13:53 7.8 C 5.55 g/m*3 7.8 C 0 km/h
1784 27-02-2009 20:25:53 7.7 C 5.68 g/m*3 7.7 C 0 km/h
1785 27-02-2009 20:37:53 7.7 C 5.68 g/m*3 7.7 C 0 km/h
1786 27-02-2009 20:49:52 7.5 C 5.76 g/m*3 7.5 C 0 km/h
1787 27-02-2009 21:01:53 7.2 C 5.89 g/m*3 7.2 C 0 km/h
1788 27-02-2009 21:13:54 7 C 6.04 g/m*3 7 C 0 km/h
1789 27-02-2009 21:25:52 7 C 6.2 g/m*3 7 C 0 km/h
1790 27-02-2009 21:37:52 6.9 C 6.31 g/m*3 6.9 C 0 km/h
1791 27-02-2009 21:49:52 6.8 C 6.42 g/m*3 6.8 C 0 km/h
1792 27-02-2009 22:01:52 6.7 C 6.38 g/m*3 6.7 C 0 km/h
1793 27-02-2009 22:13:52 6.7 C 6.46 g/m*3 6.7 C 0 km/h
1794 27-02-2009 22:25:52 6.8 C 6.42 g/m*3 6.8 C 0 km/h
1795 27-02-2009 22:37:51 6.9 C 6.47 g/m*3 6.9 C 0 km/h
1796 27-02-2009 22:49:52 6.9 C 6.39 g/m*3 6.9 C 0 km/h
1797 27-02-2009 23:01:51 6.9 C 6.31 g/m*3 6.9 C 0 km/h
1798 27-02-2009 23:13:51 6.9 C 6.24 g/m*3 6.9 C 0 km/h
1799 27-02-2009 23:25:51 6.9 C 6.31 g/m*3 6.9 C 0 km/h
1800 27-02-2009 23:37:51 6.8 C 6.27 g/m*3 6.8 C 0 km/h
Sensor: Nr:Datum:Temp:Abs-Feuchte:Windchill:Wind:
Aussen-T/F 1801 27-02-2009 23:50:52 6.9 C 6.31 g/m*3 6.9 C 0 km/h
1802 28-02-2009 00:02:52 6.9 C 6.31 g/m*3 6.9 C 0 km/h
1803 28-02-2009 00:14:52 6.9 C 6.24 g/m*3 6.9 C 0 km/h
1804 28-02-2009 00:26:53 6.9 C 6.24 g/m*3 6.9 C 0 km/h
1805 28-02-2009 00:38:53 6.9 C 6.16 g/m*3 6.9 C 0 km/h
1806 28-02-2009 00:50:53 6.9 C 6.16 g/m*3 6.9 C 0 km/h
1807 28-02-2009 01:02:53 6.9 C 6.08 g/m*3 6.9 C 0 km/h
1808 28-02-2009 01:14:53 6.9 C 6.08 g/m*3 6.9 C 0 km/h
1809 28-02-2009 01:26:53 6.9 C 6.08 g/m*3 6.9 C 0 km/h
1810 28-02-2009 01:38:53 7 C 5.97 g/m*3 7 C 0 km/h
1811 28-02-2009 01:50:53 7 C 5.97 g/m*3 7 C 0 km/h
1812 28-02-2009 02:02:53 7.1 C 5.93 g/m*3 7.1 C 0 km/h
1813 28-02-2009 02:14:53 7.1 C 5.93 g/m*3 7.1 C 0 km/h
1814 28-02-2009 02:26:53 7.3 C 5.93 g/m*3 7.3 C 0 km/h
1815 28-02-2009 02:38:53 7.4 C 5.88 g/m*3 7.4 C 0 km/h
1816 28-02-2009 02:50:53 7.5 C 5.84 g/m*3 7.5 C 0 km/h
1817 28-02-2009 03:02:53 7.5 C 5.84 g/m*3 7.5 C 0 km/h
1818 28-02-2009 03:14:53 7.5 C 5.84 g/m*3 7.5 C 0 km/h
1819 28-02-2009 03:26:53 7.5 C 5.84 g/m*3 7.5 C 0 km/h
1820 28-02-2009 03:38:53 7.5 C 5.84 g/m*3 7.5 C 0 km/h
1821 28-02-2009 03:50:53 7.5 C 5.84 g/m*3 7.5 C 0 km/h
1822 28-02-2009 04:02:54 7.6 C 5.88 g/m*3 7.6 C 0 km/h
1823 28-02-2009 04:14:54 7.6 C 5.88 g/m*3 7.6 C 0 km/h
1824 28-02-2009 04:26:54 7.6 C 5.8 g/m*3 7.6 C 0 km/h
1825 28-02-2009 04:38:54 7.6 C 5.8 g/m*3 7.6 C 0 km/h
Sensor: Nr:Datum:Temp:Abs-Feuchte:Windchill:Wind:
Aussen-T/F 1826 28-02-2009 04:50:54 7.7 C 5.84 g/m*3 7.7 C 0 km/h
1827 28-02-2009 05:02:54 7.7 C 5.84 g/m*3 7.7 C 0 km/h
1828 28-02-2009 05:14:54 7.8 C 5.79 g/m*3 7.8 C 0 km/h
1829 28-02-2009 05:26:54 7.8 C 5.79 g/m*3 7.8 C 0 km/h
1830 28-02-2009 05:38:54 7.8 C 5.79 g/m*3 7.8 C 0 km/h
1831 28-02-2009 05:50:54 7.7 C 5.76 g/m*3 7.7 C 0 km/h
1832 28-02-2009 06:02:54 7.6 C 5.8 g/m*3 7.6 C 0 km/h
1833 28-02-2009 06:14:54 7.6 C 5.8 g/m*3 7.6 C 0 km/h
1834 28-02-2009 06:26:54 7.5 C 5.76 g/m*3 7.5 C 0 km/h
1835 28-02-2009 06:38:54 7.5 C 5.84 g/m*3 7.5 C 0 km/h
1836 28-02-2009 06:50:54 7.4 C 5.81 g/m*3 7.4 C 0 km/h
1837 28-02-2009 07:02:54 7.4 C 5.81 g/m*3 7.4 C 0 km/h
1838 28-02-2009 07:14:54 7.4 C 5.88 g/m*3 7.4 C 0 km/h
1839 28-02-2009 07:26:54 7.3 C 5.85 g/m*3 7.3 C 0 km/h
1840 28-02-2009 07:38:54 7.3 C 5.93 g/m*3 7.3 C 0 km/h
1841 28-02-2009 07:50:55 7.4 C 5.96 g/m*3 7.4 C 0 km/h
1842 28-02-2009 08:02:51 7.5 C 5.92 g/m*3 7.5 C 0 km/h
1843 28-02-2009 08:14:51 7.6 C 5.96 g/m*3 7.6 C 0 km/h
1844 28-02-2009 08:26:51 7.6 C 5.88 g/m*3 7.6 C 0 km/h
1845 28-02-2009 08:38:51 7.9 C 6 g/m*3 7.9 C 0 km/h
1846 28-02-2009 08:50:51 8 C 5.95 g/m*3 8 C 0 km/h
1847 28-02-2009 09:02:51 8.1 C 5.91 g/m*3 8.1 C 0 km/h
1848 28-02-2009 09:14:51 8.2 C 5.95 g/m*3 8.2 C 0 km/h
1849 28-02-2009 09:26:51 9 C 5.91 g/m*3 9 C 0 km/h
1850 28-02-2009 09:38:51 9.5 C 5.83 g/m*3 9.5 C 0 km/h
Sensor: Nr:Datum:Temp:Abs-Feuchte:Windchill:Wind:
Aussen-T/F 1851 28-02-2009 09:50:51 9.3 C 5.75 g/m*3 9.3 C 0 km/h
1852 28-02-2009 10:02:51 9.3 C 5.75 g/m*3 9.3 C 0 km/h
1853 28-02-2009 10:14:50 9.7 C 5.81 g/m*3 9.7 C 0 km/h
1854 28-02-2009 10:26:50 9.8 C 5.75 g/m*3 9.8 C 0 km/h
1855 28-02-2009 10:38:50 9.7 C 5.81 g/m*3 9.7 C 0 km/h
1856 28-02-2009 10:50:50 9.8 C 5.75 g/m*3 9.8 C 0 km/h
1857 28-02-2009 11:02:50 9.9 C 5.79 g/m*3 9.9 C 0 km/h
1858 28-02-2009 11:14:49 10.1 C 5.77 g/m*3 10.1 C 0 km/h
1859 28-02-2009 11:26:49 10.8 C 5.83 g/m*3 10.8 C 0 km/h
1860 28-02-2009 11:38:50 11.2 C 5.78 g/m*3 11.2 C 0 km/h
1861 28-02-2009 11:50:49 10.7 C 5.8 g/m*3 10.7 C 0 km/h
1862 28-02-2009 12:02:49 10.3 C 5.75 g/m*3 10.3 C 0 km/h
1863 28-02-2009 12:14:50 10.3 C 5.84 g/m*3 10.3 C 0 km/h
1864 28-02-2009 12:26:50 11 C 5.81 g/m*3 11 C 0 km/h
1865 28-02-2009 12:38:49 11.4 C 5.75 g/m*3 11.4 C 0 km/h
1866 28-02-2009 12:50:49 12 C 5.75 g/m*3 12 C 0 km/h
1867 28-02-2009 13:02:49 12.2 C 5.61 g/m*3 12.2 C 0 km/h
1868 28-02-2009 13:14:49 12.4 C 5.46 g/m*3 12.4 C 0 km/h
1869 28-02-2009 13:26:49 12.7 C 5.57 g/m*3 12.7 C 0 km/h
1870 28-02-2009 13:38:49 13.5 C 5.5 g/m*3 13.5 C 0 km/h
1871 28-02-2009 13:50:49 13.9 C 5.39 g/m*3 13.9 C 0 km/h
1872 28-02-2009 14:02:48 14.2 C 5.13 g/m*3 14.2 C 0 km/h
1873 28-02-2009 14:14:48 14.3 C 5.16 g/m*3 14.3 C 0 km/h
1874 28-02-2009 14:26:49 14 C 5.19 g/m*3 14 C 0 km/h
1875 28-02-2009 14:38:47 14.2 C 5.01 g/m*3 14.2 C 0 km/h
Sensor: Nr:Datum:Temp:Abs-Feuchte:Windchill:Wind:
Aussen-T/F 1876 28-02-2009 14:50:48 14.9 C 4.84 g/m*3 14.9 C 0 km/h
1877 28-02-2009 15:02:47 15.3 C 4.7 g/m*3 15.3 C 0 km/h
1878 28-02-2009 15:14:47 16.1 C 4.8 g/m*3 16.1 C 0 km/h
1879 28-02-2009 15:26:47 16.8 C 4.86 g/m*3 16.8 C 0 km/h
1880 28-02-2009 15:38:48 18 C 4.76 g/m*3 18 C 0 km/h
1881 28-02-2009 15:50:47 18.1 C 4.79 g/m*3 18.1 C 0 km/h
1882 28-02-2009 16:02:47 17.6 C 4.95 g/m*3 17.6 C 0 km/h
1883 28-02-2009 16:14:47 16.8 C 5.15 g/m*3 16.8 C 0 km/h
1884 28-02-2009 16:26:47 16.6 C 5.23 g/m*3 16.6 C 0 km/h
1885 28-02-2009 16:38:47 16.1 C 5.21 g/m*3 16.1 C 0 km/h
1886 28-02-2009 16:50:47 15.6 C 5.32 g/m*3 15.6 C 0 km/h
1887 28-02-2009 17:02:48 15.2 C 5.32 g/m*3 15.2 C 0 km/h
1888 28-02-2009 17:14:46 15 C 5.39 g/m*3 15 C 0 km/h
1889 28-02-2009 17:26:46 14.7 C 5.79 g/m*3 14.7 C 0 km/h
1890 28-02-2009 17:38:47 14.3 C 5.77 g/m*3 14.3 C 0 km/h
1891 28-02-2009 17:50:46 13.8 C 5.84 g/m*3 13.8 C 0 km/h
1892 28-02-2009 18:02:46 13.4 C 5.81 g/m*3 13.4 C 0 km/h
1893 28-02-2009 18:14:46 12.9 C 5.86 g/m*3 12.9 C 0 km/h
1894 28-02-2009 18:26:46 12.2 C 5.83 g/m*3 12.2 C 0 km/h
1895 28-02-2009 18:38:46 12 C 5.86 g/m*3 12 C 0 km/h
1896 28-02-2009 18:50:45 11.7 C 5.86 g/m*3 11.7 C 0 km/h
1897 28-02-2009 19:02:45 11.6 C 5.82 g/m*3 11.6 C 0 km/h
1898 28-02-2009 19:14:46 11.4 C 5.75 g/m*3 11.4 C 0 km/h
1899 28-02-2009 19:26:46 11.2 C 5.78 g/m*3 11.2 C 0 km/h
1900 28-02-2009 19:38:45 11.1 C 5.74 g/m*3 11.1 C 0 km/h
Sensor: Nr:Datum:Temp:Abs-Feuchte:Windchill:Wind:
Aussen-T/F 1901 28-02-2009 19:50:44 11 C 5.71 g/m*3 11 C 0 km/h
1902 28-02-2009 20:02:45 10.7 C 5.8 g/m*3 10.7 C 0 km/h
1903 28-02-2009 20:14:45 10.2 C 5.71 g/m*3 10.2 C 0 km/h
1904 28-02-2009 20:26:45 10 C 5.73 g/m*3 10 C 0 km/h
1905 28-02-2009 20:38:44 9.7 C 5.81 g/m*3 9.7 C 0 km/h
1906 28-02-2009 20:50:45 9.6 C 5.77 g/m*3 9.6 C 0 km/h
1907 28-02-2009 21:02:44 9.5 C 5.83 g/m*3 9.5 C 0 km/h
1908 28-02-2009 21:14:45 9.4 C 5.88 g/m*3 9.4 C 0 km/h
1909 28-02-2009 21:26:45 9.2 C 5.8 g/m*3 9.2 C 0 km/h
1910 28-02-2009 21:38:44 9.1 C 5.86 g/m*3 9.1 C 0 km/h
1911 28-02-2009 21:50:44 8.8 C 5.83 g/m*3 8.8 C 0 km/h
1912 28-02-2009 22:02:44 8.7 C 5.88 g/m*3 8.7 C 0 km/h
1913 28-02-2009 22:14:44 8.7 C 5.97 g/m*3 8.7 C 0 km/h
1914 28-02-2009 22:26:44 8.7 C 5.97 g/m*3 8.7 C 0 km/h
1915 28-02-2009 22:38:43 8.4 C 5.85 g/m*3 8.4 C 0 km/h
1916 28-02-2009 22:51:44 8.2 C 5.86 g/m*3 8.2 C 0 km/h
1917 28-02-2009 23:03:44 7.9 C 5.91 g/m*3 7.9 C 0 km/h
1918 28-02-2009 23:15:44 7.7 C 5.84 g/m*3 7.7 C 0 km/h
1919 28-02-2009 23:27:44 7.5 C 5.84 g/m*3 7.5 C 0 km/h
1920 28-02-2009 23:39:44 7.4 C 5.88 g/m*3 7.4 C 0 km/h
1921 28-02-2009 23:51:45 7.2 C 5.81 g/m*3 7.2 C 0 km/h
1922 01-03-2009 00:03:45 7.1 C 5.85 g/m*3 7.1 C 0 km/h
1923 01-03-2009 00:15:45 7 C 5.81 g/m*3 7 C 0 km/h
1924 01-03-2009 00:27:45 7.4 C 6.12 g/m*3 7.4 C 0 km/h
1925 01-03-2009 00:39:45 7.7 C 6.16 g/m*3 7.7 C 0 km/h
Sensor: Nr:Datum:Temp:Abs-Feuchte:Windchill:Wind:
Aussen-T/F 1926 01-03-2009 00:51:45 7.7 C 6.08 g/m*3 7.7 C 0 km/h
1927 01-03-2009 01:03:45 7.5 C 5.92 g/m*3 7.5 C 0 km/h
1928 01-03-2009 01:15:45 7.6 C 5.96 g/m*3 7.6 C 0 km/h
1929 01-03-2009 01:27:45 7.7 C 6 g/m*3 7.7 C 0 km/h
1930 01-03-2009 01:39:45 7.8 C 6.04 g/m*3 7.8 C 0 km/h
1931 01-03-2009 01:51:45 7.9 C 6.08 g/m*3 7.9 C 0 km/h
1932 01-03-2009 02:03:45 7.8 C 5.96 g/m*3 7.8 C 0 km/h
1933 01-03-2009 02:15:45 7.8 C 5.96 g/m*3 7.8 C 0 km/h
1934 01-03-2009 02:27:45 7.9 C 6 g/m*3 7.9 C 0 km/h
1935 01-03-2009 02:39:45 7.7 C 5.92 g/m*3 7.7 C 0 km/h
1936 01-03-2009 02:51:45 7.6 C 5.88 g/m*3 7.6 C 0 km/h
1937 01-03-2009 03:03:45 7.5 C 5.84 g/m*3 7.5 C 0 km/h
1938 01-03-2009 03:15:45 7.2 C 5.81 g/m*3 7.2 C 0 km/h
1939 01-03-2009 03:27:45 6.8 C 5.74 g/m*3 6.8 C 0 km/h
1940 01-03-2009 03:39:46 6.7 C 5.85 g/m*3 6.7 C 0 km/h
1941 01-03-2009 03:51:46 6.5 C 5.85 g/m*3 6.5 C 0 km/h
1942 01-03-2009 04:03:46 6.5 C 5.85 g/m*3 6.5 C 0 km/h
1943 01-03-2009 04:15:46 6.3 C 5.77 g/m*3 6.3 C 0 km/h
1944 01-03-2009 04:27:46 6.2 C 5.74 g/m*3 6.2 C 0 km/h
1945 01-03-2009 04:39:46 6.2 C 5.81 g/m*3 6.2 C 0 km/h
1946 01-03-2009 04:51:46 6 C 5.66 g/m*3 6 C 0 km/h
1947 01-03-2009 05:03:46 6 C 5.73 g/m*3 6 C 0 km/h
1948 01-03-2009 05:15:46 6.4 C 5.96 g/m*3 6.4 C 0 km/h
1949 01-03-2009 05:27:46 6.4 C 5.96 g/m*3 6.4 C 0 km/h
1950 01-03-2009 05:39:46 6.4 C 5.89 g/m*3 6.4 C 0 km/h
Sensor: Nr:Datum:Temp:Abs-Feuchte:Windchill:Wind:
Aussen-T/F 1951 01-03-2009 05:51:46 6.3 C 5.77 g/m*3 6.3 C 0 km/h
1952 01-03-2009 06:03:46 6.3 C 5.85 g/m*3 6.3 C 0 km/h
1953 01-03-2009 06:15:46 6.5 C 5.92 g/m*3 6.5 C 0 km/h
1954 01-03-2009 06:27:46 6.6 C 5.96 g/m*3 6.6 C 0 km/h
1955 01-03-2009 06:39:46 6.7 C 6 g/m*3 6.7 C 0 km/h
1956 01-03-2009 06:51:46 6.8 C 6.04 g/m*3 6.8 C 0 km/h
1957 01-03-2009 07:03:46 6.8 C 6.04 g/m*3 6.8 C 0 km/h
1958 01-03-2009 07:15:46 6.9 C 6 g/m*3 6.9 C 0 km/h
1959 01-03-2009 07:27:47 6.8 C 5.97 g/m*3 6.8 C 0 km/h
1960 01-03-2009 07:39:47 6.9 C 6 g/m*3 6.9 C 0 km/h
1961 01-03-2009 07:51:47 7 C 5.97 g/m*3 7 C 0 km/h
1962 01-03-2009 08:03:47 7.2 C 6.04 g/m*3 7.2 C 0 km/h
1963 01-03-2009 08:15:47 7.4 C 6.04 g/m*3 7.4 C 0 km/h
1964 01-03-2009 08:27:47 7.6 C 6.04 g/m*3 7.6 C 0 km/h
1965 01-03-2009 08:39:47 7.8 C 6.12 g/m*3 7.8 C 0 km/h
1966 01-03-2009 08:51:47 7.9 C 6 g/m*3 7.9 C 0 km/h
1967 01-03-2009 09:03:43 8 C 5.87 g/m*3 8 C 0 km/h
1968 01-03-2009 09:15:44 8.1 C 5.74 g/m*3 8.1 C 0 km/h
1969 01-03-2009 09:27:44 8.4 C 5.85 g/m*3 8.4 C 0 km/h
1970 01-03-2009 09:39:44 8.6 C 5.76 g/m*3 8.6 C 0 km/h
1971 01-03-2009 09:51:43 8.7 C 5.62 g/m*3 8.7 C 0 km/h
1972 01-03-2009 10:03:43 9.1 C 5.68 g/m*3 9.1 C 0 km/h
1973 01-03-2009 10:15:43 9.3 C 5.66 g/m*3 9.3 C 0 km/h
1974 01-03-2009 10:27:43 9.6 C 5.59 g/m*3 9.6 C 0 km/h
1975 01-03-2009 10:39:43 10 C 5.45 g/m*3 10 C 0 km/h
Sensor: Nr:Datum:Temp:Abs-Feuchte:Windchill:Wind:
Aussen-T/F 1976 01-03-2009 10:51:43 10.1 C 5.48 g/m*3 10.1 C 0 km/h
1977 01-03-2009 11:03:43 10.7 C 5.4 g/m*3 10.7 C 0 km/h
1978 01-03-2009 11:15:42 10.5 C 5.43 g/m*3 10.5 C 0 km/h
1979 01-03-2009 11:27:42 10.6 C 5.37 g/m*3 10.6 C 0 km/h
1980 01-03-2009 11:39:42 10.9 C 5.37 g/m*3 10.9 C 0 km/h
1981 01-03-2009 11:51:42 11.5 C 5.47 g/m*3 11.5 C 0 km/h
1982 01-03-2009 12:03:42 11.7 C 5.33 g/m*3 11.7 C 0 km/h
1983 01-03-2009 12:15:42 11.8 C 5.26 g/m*3 11.8 C 0 km/h
1984 01-03-2009 12:27:42 11.6 C 5.2 g/m*3 11.6 C 0 km/h
1985 01-03-2009 12:39:42 12.1 C 5.15 g/m*3 12.1 C 0 km/h
1986 01-03-2009 12:51:42 12.8 C 5.15 g/m*3 12.8 C 0 km/h
1987 01-03-2009 13:03:41 13.3 C 5.08 g/m*3 13.3 C 0 km/h
1988 01-03-2009 13:15:42 13.5 C 5.03 g/m*3 13.5 C 0 km/h
1989 01-03-2009 13:27:42 13.8 C 5.12 g/m*3 13.8 C 0 km/h
1990 01-03-2009 13:39:41 13.3 C 4.97 g/m*3 13.3 C 0 km/h
1991 01-03-2009 13:51:41 13.6 C 5.06 g/m*3 13.6 C 0 km/h
1992 01-03-2009 14:03:41 13.9 C 5.15 g/m*3 13.9 C 0 km/h
1993 01-03-2009 14:15:41 13.9 C 5.04 g/m*3 13.9 C 0 km/h
1994 01-03-2009 14:27:41 13.9 C 5.04 g/m*3 13.9 C 0 km/h
1995 01-03-2009 14:39:41 13.9 C 5.04 g/m*3 13.9 C 0 km/h
1996 01-03-2009 14:51:41 14.2 C 5.01 g/m*3 14.2 C 0 km/h
1997 01-03-2009 15:03:41 14.5 C 5.1 g/m*3 14.5 C 0 km/h
1998 01-03-2009 15:15:40 14.4 C 5.07 g/m*3 14.4 C 0 km/h
1999 01-03-2009 15:27:40 15.1 C 5.03 g/m*3 15.1 C 0 km/h
2000 01-03-2009 15:39:40 15.2 C 5.06 g/m*3 15.2 C 0 km/h
Sensor: Nr:Datum:Temp:Abs-Feuchte:Windchill:Wind:
Aussen-T/F 2001 01-03-2009 15:51:40 14.8 C 5.07 g/m*3 14.8 C 0 km/h
2002 01-03-2009 16:03:40 14.5 C 4.97 g/m*3 14.5 C 0 km/h
2003 01-03-2009 16:15:39 14.1 C 4.85 g/m*3 14.1 C 0 km/h
2004 01-03-2009 16:27:39 13.7 C 4.86 g/m*3 13.7 C 0 km/h
2005 01-03-2009 16:39:40 13.5 C 4.91 g/m*3 13.5 C 0 km/h
2006 01-03-2009 16:51:39 13.3 C 4.97 g/m*3 13.3 C 0 km/h
2007 01-03-2009 17:03:39 13.2 C 5.05 g/m*3 13.2 C 0 km/h
2008 01-03-2009 17:15:40 13 C 4.99 g/m*3 13 C 0 km/h
2009 01-03-2009 17:27:40 12.8 C 5.15 g/m*3 12.8 C 0 km/h
2010 01-03-2009 17:39:39 12.5 C 5.06 g/m*3 12.5 C 0 km/h
2011 01-03-2009 17:51:39 12.4 C 5.24 g/m*3 12.4 C 0 km/h
2012 01-03-2009 18:03:38 11.8 C 5.58 g/m*3 11.8 C 0 km/h
2013 01-03-2009 18:15:39 11.4 C 5.65 g/m*3 11.4 C 0 km/h
2014 01-03-2009 18:27:39 11.2 C 5.68 g/m*3 11.2 C 0 km/h
2015 01-03-2009 18:39:38 11.1 C 5.54 g/m*3 11.1 C 0 km/h
2016 01-03-2009 18:51:38 10.9 C 5.67 g/m*3 10.9 C 0 km/h
2017 01-03-2009 19:03:38 10.9 C 5.77 g/m*3 10.9 C 0 km/h
2018 01-03-2009 19:15:38 11 C 5.61 g/m*3 11 C 0 km/h
2019 01-03-2009 19:27:38 11 C 5.61 g/m*3 11 C 0 km/h
2020 01-03-2009 19:39:38 11.2 C 5.57 g/m*3 11.2 C 0 km/h
2021 01-03-2009 19:51:38 11.5 C 5.37 g/m*3 11.5 C 0 km/h
2022 01-03-2009 20:03:38 11.9 C 5.3 g/m*3 11.9 C 0 km/h
2023 01-03-2009 20:15:37 12 C 5.12 g/m*3 12 C 0 km/h
2024 01-03-2009 20:27:37 12 C 5.12 g/m*3 12 C 0 km/h
2025 01-03-2009 20:39:37 11.8 C 5.16 g/m*3 11.8 C 0 km/h
Sensor: Nr:Datum:Temp:Abs-Feuchte:Windchill:Wind:
Aussen-T/F 2026 01-03-2009 20:51:37 11.8 C 5.16 g/m*3 11.8 C 0 km/h
2027 01-03-2009 21:03:37 11.7 C 5.12 g/m*3 11.7 C 0 km/h
2028 01-03-2009 21:15:37 11.8 C 5.16 g/m*3 11.8 C 0 km/h
2029 01-03-2009 21:27:37 11.6 C 5.2 g/m*3 11.6 C 0 km/h
2030 01-03-2009 21:39:37 11.4 C 5.23 g/m*3 11.4 C 0 km/h
2031 01-03-2009 21:51:36 11.4 C 5.23 g/m*3 11.4 C 0 km/h
2032 01-03-2009 22:03:36 11.1 C 5.54 g/m*3 11.1 C 0 km/h
2033 01-03-2009 22:15:37 10.5 C 6.01 g/m*3 10.5 C 0 km/h
2034 01-03-2009 22:27:37 10.1 C 6.34 g/m*3 10.1 C 0 km/h
2035 01-03-2009 22:40:37 9.8 C 6.49 g/m*3 9.8 C 0 km/h
2036 01-03-2009 22:52:37 9.7 C 6.45 g/m*3 9.7 C 0 km/h
2037 01-03-2009 23:04:37 9.5 C 6.55 g/m*3 9.5 C 0 km/h
2038 01-03-2009 23:16:37 9.5 C 6.64 g/m*3 9.5 C 0 km/h
2039 01-03-2009 23:28:37 9.6 C 6.5 g/m*3 9.6 C 0 km/h
2040 01-03-2009 23:40:37 9.8 C 6.31 g/m*3 9.8 C 0 km/h
2041 01-03-2009 23:52:37 9.8 C 6.31 g/m*3 9.8 C 0 km/h
2042 02-03-2009 00:04:37 9.8 C 6.22 g/m*3 9.8 C 0 km/h
2043 02-03-2009 00:16:38 9.8 C 6.31 g/m*3 9.8 C 0 km/h
2044 02-03-2009 00:28:38 9.5 C 6.46 g/m*3 9.5 C 0 km/h
2045 02-03-2009 00:40:38 9.2 C 6.52 g/m*3 9.2 C 0 km/h
2046 02-03-2009 00:52:38 9.1 C 6.57 g/m*3 9.1 C 0 km/h
2047 02-03-2009 01:04:38 9.1 C 6.57 g/m*3 9.1 C 0 km/h
2048 02-03-2009 01:16:38 9.1 C 6.57 g/m*3 9.1 C 0 km/h
2049 02-03-2009 01:28:38 9.1 C 6.57 g/m*3 9.1 C 0 km/h
2050 02-03-2009 01:40:38 9.1 C 6.48 g/m*3 9.1 C 0 km/h
Sensor: Nr:Datum:Temp:Abs-Feuchte:Windchill:Wind:
Aussen-T/F 2051 02-03-2009 01:52:38 9 C 6.61 g/m*3 9 C 0 km/h
2052 02-03-2009 02:04:38 8.9 C 6.66 g/m*3 8.9 C 0 km/h
2053 02-03-2009 02:16:38 8.8 C 6.7 g/m*3 8.8 C 0 km/h
2054 02-03-2009 02:28:38 8.7 C 6.75 g/m*3 8.7 C 0 km/h
2055 02-03-2009 02:40:38 8.6 C 6.7 g/m*3 8.6 C 0 km/h
2056 02-03-2009 02:52:38 8.6 C 6.79 g/m*3 8.6 C 0 km/h
2057 02-03-2009 03:04:38 8.7 C 6.92 g/m*3 8.7 C 0 km/h
2058 02-03-2009 03:16:38 8.5 C 7 g/m*3 8.5 C 0 km/h
2059 02-03-2009 03:28:38 8.5 C 7 g/m*3 8.5 C 0 km/h
2060 02-03-2009 03:40:38 8.5 C 7.09 g/m*3 8.5 C 0 km/h
2061 02-03-2009 03:52:38 8.4 C 7.04 g/m*3 8.4 C 0 km/h
2062 02-03-2009 04:04:39 8.4 C 7.13 g/m*3 8.4 C 0 km/h
2063 02-03-2009 04:16:39 8.4 C 7.21 g/m*3 8.4 C 0 km/h
2064 02-03-2009 04:28:39 8.3 C 7.25 g/m*3 8.3 C 0 km/h
2065 02-03-2009 04:40:39 8.3 C 7.25 g/m*3 8.3 C 0 km/h
2066 02-03-2009 04:52:39 8.3 C 7.33 g/m*3 8.3 C 0 km/h
2067 02-03-2009 05:04:39 8.2 C 7.29 g/m*3 8.2 C 0 km/h
2068 02-03-2009 05:16:39 8.2 C 7.29 g/m*3 8.2 C 0 km/h
2069 02-03-2009 05:28:39 8.2 C 7.29 g/m*3 8.2 C 0 km/h
2070 02-03-2009 05:40:39 8.1 C 7.24 g/m*3 8.1 C 0 km/h
2071 02-03-2009 05:52:39 8.1 C 7.16 g/m*3 8.1 C 0 km/h
2072 02-03-2009 06:04:39 8.2 C 7.2 g/m*3 8.2 C 0 km/h
2073 02-03-2009 06:16:39 8.2 C 7.12 g/m*3 8.2 C 0 km/h
2074 02-03-2009 06:28:39 8.2 C 7.12 g/m*3 8.2 C 0 km/h
2075 02-03-2009 06:40:39 8.1 C 7.07 g/m*3 8.1 C 0 km/h
Sensor: Nr:Datum:Temp:Abs-Feuchte:Windchill:Wind:
Aussen-T/F 2076 02-03-2009 06:52:39 8.2 C 7.12 g/m*3 8.2 C 0 km/h
2077 02-03-2009 07:04:37 8.2 C 7.2 g/m*3 8.2 C 0 km/h
2078 02-03-2009 07:16:37 8.4 C 7.21 g/m*3 8.4 C 0 km/h
2079 02-03-2009 07:28:37 8.4 C 7.13 g/m*3 8.4 C 0 km/h
2080 02-03-2009 07:40:37 8.4 C 7.04 g/m*3 8.4 C 0 km/h
2081 02-03-2009 07:52:38 8.3 C 6.91 g/m*3 8.3 C 0 km/h
2082 02-03-2009 08:04:37 8.3 C 7 g/m*3 8.3 C 0 km/h
2083 02-03-2009 08:16:36 8.3 C 7 g/m*3 8.3 C 0 km/h
2084 02-03-2009 08:28:37 8.2 C 7.03 g/m*3 8.2 C 0 km/h
2085 02-03-2009 08:40:36 8.2 C 7.03 g/m*3 8.2 C 0 km/h
2086 02-03-2009 08:52:36 8.1 C 6.99 g/m*3 8.1 C 0 km/h
2087 02-03-2009 09:04:36 8.1 C 7.07 g/m*3 8.1 C 0 km/h
2088 02-03-2009 09:16:35 8.1 C 7.07 g/m*3 8.1 C 0 km/h
2089 02-03-2009 09:28:35 8.1 C 7.07 g/m*3 8.1 C 0 km/h
2090 02-03-2009 09:40:36 8.1 C 7.16 g/m*3 8.1 C 0 km/h
2091 02-03-2009 09:52:35 8.1 C 7.16 g/m*3 8.1 C 0 km/h
2092 02-03-2009 10:04:35 8.1 C 7.24 g/m*3 8.1 C 0 km/h
2093 02-03-2009 10:16:36 8.2 C 7.29 g/m*3 8.2 C 0 km/h
2094 02-03-2009 10:28:36 8 C 7.19 g/m*3 8 C 0 km/h
2095 02-03-2009 10:40:35 8.1 C 7.07 g/m*3 8.1 C 0 km/h
2096 02-03-2009 10:52:35 8.2 C 7.03 g/m*3 8.2 C 0 km/h
2097 02-03-2009 11:04:35 8.2 C 6.95 g/m*3 8.2 C 0 km/h
2098 02-03-2009 11:16:35 8.1 C 6.82 g/m*3 8.1 C 0 km/h
2099 02-03-2009 11:28:35 8 C 6.7 g/m*3 8 C 0 km/h
2100 02-03-2009 11:40:34 8 C 6.7 g/m*3 8 C 0 km/h
Sensor: Nr:Datum:Temp:Abs-Feuchte:Windchill:Wind:
Aussen-T/F 2101 02-03-2009 11:52:35 8.2 C 6.87 g/m*3 8.2 C 0 km/h
2102 02-03-2009 12:04:34 8.6 C 6.96 g/m*3 8.6 C 0 km/h
2103 02-03-2009 12:16:34 8.8 C 6.7 g/m*3 8.8 C 0 km/h
2104 02-03-2009 12:28:34 8.9 C 6.31 g/m*3 8.9 C 0 km/h
2105 02-03-2009 12:40:34 8.7 C 6.05 g/m*3 8.7 C 0 km/h
2106 02-03-2009 12:52:34 9.5 C 6.1 g/m*3 9.5 C 0 km/h
2107 02-03-2009 13:04:34 9.2 C 5.45 g/m*3 9.2 C 0 km/h
2108 02-03-2009 13:16:33 9 C 5.2 g/m*3 9 C 0 km/h
2109 02-03-2009 13:28:33 9.3 C 5.3 g/m*3 9.3 C 0 km/h
2110 02-03-2009 13:40:34 9.8 C 5.38 g/m*3 9.8 C 0 km/h
2111 02-03-2009 13:52:33 10.6 C 5.08 g/m*3 10.6 C 0 km/h
2112 02-03-2009 14:04:33 10.1 C 4.54 g/m*3 10.1 C 0 km/h
2113 02-03-2009 14:16:33 10.2 C 4.57 g/m*3 10.2 C 0 km/h
2114 02-03-2009 14:28:33 10.7 C 4.62 g/m*3 10.7 C 0 km/h
2115 02-03-2009 14:40:33 10.4 C 4.43 g/m*3 10.4 C 0 km/h
2116 02-03-2009 14:52:32 10.4 C 4.53 g/m*3 10.4 C 0 km/h
2117 02-03-2009 15:04:33 10.3 C 4.31 g/m*3 10.3 C 0 km/h
2118 02-03-2009 15:16:33 10.3 C 4.31 g/m*3 10.3 C 0 km/h
2119 02-03-2009 15:28:33 10.2 C 4.28 g/m*3 10.2 C 0 km/h
2120 02-03-2009 15:40:32 10.8 C 4.45 g/m*3 10.8 C 0 km/h
2121 02-03-2009 15:52:32 10.7 C 4.42 g/m*3 10.7 C 0 km/h
2122 02-03-2009 16:04:32 10.5 C 4.27 g/m*3 10.5 C 0 km/h
2123 02-03-2009 16:16:32 10.3 C 4.31 g/m*3 10.3 C 0 km/h
2124 02-03-2009 16:28:33 10 C 4.32 g/m*3 10 C 0 km/h
2125 02-03-2009 16:40:31 10 C 4.32 g/m*3 10 C 0 km/h
Sensor: Nr:Datum:Temp:Abs-Feuchte:Windchill:Wind:
Aussen-T/F 2126 02-03-2009 16:52:32 9.8 C 4.36 g/m*3 9.8 C 0 km/h
2127 02-03-2009 17:04:31 9.7 C 4.61 g/m*3 9.7 C 0 km/h
2128 02-03-2009 17:16:31 9.5 C 4.55 g/m*3 9.5 C 0 km/h
2129 02-03-2009 17:28:31 9.2 C 4.46 g/m*3 9.2 C 0 km/h
2130 02-03-2009 17:40:32 8.9 C 4.56 g/m*3 8.9 C 0 km/h
2131 02-03-2009 17:52:31 8.5 C 4.53 g/m*3 8.5 C 0 km/h
2132 02-03-2009 18:04:31 8.3 C 4.55 g/m*3 8.3 C 0 km/h
2133 02-03-2009 18:16:31 8.1 C 4.66 g/m*3 8.1 C 0 km/h
2134 02-03-2009 18:28:31 7.8 C 4.65 g/m*3 7.8 C 0 km/h
2135 02-03-2009 18:40:30 7.8 C 4.65 g/m*3 7.8 C 0 km/h
2136 02-03-2009 18:52:31 7.5 C 4.64 g/m*3 7.5 C 0 km/h
2137 02-03-2009 19:04:30 7.6 C 4.59 g/m*3 7.6 C 0 km/h
2138 02-03-2009 19:16:30 7.5 C 4.48 g/m*3 7.5 C 0 km/h
2139 02-03-2009 19:28:30 7.3 C 4.5 g/m*3 7.3 C 0 km/h
2140 02-03-2009 19:40:30 7.1 C 4.52 g/m*3 7.1 C 0 km/h
2141 02-03-2009 19:52:30 6.8 C 4.51 g/m*3 6.8 C 0 km/h
2142 02-03-2009 20:04:29 6.4 C 4.47 g/m*3 6.4 C 0 km/h
2143 02-03-2009 20:16:30 6 C 4.43 g/m*3 6 C 0 km/h
2144 02-03-2009 20:28:30 5.8 C 4.51 g/m*3 5.8 C 0 km/h
2145 02-03-2009 20:40:30 5.4 C 4.4 g/m*3 5.4 C 0 km/h
2146 02-03-2009 20:52:29 5.1 C 4.45 g/m*3 5.1 C 0 km/h
2147 02-03-2009 21:04:29 4.8 C 4.49 g/m*3 4.8 C 0 km/h
2148 02-03-2009 21:16:29 4.6 C 4.5 g/m*3 4.6 C 0 km/h
2149 02-03-2009 21:28:29 4.4 C 4.51 g/m*3 4.4 C 0 km/h
2150 02-03-2009 21:40:29 4.1 C 4.48 g/m*3 4.1 C 0 km/h
Sensor: Nr:Datum:Temp:Abs-Feuchte:Windchill:Wind:
Aussen-T/F 2151 02-03-2009 21:52:29 3.9 C 4.55 g/m*3 3.9 C 0 km/h
2152 02-03-2009 22:04:29 3.7 C 4.55 g/m*3 3.7 C 0 km/h
2153 02-03-2009 22:16:28 3.7 C 4.55 g/m*3 3.7 C 0 km/h
2154 02-03-2009 22:28:28 3.5 C 4.55 g/m*3 3.5 C 0 km/h
2155 02-03-2009 22:40:29 3.4 C 4.52 g/m*3 3.4 C 0 km/h
2156 02-03-2009 22:53:29 3 C 4.52 g/m*3 3 C 0 km/h
2157 02-03-2009 23:05:29 2.8 C 4.58 g/m*3 2.8 C 0 km/h
2158 02-03-2009 23:17:29 2.7 C 4.54 g/m*3 2.7 C 0 km/h
2159 02-03-2009 23:29:29 2.9 C 4.72 g/m*3 2.9 C 0 km/h
2160 02-03-2009 23:41:29 3.1 C 4.73 g/m*3 3.1 C 0 km/h
2161 02-03-2009 23:53:29 2.8 C 4.63 g/m*3 2.8 C 0 km/h
2162 03-03-2009 00:05:29 2.6 C 4.57 g/m*3 2.6 C 0 km/h
2163 03-03-2009 00:17:30 2.9 C 4.67 g/m*3 2.9 C 0 km/h
2164 03-03-2009 00:29:30 3.1 C 4.61 g/m*3 3.1 C 0 km/h
2165 03-03-2009 00:41:30 3 C 4.52 g/m*3 3 C 0 km/h
2166 03-03-2009 00:53:30 2.9 C 4.55 g/m*3 2.9 C 0 km/h
2167 03-03-2009 01:05:30 3 C 4.52 g/m*3 3 C 0 km/h
2168 03-03-2009 01:17:30 3 C 4.46 g/m*3 3 C 0 km/h
2169 03-03-2009 01:29:30 3.1 C 4.43 g/m*3 3.1 C 0 km/h
2170 03-03-2009 01:41:30 3 C 4.4 g/m*3 3 C 0 km/h
2171 03-03-2009 01:53:30 2.8 C 4.4 g/m*3 2.8 C 0 km/h
2172 03-03-2009 02:05:30 2.6 C 4.34 g/m*3 2.6 C 0 km/h
2173 03-03-2009 02:17:30 2.4 C 4.28 g/m*3 2.4 C 0 km/h
2174 03-03-2009 02:29:30 2.3 C 4.31 g/m*3 2.3 C 0 km/h
2175 03-03-2009 02:41:30 2.2 C 4.28 g/m*3 2.2 C 0 km/h
Sensor: Nr:Datum:Temp:Abs-Feuchte:Windchill:Wind:
Aussen-T/F 2176 03-03-2009 02:53:30 2.1 C 4.36 g/m*3 2.1 C 0 km/h
2177 03-03-2009 03:05:30 1.9 C 4.42 g/m*3 1.9 C 0 km/h
2178 03-03-2009 03:17:30 1.6 C 4.27 g/m*3 1.6 C 0 km/h
2179 03-03-2009 03:29:30 1.5 C 4.3 g/m*3 1.5 C 0 km/h
2180 03-03-2009 03:41:30 1.5 C 4.35 g/m*3 1.5 C 0 km/h
2181 03-03-2009 03:53:30 1.2 C 4.31 g/m*3 1.2 C 0 km/h
2182 03-03-2009 04:05:31 1.2 C 4.31 g/m*3 1.2 C 0 km/h
2183 03-03-2009 04:17:31 1.5 C 4.46 g/m*3 1.5 C 0 km/h
2184 03-03-2009 04:29:31 1.4 C 4.43 g/m*3 1.4 C 0 km/h
2185 03-03-2009 04:41:31 1.3 C 4.4 g/m*3 1.3 C 0 km/h
2186 03-03-2009 04:53:31 1 C 4.26 g/m*3 1 C 0 km/h
2187 03-03-2009 05:05:31 0.7 C 4.22 g/m*3 0.7 C 0 km/h
2188 03-03-2009 05:17:31 0.5 C 4.16 g/m*3 0.5 C 0 km/h
2189 03-03-2009 05:29:31 0.3 C 4.11 g/m*3 0.3 C 0 km/h
2190 03-03-2009 05:41:31 0.3 C 4.11 g/m*3 0.3 C 0 km/h
2191 03-03-2009 05:53:31 0.1 C 4.1 g/m*3 0.1 C 0 km/h
2192 03-03-2009 06:05:31 0 C 4.07 g/m*3 0 C 0 km/h
2193 03-03-2009 06:17:31 -0.1 C 4.04 g/m*3 -0.1 C 0 km/h
2194 03-03-2009 06:29:31 0 C 4.07 g/m*3 0 C 0 km/h
2195 03-03-2009 06:41:31 -0.1 C 4.04 g/m*3 -0.1 C 0 km/h
2196 03-03-2009 06:53:31 -0.2 C 4.01 g/m*3 -0.2 C 0 km/h
2197 03-03-2009 07:05:29 -0.3 C 3.99 g/m*3 -0.3 C 0 km/h
2198 03-03-2009 07:17:28 -0.4 C 3.96 g/m*3 -0.4 C 0 km/h
2199 03-03-2009 07:29:28 -0.4 C 3.96 g/m*3 -0.4 C 0 km/h
2200 03-03-2009 07:41:29 -0.4 C 4.01 g/m*3 -0.4 C 0 km/h
Sensor: Nr:Datum:Temp:Abs-Feuchte:Windchill:Wind:
Aussen-T/F 2201 03-03-2009 07:53:28 -0.4 C 4.01 g/m*3 -0.4 C 0 km/h
2202 03-03-2009 08:05:28 -0.3 C 4.03 g/m*3 -0.3 C 0 km/h
2203 03-03-2009 08:17:28 -0.2 C 4.11 g/m*3 -0.2 C 0 km/h
2204 03-03-2009 08:29:28 -0.1 C 4.14 g/m*3 -0.1 C 0 km/h
2205 03-03-2009 08:41:28 0.1 C 4.24 g/m*3 0.1 C 0 km/h
2206 03-03-2009 08:53:27 0.4 C 4.33 g/m*3 0.4 C 0 km/h
2207 03-03-2009 09:05:28 0.9 C 4.48 g/m*3 0.9 C 0 km/h
2208 03-03-2009 09:17:27 1.2 C 4.47 g/m*3 1.2 C 0 km/h
2209 03-03-2009 09:29:27 1.2 C 4.42 g/m*3 1.2 C 0 km/h
2210 03-03-2009 09:41:28 1.3 C 4.4 g/m*3 1.3 C 0 km/h
2211 03-03-2009 09:53:27 1.7 C 4.52 g/m*3 1.7 C 0 km/h
2212 03-03-2009 10:05:27 2.1 C 4.59 g/m*3 2.1 C 0 km/h
2213 03-03-2009 10:17:27 2.6 C 4.69 g/m*3 2.6 C 0 km/h
2214 03-03-2009 10:29:27 3.1 C 4.79 g/m*3 3.1 C 0 km/h
2215 03-03-2009 10:41:27 3.7 C 4.8 g/m*3 3.7 C 0 km/h
2216 03-03-2009 10:53:27 4.3 C 4.8 g/m*3 4.3 C 0 km/h
2217 03-03-2009 11:05:26 5 C 4.62 g/m*3 5 C 0 km/h
2218 03-03-2009 11:17:27 5.3 C 4.71 g/m*3 5.3 C 0 km/h
2219 03-03-2009 11:29:27 6.4 C 4.4 g/m*3 6.4 C 0 km/h
2220 03-03-2009 11:41:26 6.7 C 4.41 g/m*3 6.7 C 0 km/h
2221 03-03-2009 11:53:26 7.2 C 4.32 g/m*3 7.2 C 0 km/h
2222 03-03-2009 12:05:26 7.6 C 4.27 g/m*3 7.6 C 0 km/h
2223 03-03-2009 12:17:27 8 C 4.13 g/m*3 8 C 0 km/h
2224 03-03-2009 12:29:27 8.2 C 3.85 g/m*3 8.2 C 0 km/h
2225 03-03-2009 12:41:26 8.7 C 3.89 g/m*3 8.7 C 0 km/h
Sensor: Nr:Datum:Temp:Abs-Feuchte:Windchill:Wind:
Aussen-T/F 2226 03-03-2009 12:53:26 9 C 3.61 g/m*3 9 C 0 km/h
2227 03-03-2009 13:05:26 9.3 C 3.5 g/m*3 9.3 C 0 km/h
2228 03-03-2009 13:17:25 9.6 C 3.21 g/m*3 9.6 C 0 km/h
2229 03-03-2009 13:29:25 9.8 C 3.06 g/m*3 9.8 C 0 km/h
2230 03-03-2009 13:41:25 10.5 C 3.01 g/m*3 10.5 C 0 km/h
2231 03-03-2009 13:53:25 10.8 C 2.97 g/m*3 10.8 C 0 km/h
2232 03-03-2009 14:05:25 11.1 C 2.82 g/m*3 11.1 C 0 km/h
2233 03-03-2009 14:17:24 11 C 2.7 g/m*3 11 C 0 km/h
2234 03-03-2009 14:29:24 10.7 C 2.55 g/m*3 10.7 C 0 km/h
2235 03-03-2009 14:41:25 11 C 2.5 g/m*3 11 C 0 km/h
2236 03-03-2009 14:53:24 11.8 C 2.53 g/m*3 11.8 C 0 km/h
2237 03-03-2009 15:05:24 11.3 C 2.24 g/m*3 11.3 C 0 km/h
2238 03-03-2009 15:17:24 11 C 2.6 g/m*3 11 C 0 km/h
2239 03-03-2009 15:29:24 11.5 C 2.79 g/m*3 11.5 C 0 km/h
2240 03-03-2009 15:41:24 11.6 C 2.6 g/m*3 11.6 C 0 km/h
2241 03-03-2009 15:53:24 11.2 C 2.33 g/m*3 11.2 C 0 km/h
2242 03-03-2009 16:05:23 10.6 C 2.44 g/m*3 10.6 C 0 km/h
2243 03-03-2009 16:17:24 10.4 C 2.51 g/m*3 10.4 C 0 km/h
2244 03-03-2009 16:29:24 10.5 C 2.52 g/m*3 10.5 C 0 km/h
2245 03-03-2009 16:41:23 10.6 C 2.54 g/m*3 10.6 C 0 km/h
2246 03-03-2009 16:53:23 10.1 C 2.36 g/m*3 10.1 C 0 km/h
2247 03-03-2009 17:05:24 9.9 C 2.61 g/m*3 9.9 C 0 km/h
2248 03-03-2009 17:17:23 10.2 C 2.66 g/m*3 10.2 C 0 km/h
2249 03-03-2009 17:29:23 10.5 C 2.62 g/m*3 10.5 C 0 km/h
2250 03-03-2009 17:41:23 10.2 C 2.47 g/m*3 10.2 C 0 km/h
Sensor: Nr:Datum:Temp:Abs-Feuchte:Windchill:Wind:
Aussen-T/F 2251 03-03-2009 17:53:23 9.7 C 2.58 g/m*3 9.7 C 0 km/h
2252 03-03-2009 18:05:23 9.1 C 2.75 g/m*3 9.1 C 0 km/h
2253 03-03-2009 18:17:22 8.2 C 2.93 g/m*3 8.2 C 0 km/h
2254 03-03-2009 18:29:22 7.5 C 3.04 g/m*3 7.5 C 0 km/h
2255 03-03-2009 18:41:23 6.9 C 3.16 g/m*3 6.9 C 0 km/h
2256 03-03-2009 18:53:22 6.6 C 3.25 g/m*3 6.6 C 0 km/h
2257 03-03-2009 19:05:22 6.4 C 3.2 g/m*3 6.4 C 0 km/h
2258 03-03-2009 19:17:22 6.5 C 3.37 g/m*3 6.5 C 0 km/h
2259 03-03-2009 19:29:22 6.8 C 3.21 g/m*3 6.8 C 0 km/h
2260 03-03-2009 19:41:22 6.7 C 3.27 g/m*3 6.7 C 0 km/h
2261 03-03-2009 19:53:22 6.5 C 3.3 g/m*3 6.5 C 0 km/h
2262 03-03-2009 20:05:21 6.4 C 3.28 g/m*3 6.4 C 0 km/h
2263 03-03-2009 20:17:22 6.4 C 3.2 g/m*3 6.4 C 0 km/h
2264 03-03-2009 20:29:22 6.3 C 3.11 g/m*3 6.3 C 0 km/h
2265 03-03-2009 20:41:21 6.1 C 3.14 g/m*3 6.1 C 0 km/h
2266 03-03-2009 20:53:21 6.2 C 3.09 g/m*3 6.2 C 0 km/h
2267 03-03-2009 21:05:21 6.4 C 3.05 g/m*3 6.4 C 0 km/h
2268 03-03-2009 21:17:21 6 C 2.9 g/m*3 6 C 0 km/h
2269 03-03-2009 21:29:21 5.9 C 2.96 g/m*3 5.9 C 0 km/h
2270 03-03-2009 21:41:20 5.8 C 2.94 g/m*3 5.8 C 0 km/h
2271 03-03-2009 21:53:21 5.8 C 2.87 g/m*3 5.8 C 0 km/h
2272 03-03-2009 22:05:20 5.7 C 3.13 g/m*3 5.7 C 0 km/h
2273 03-03-2009 22:17:20 5.8 C 3.01 g/m*3 5.8 C 0 km/h
2274 03-03-2009 22:29:20 6 C 2.98 g/m*3 6 C 0 km/h
2275 03-03-2009 22:41:20 5.9 C 3.03 g/m*3 5.9 C 0 km/h
Sensor: Nr:Datum:Temp:Abs-Feuchte:Windchill:Wind:
Aussen-T/F 2276 03-03-2009 22:54:21 6 C 2.98 g/m*3 6 C 0 km/h
2277 03-03-2009 23:06:22 6.2 C 2.94 g/m*3 6.2 C 0 km/h
2278 03-03-2009 23:18:22 6.4 C 3.05 g/m*3 6.4 C 0 km/h
2279 03-03-2009 23:30:22 6.2 C 3.09 g/m*3 6.2 C 0 km/h
2280 03-03-2009 23:42:22 6.4 C 3.13 g/m*3 6.4 C 0 km/h
2281 03-03-2009 23:54:22 5.9 C 3.24 g/m*3 5.9 C 0 km/h
2282 04-03-2009 00:06:22 5.5 C 3.23 g/m*3 5.5 C 0 km/h
2283 04-03-2009 00:18:22 5 C 3.26 g/m*3 5 C 0 km/h
2284 04-03-2009 00:30:22 4.5 C 3.48 g/m*3 4.5 C 0 km/h
2285 04-03-2009 00:42:22 4.4 C 3.53 g/m*3 4.4 C 0 km/h
2286 04-03-2009 00:54:22 4.2 C 3.61 g/m*3 4.2 C 0 km/h
2287 04-03-2009 01:06:22 4.3 C 3.63 g/m*3 4.3 C 0 km/h
2288 04-03-2009 01:18:22 4.1 C 3.71 g/m*3 4.1 C 0 km/h
2289 04-03-2009 01:30:22 3.9 C 3.79 g/m*3 3.9 C 0 km/h
2290 04-03-2009 01:42:22 3.7 C 3.8 g/m*3 3.7 C 0 km/h
2291 04-03-2009 01:54:22 3.6 C 3.78 g/m*3 3.6 C 0 km/h
2292 04-03-2009 02:06:22 3.4 C 3.79 g/m*3 3.4 C 0 km/h
2293 04-03-2009 02:18:22 3.3 C 3.88 g/m*3 3.3 C 0 km/h
2294 04-03-2009 02:30:22 3.2 C 3.86 g/m*3 3.2 C 0 km/h
2295 04-03-2009 02:42:22 3.2 C 3.92 g/m*3 3.2 C 0 km/h
2296 04-03-2009 02:54:22 3.1 C 3.95 g/m*3 3.1 C 0 km/h
2297 04-03-2009 03:06:23 2.9 C 3.9 g/m*3 2.9 C 0 km/h
2298 04-03-2009 03:18:23 2.7 C 3.9 g/m*3 2.7 C 0 km/h
2299 04-03-2009 03:30:23 2.7 C 3.96 g/m*3 2.7 C 0 km/h
2300 04-03-2009 03:42:23 2.8 C 4.05 g/m*3 2.8 C 0 km/h
Sensor: Nr:Datum:Temp:Abs-Feuchte:Windchill:Wind:
Aussen-T/F 2301 04-03-2009 03:54:23 2.8 C 4.05 g/m*3 2.8 C 0 km/h
2302 04-03-2009 04:06:23 2.8 C 4.11 g/m*3 2.8 C 0 km/h
2303 04-03-2009 04:18:23 2.6 C 4.05 g/m*3 2.6 C 0 km/h
2304 04-03-2009 04:30:23 2.5 C 4.02 g/m*3 2.5 C 0 km/h
2305 04-03-2009 04:42:23 2.5 C 4.08 g/m*3 2.5 C 0 km/h
2306 04-03-2009 04:54:23 2.4 C 4.05 g/m*3 2.4 C 0 km/h
2307 04-03-2009 05:06:23 2.5 C 4.14 g/m*3 2.5 C 0 km/h
2308 04-03-2009 05:18:23 2.7 C 4.14 g/m*3 2.7 C 0 km/h
2309 04-03-2009 05:30:23 3 C 4.1 g/m*3 3 C 0 km/h
2310 04-03-2009 05:42:23 3.1 C 4.07 g/m*3 3.1 C 0 km/h
2311 04-03-2009 05:54:23 3.2 C 4.04 g/m*3 3.2 C 0 km/h
2312 04-03-2009 06:06:23 3.4 C 4.03 g/m*3 3.4 C 0 km/h
2313 04-03-2009 06:18:23 3.5 C 4.06 g/m*3 3.5 C 0 km/h
2314 04-03-2009 06:30:23 3.5 C 4 g/m*3 3.5 C 0 km/h
2315 04-03-2009 06:42:23 3.4 C 4.03 g/m*3 3.4 C 0 km/h
2316 04-03-2009 06:54:23 3.5 C 4 g/m*3 3.5 C 0 km/h
2317 04-03-2009 07:06:20 3.6 C 4.02 g/m*3 3.6 C 0 km/h
2318 04-03-2009 07:18:21 3.7 C 4.05 g/m*3 3.7 C 0 km/h
2319 04-03-2009 07:30:21 3.8 C 4.02 g/m*3 3.8 C 0 km/h
2320 04-03-2009 07:42:21 3.7 C 4.05 g/m*3 3.7 C 0 km/h
2321 04-03-2009 07:54:20 3.8 C 4.08 g/m*3 3.8 C 0 km/h
2322 04-03-2009 08:06:21 3.9 C 4.04 g/m*3 3.9 C 0 km/h
2323 04-03-2009 08:18:20 4 C 4.07 g/m*3 4 C 0 km/h
2324 04-03-2009 08:30:20 4.1 C 4.03 g/m*3 4.1 C 0 km/h
2325 04-03-2009 08:42:20 4.2 C 4.06 g/m*3 4.2 C 0 km/h
Sensor: Nr:Datum:Temp:Abs-Feuchte:Windchill:Wind:
Aussen-T/F 2326 04-03-2009 08:54:19 4.2 C 4.06 g/m*3 4.2 C 0 km/h
2327 04-03-2009 09:06:20 4.2 C 4.06 g/m*3 4.2 C 0 km/h
2328 04-03-2009 09:18:19 4 C 3.94 g/m*3 4 C 0 km/h
2329 04-03-2009 09:30:20 4.1 C 3.97 g/m*3 4.1 C 0 km/h
2330 04-03-2009 09:42:21 4.3 C 3.96 g/m*3 4.3 C 0 km/h
2331 04-03-2009 09:54:19 4.9 C 3.98 g/m*3 4.9 C 0 km/h
2332 04-03-2009 10:06:19 5.4 C 3.91 g/m*3 5.4 C 0 km/h
2333 04-03-2009 10:18:18 5.9 C 3.89 g/m*3 5.9 C 0 km/h
2334 04-03-2009 10:30:19 6.1 C 3.87 g/m*3 6.1 C 0 km/h
2335 04-03-2009 10:42:19 6.8 C 3.82 g/m*3 6.8 C 0 km/h
2336 04-03-2009 10:54:18 7.5 C 3.76 g/m*3 7.5 C 0 km/h
2337 04-03-2009 11:06:18 8 C 3.64 g/m*3 8 C 0 km/h
2338 04-03-2009 11:18:19 8.3 C 3.62 g/m*3 8.3 C 0 km/h
2339 04-03-2009 11:30:18 8.6 C 3.61 g/m*3 8.6 C 0 km/h
2340 04-03-2009 11:42:18 8.8 C 3.66 g/m*3 8.8 C 0 km/h
2341 04-03-2009 11:54:18 9.1 C 3.73 g/m*3 9.1 C 0 km/h
2342 04-03-2009 12:06:18 9.4 C 3.71 g/m*3 9.4 C 0 km/h
2343 04-03-2009 12:18:18 9.9 C 3.73 g/m*3 9.9 C 0 km/h
2344 04-03-2009 12:30:18 10.3 C 3.54 g/m*3 10.3 C 0 km/h
2345 04-03-2009 12:42:18 10.7 C 3.63 g/m*3 10.7 C 0 km/h
2346 04-03-2009 12:54:18 11.1 C 3.63 g/m*3 11.1 C 0 km/h
2347 04-03-2009 13:06:18 11.8 C 3.37 g/m*3 11.8 C 0 km/h
2348 04-03-2009 13:18:17 12.2 C 3.02 g/m*3 12.2 C 0 km/h
2349 04-03-2009 13:30:17 12.2 C 3.24 g/m*3 12.2 C 0 km/h
2350 04-03-2009 13:42:17 11.5 C 3.41 g/m*3 11.5 C 0 km/h
Sensor: Nr:Datum:Temp:Abs-Feuchte:Windchill:Wind:
Aussen-T/F 2351 04-03-2009 13:54:17 11.7 C 3.45 g/m*3 11.7 C 0 km/h
2352 04-03-2009 14:06:17 12 C 3.41 g/m*3 12 C 0 km/h
2353 04-03-2009 14:18:16 12.4 C 3.39 g/m*3 12.4 C 0 km/h
2354 04-03-2009 14:30:17 12.3 C 3.26 g/m*3 12.3 C 0 km/h
2355 04-03-2009 14:42:17 12.7 C 3.34 g/m*3 12.7 C 0 km/h
2356 04-03-2009 14:54:16 12.9 C 3.38 g/m*3 12.9 C 0 km/h
2357 04-03-2009 15:06:16 13 C 3.18 g/m*3 13 C 0 km/h
2358 04-03-2009 15:18:17 13.3 C 3.23 g/m*3 13.3 C 0 km/h
2359 04-03-2009 15:30:16 12.9 C 3.16 g/m*3 12.9 C 0 km/h
2360 04-03-2009 15:42:16 12.3 C 3.26 g/m*3 12.3 C 0 km/h
2361 04-03-2009 15:54:16 11.9 C 3.39 g/m*3 11.9 C 0 km/h
2362 04-03-2009 16:06:16 11.9 C 3.39 g/m*3 11.9 C 0 km/h
2363 04-03-2009 16:18:16 12.7 C 3.23 g/m*3 12.7 C 0 km/h
2364 04-03-2009 16:30:15 12.3 C 3.37 g/m*3 12.3 C 0 km/h
2365 04-03-2009 16:42:15 12.2 C 3.24 g/m*3 12.2 C 0 km/h
2366 04-03-2009 16:54:15 11.9 C 3.39 g/m*3 11.9 C 0 km/h
2367 04-03-2009 17:06:15 11.7 C 3.24 g/m*3 11.7 C 0 km/h
2368 04-03-2009 17:18:15 11.6 C 3.22 g/m*3 11.6 C 0 km/h
2369 04-03-2009 17:30:15 11.4 C 3.18 g/m*3 11.4 C 0 km/h
2370 04-03-2009 17:42:15 11.3 C 3.16 g/m*3 11.3 C 0 km/h
2371 04-03-2009 17:54:15 11.1 C 3.12 g/m*3 11.1 C 0 km/h
2372 04-03-2009 18:06:15 11 C 3.2 g/m*3 11 C 0 km/h
2373 04-03-2009 18:18:14 10.8 C 3.26 g/m*3 10.8 C 0 km/h
2374 04-03-2009 18:30:14 10.3 C 3.35 g/m*3 10.3 C 0 km/h
2375 04-03-2009 18:42:15 9.7 C 3.6 g/m*3 9.7 C 0 km/h
Sensor: Nr:Datum:Temp:Abs-Feuchte:Windchill:Wind:
Aussen-T/F 2376 04-03-2009 18:54:14 9 C 3.7 g/m*3 9 C 0 km/h
2377 04-03-2009 19:06:14 8.9 C 3.77 g/m*3 8.9 C 0 km/h
2378 04-03-2009 19:18:13 8.7 C 3.89 g/m*3 8.7 C 0 km/h
2379 04-03-2009 19:30:14 8.8 C 3.74 g/m*3 8.8 C 0 km/h
2380 04-03-2009 19:42:14 8.6 C 3.87 g/m*3 8.6 C 0 km/h
2381 04-03-2009 19:54:13 8.9 C 3.85 g/m*3 8.9 C 0 km/h
2382 04-03-2009 20:06:13 8.9 C 3.94 g/m*3 8.9 C 0 km/h
2383 04-03-2009 20:18:14 9 C 3.97 g/m*3 9 C 0 km/h
2384 04-03-2009 20:30:13 9 C 4.06 g/m*3 9 C 0 km/h
2385 04-03-2009 20:42:13 8.9 C 4.2 g/m*3 8.9 C 0 km/h
2386 04-03-2009 20:54:13 8.8 C 4.26 g/m*3 8.8 C 0 km/h
2387 04-03-2009 21:06:13 8.6 C 4.38 g/m*3 8.6 C 0 km/h
2388 04-03-2009 21:18:13 8.5 C 4.44 g/m*3 8.5 C 0 km/h
2389 04-03-2009 21:30:13 8.4 C 4.41 g/m*3 8.4 C 0 km/h
2390 04-03-2009 21:42:13 8.4 C 4.33 g/m*3 8.4 C 0 km/h
2391 04-03-2009 21:54:13 8.5 C 4.35 g/m*3 8.5 C 0 km/h
2392 04-03-2009 22:06:12 8.5 C 4.27 g/m*3 8.5 C 0 km/h
2393 04-03-2009 22:19:15 8.6 C 4.3 g/m*3 8.6 C 0 km/h
2394 04-03-2009 22:31:15 8.4 C 4.33 g/m*3 8.4 C 0 km/h
2395 04-03-2009 22:43:15 8.7 C 4.15 g/m*3 8.7 C 0 km/h
2396 04-03-2009 22:55:15 8.7 C 4.32 g/m*3 8.7 C 0 km/h
2397 04-03-2009 23:07:15 8.6 C 4.3 g/m*3 8.6 C 0 km/h
2398 04-03-2009 23:19:15 8.4 C 4.33 g/m*3 8.4 C 0 km/h
2399 04-03-2009 23:31:15 8.3 C 4.38 g/m*3 8.3 C 0 km/h
2400 04-03-2009 23:43:15 8.1 C 4.41 g/m*3 8.1 C 0 km/h
Sensor: Nr:Datum:Temp:Abs-Feuchte:Windchill:Wind:
Aussen-T/F 2401 04-03-2009 23:55:15 8 C 4.55 g/m*3 8 C 0 km/h
2402 05-03-2009 00:07:15 7.9 C 4.6 g/m*3 7.9 C 0 km/h
2403 05-03-2009 00:19:15 7.9 C 4.68 g/m*3 7.9 C 0 km/h
2404 05-03-2009 00:31:15 7.8 C 4.9 g/m*3 7.8 C 0 km/h
2405 05-03-2009 00:43:15 7.6 C 4.99 g/m*3 7.6 C 0 km/h
2406 05-03-2009 00:55:15 7.5 C 5.12 g/m*3 7.5 C 0 km/h
2407 05-03-2009 01:07:15 7.6 C 5.08 g/m*3 7.6 C 0 km/h
2408 05-03-2009 01:19:15 7.6 C 4.99 g/m*3 7.6 C 0 km/h
2409 05-03-2009 01:31:16 7.6 C 4.91 g/m*3 7.6 C 0 km/h
2410 05-03-2009 01:43:16 7.6 C 4.91 g/m*3 7.6 C 0 km/h
2411 05-03-2009 01:55:16 7.6 C 4.91 g/m*3 7.6 C 0 km/h
2412 05-03-2009 02:07:16 7.6 C 4.91 g/m*3 7.6 C 0 km/h
2413 05-03-2009 02:19:16 7.6 C 4.91 g/m*3 7.6 C 0 km/h
2414 05-03-2009 02:31:16 7.6 C 4.91 g/m*3 7.6 C 0 km/h
2415 05-03-2009 02:43:16 7.6 C 4.91 g/m*3 7.6 C 0 km/h
2416 05-03-2009 02:55:16 7.5 C 4.96 g/m*3 7.5 C 0 km/h
2417 05-03-2009 03:07:16 7.5 C 4.88 g/m*3 7.5 C 0 km/h
2418 05-03-2009 03:19:16 7.6 C 4.91 g/m*3 7.6 C 0 km/h
2419 05-03-2009 03:31:16 7.6 C 4.91 g/m*3 7.6 C 0 km/h
2420 05-03-2009 03:43:16 7.5 C 4.88 g/m*3 7.5 C 0 km/h
2421 05-03-2009 03:55:16 7.4 C 4.93 g/m*3 7.4 C 0 km/h
2422 05-03-2009 04:07:16 7.3 C 4.98 g/m*3 7.3 C 0 km/h
2423 05-03-2009 04:19:16 7.1 C 5.07 g/m*3 7.1 C 0 km/h
2424 05-03-2009 04:31:16 7.1 C 5.15 g/m*3 7.1 C 0 km/h
2425 05-03-2009 04:43:16 7 C 5.11 g/m*3 7 C 0 km/h
Sensor: Nr:Datum:Temp:Abs-Feuchte:Windchill:Wind:
Aussen-T/F 2426 05-03-2009 04:55:16 6.7 C 5.24 g/m*3 6.7 C 0 km/h
2427 05-03-2009 05:07:16 6.4 C 5.29 g/m*3 6.4 C 0 km/h
2428 05-03-2009 05:19:16 6.1 C 5.33 g/m*3 6.1 C 0 km/h
2429 05-03-2009 05:31:17 6 C 5.37 g/m*3 6 C 0 km/h
2430 05-03-2009 05:43:17 5.7 C 5.48 g/m*3 5.7 C 0 km/h
2431 05-03-2009 05:55:17 5.5 C 5.62 g/m*3 5.5 C 0 km/h
2432 05-03-2009 06:07:17 5.4 C 5.65 g/m*3 5.4 C 0 km/h
2433 05-03-2009 06:19:17 5.2 C 5.58 g/m*3 5.2 C 0 km/h
2434 05-03-2009 06:31:17 5.1 C 5.54 g/m*3 5.1 C 0 km/h
2435 05-03-2009 06:43:17 5 C 5.57 g/m*3 5 C 0 km/h
2436 05-03-2009 06:55:17 4.9 C 5.67 g/m*3 4.9 C 0 km/h
2437 05-03-2009 07:07:14 4.9 C 5.74 g/m*3 4.9 C 0 km/h
2438 05-03-2009 07:19:14 4.8 C 5.7 g/m*3 4.8 C 0 km/h
2439 05-03-2009 07:31:14 4.7 C 5.73 g/m*3 4.7 C 0 km/h
2440 05-03-2009 07:43:14 4.7 C 5.73 g/m*3 4.7 C 0 km/h
2441 05-03-2009 07:55:14 4.6 C 5.69 g/m*3 4.6 C 0 km/h
2442 05-03-2009 08:07:13 4.6 C 5.69 g/m*3 4.6 C 0 km/h
2443 05-03-2009 08:19:14 4.4 C 5.62 g/m*3 4.4 C 0 km/h
2444 05-03-2009 08:31:14 4.2 C 5.48 g/m*3 4.2 C 0 km/h
2445 05-03-2009 08:43:14 3.9 C 5.37 g/m*3 3.9 C 0 km/h
2446 05-03-2009 08:55:13 3.6 C 5.26 g/m*3 3.6 C 0 km/h
2447 05-03-2009 09:07:14 3.4 C 5.19 g/m*3 3.4 C 0 km/h
2448 05-03-2009 09:19:13 3.4 C 5.19 g/m*3 3.4 C 0 km/h
2449 05-03-2009 09:31:13 3.5 C 5.29 g/m*3 3.5 C 0 km/h
2450 05-03-2009 09:43:13 3.2 C 5.18 g/m*3 3.2 C 0 km/h
Sensor: Nr:Datum:Temp:Abs-Feuchte:Windchill:Wind:
Aussen-T/F 2451 05-03-2009 09:55:13 3.2 C 5.18 g/m*3 3.2 C 0 km/h
2452 05-03-2009 10:07:13 3.1 C 5.15 g/m*3 3.1 C 0 km/h
2453 05-03-2009 10:19:12 3 C 5.11 g/m*3 3 C 0 km/h
2454 05-03-2009 10:31:12 3.1 C 5.15 g/m*3 3.1 C 0 km/h
2455 05-03-2009 10:43:12 3.1 C 5.21 g/m*3 3.1 C 0 km/h
2456 05-03-2009 10:55:12 2.7 C 5.07 g/m*3 2.7 C 0 km/h
2457 05-03-2009 11:07:12 2.7 C 5.07 g/m*3 2.7 C 0 km/h
2458 05-03-2009 11:19:12 2.6 C 5.03 g/m*3 2.6 C 0 km/h
2459 05-03-2009 11:31:12 2.6 C 5.03 g/m*3 2.6 C 0 km/h
2460 05-03-2009 11:43:12 2.5 C 5 g/m*3 2.5 C 0 km/h
2461 05-03-2009 11:55:12 2.6 C 5.03 g/m*3 2.6 C 0 km/h
2462 05-03-2009 12:07:11 2.6 C 5.09 g/m*3 2.6 C 0 km/h
2463 05-03-2009 12:19:12 2.8 C 5.16 g/m*3 2.8 C 0 km/h
2464 05-03-2009 12:31:11 2.6 C 5.09 g/m*3 2.6 C 0 km/h
2465 05-03-2009 12:43:11 2.8 C 5.16 g/m*3 2.8 C 0 km/h
2466 05-03-2009 12:55:11 3.1 C 5.27 g/m*3 3.1 C 0 km/h
2467 05-03-2009 13:07:11 2.9 C 5.2 g/m*3 2.9 C 0 km/h
2468 05-03-2009 13:19:11 2.9 C 5.2 g/m*3 2.9 C 0 km/h
2469 05-03-2009 13:31:11 2.9 C 5.2 g/m*3 2.9 C 0 km/h
2470 05-03-2009 13:43:11 3 C 5.17 g/m*3 3 C 0 km/h
2471 05-03-2009 13:55:10 3 C 5.17 g/m*3 3 C 0 km/h
2472 05-03-2009 14:07:11 3 C 5.17 g/m*3 3 C 0 km/h
2473 05-03-2009 14:19:10 2.9 C 5.2 g/m*3 2.9 C 0 km/h
2474 05-03-2009 14:31:10 3 C 5.23 g/m*3 3 C 0 km/h
2475 05-03-2009 14:43:10 3 C 5.23 g/m*3 3 C 0 km/h
Sensor: Nr:Datum:Temp:Abs-Feuchte:Windchill:Wind:
Aussen-T/F 2476 05-03-2009 14:55:10 3.1 C 5.27 g/m*3 3.1 C 0 km/h
2477 05-03-2009 15:07:10 3 C 5.23 g/m*3 3 C 0 km/h
2478 05-03-2009 15:19:10 3.1 C 5.27 g/m*3 3.1 C 0 km/h
2479 05-03-2009 15:31:09 3 C 5.23 g/m*3 3 C 0 km/h
2480 05-03-2009 15:43:09 3.1 C 5.27 g/m*3 3.1 C 0 km/h
2481 05-03-2009 15:55:09 3.2 C 5.36 g/m*3 3.2 C 0 km/h
2482 05-03-2009 16:07:09 3.3 C 5.4 g/m*3 3.3 C 0 km/h
2483 05-03-2009 16:19:10 3.2 C 5.36 g/m*3 3.2 C 0 km/h
2484 05-03-2009 16:31:09 3.3 C 5.4 g/m*3 3.3 C 0 km/h
2485 05-03-2009 16:43:09 3.4 C 5.44 g/m*3 3.4 C 0 km/h
2486 05-03-2009 16:55:09 3.5 C 5.47 g/m*3 3.5 C 0 km/h
2487 05-03-2009 17:07:08 3.6 C 5.51 g/m*3 3.6 C 0 km/h
2488 05-03-2009 17:19:09 3.6 C 5.51 g/m*3 3.6 C 0 km/h
2489 05-03-2009 17:31:09 3.6 C 5.51 g/m*3 3.6 C 0 km/h
2490 05-03-2009 17:43:09 3.7 C 5.55 g/m*3 3.7 C 0 km/h
2491 05-03-2009 17:55:08 3.7 C 5.55 g/m*3 3.7 C 0 km/h
2492 05-03-2009 18:07:08 4 C 5.53 g/m*3 4 C 0 km/h
2493 05-03-2009 18:19:09 4 C 5.53 g/m*3 4 C 0 km/h
2494 05-03-2009 18:31:08 4 C 5.53 g/m*3 4 C 0 km/h
2495 05-03-2009 18:43:08 3.9 C 5.56 g/m*3 3.9 C 0 km/h
2496 05-03-2009 18:55:08 4 C 5.59 g/m*3 4 C 0 km/h
2497 05-03-2009 19:07:08 4 C 5.59 g/m*3 4 C 0 km/h
2498 05-03-2009 19:19:07 4 C 5.66 g/m*3 4 C 0 km/h
2499 05-03-2009 19:31:08 4 C 5.66 g/m*3 4 C 0 km/h
2500 05-03-2009 19:43:08 3.8 C 5.65 g/m*3 3.8 C 0 km/h
Sensor: Nr:Datum:Temp:Abs-Feuchte:Windchill:Wind:
Aussen-T/F 2501 05-03-2009 19:55:07 3.8 C 5.65 g/m*3 3.8 C 0 km/h
2502 05-03-2009 20:07:07 3.7 C 5.61 g/m*3 3.7 C 0 km/h
2503 05-03-2009 20:19:07 3.7 C 5.55 g/m*3 3.7 C 0 km/h
2504 05-03-2009 20:31:07 3.6 C 5.51 g/m*3 3.6 C 0 km/h
2505 05-03-2009 20:43:07 3.6 C 5.57 g/m*3 3.6 C 0 km/h
2506 05-03-2009 20:55:06 3.6 C 5.57 g/m*3 3.6 C 0 km/h
2507 05-03-2009 21:07:07 3.5 C 5.53 g/m*3 3.5 C 0 km/h
2508 05-03-2009 21:19:06 3.5 C 5.53 g/m*3 3.5 C 0 km/h
2509 05-03-2009 21:31:06 3.5 C 5.53 g/m*3 3.5 C 0 km/h
2510 05-03-2009 21:43:07 3.4 C 5.5 g/m*3 3.4 C 0 km/h
2511 05-03-2009 21:55:06 3.4 C 5.56 g/m*3 3.4 C 0 km/h
2512 05-03-2009 22:07:06 3.4 C 5.56 g/m*3 3.4 C 0 km/h
2513 05-03-2009 22:19:05 3.4 C 5.56 g/m*3 3.4 C 0 km/h
2514 05-03-2009 22:32:06 3.3 C 5.46 g/m*3 3.3 C 0 km/h
2515 05-03-2009 22:44:06 3.2 C 5.42 g/m*3 3.2 C 0 km/h
2516 05-03-2009 22:56:07 3.1 C 5.39 g/m*3 3.1 C 0 km/h
2517 05-03-2009 23:08:07 3 C 5.35 g/m*3 3 C 0 km/h
2518 05-03-2009 23:20:07 3 C 5.35 g/m*3 3 C 0 km/h
2519 05-03-2009 23:32:07 2.8 C 5.28 g/m*3 2.8 C 0 km/h
2520 05-03-2009 23:44:07 2.8 C 5.28 g/m*3 2.8 C 0 km/h
2521 05-03-2009 23:56:07 2.8 C 5.28 g/m*3 2.8 C 0 km/h
2522 06-03-2009 00:08:07 2.9 C 5.37 g/m*3 2.9 C 0 km/h
2523 06-03-2009 00:20:07 3 C 5.35 g/m*3 3 C 0 km/h
2524 06-03-2009 00:32:07 3 C 5.35 g/m*3 3 C 0 km/h
2525 06-03-2009 00:44:07 3 C 5.35 g/m*3 3 C 0 km/h
Sensor: Nr:Datum:Temp:Abs-Feuchte:Windchill:Wind:
Aussen-T/F 2526 06-03-2009 00:56:07 3 C 5.41 g/m*3 3 C 0 km/h
2527 06-03-2009 01:08:07 3.1 C 5.45 g/m*3 3.1 C 0 km/h
2528 06-03-2009 01:20:07 3.1 C 5.45 g/m*3 3.1 C 0 km/h
2529 06-03-2009 01:32:07 3.2 C 5.48 g/m*3 3.2 C 0 km/h
2530 06-03-2009 01:44:07 3.2 C 5.48 g/m*3 3.2 C 0 km/h
2531 06-03-2009 01:56:07 3.2 C 5.48 g/m*3 3.2 C 0 km/h
2532 06-03-2009 02:08:07 3.2 C 5.48 g/m*3 3.2 C 0 km/h
2533 06-03-2009 02:20:07 3.3 C 5.52 g/m*3 3.3 C 0 km/h
2534 06-03-2009 02:32:07 3.3 C 5.52 g/m*3 3.3 C 0 km/h
2535 06-03-2009 02:44:07 3.3 C 5.52 g/m*3 3.3 C 0 km/h
2536 06-03-2009 02:56:08 3.4 C 5.56 g/m*3 3.4 C 0 km/h
2537 06-03-2009 03:08:08 3.4 C 5.56 g/m*3 3.4 C 0 km/h
2538 06-03-2009 03:20:08 3.4 C 5.56 g/m*3 3.4 C 0 km/h
2539 06-03-2009 03:32:08 3.4 C 5.56 g/m*3 3.4 C 0 km/h
2540 06-03-2009 03:44:08 3.5 C 5.6 g/m*3 3.5 C 0 km/h
2541 06-03-2009 03:56:08 3.5 C 5.6 g/m*3 3.5 C 0 km/h
2542 06-03-2009 04:08:08 3.5 C 5.6 g/m*3 3.5 C 0 km/h
2543 06-03-2009 04:20:08 3.4 C 5.56 g/m*3 3.4 C 0 km/h
2544 06-03-2009 04:32:08 3.4 C 5.56 g/m*3 3.4 C 0 km/h
2545 06-03-2009 04:44:08 3.3 C 5.46 g/m*3 3.3 C 0 km/h
2546 06-03-2009 04:56:08 3.3 C 5.46 g/m*3 3.3 C 0 km/h
2547 06-03-2009 05:08:08 3.3 C 5.46 g/m*3 3.3 C 0 km/h
2548 06-03-2009 05:20:08 3.3 C 5.52 g/m*3 3.3 C 0 km/h
2549 06-03-2009 05:32:08 3.3 C 5.52 g/m*3 3.3 C 0 km/h
2550 06-03-2009 05:44:08 3.3 C 5.52 g/m*3 3.3 C 0 km/h
Sensor: Nr:Datum:Temp:Abs-Feuchte:Windchill:Wind:
Aussen-T/F 2551 06-03-2009 05:56:08 3.4 C 5.62 g/m*3 3.4 C 0 km/h
2552 06-03-2009 06:08:08 3.5 C 5.66 g/m*3 3.5 C 0 km/h
2553 06-03-2009 06:20:08 3.6 C 5.69 g/m*3 3.6 C 0 km/h
2554 06-03-2009 06:32:08 3.5 C 5.66 g/m*3 3.5 C 0 km/h
2555 06-03-2009 06:44:08 3.6 C 5.69 g/m*3 3.6 C 0 km/h
2556 06-03-2009 06:56:08 3.6 C 5.69 g/m*3 3.6 C 0 km/h
2557 06-03-2009 07:08:06 3.5 C 5.66 g/m*3 3.5 C 0 km/h
2558 06-03-2009 07:20:06 3.5 C 5.66 g/m*3 3.5 C 0 km/h
2559 06-03-2009 07:32:06 3.3 C 5.52 g/m*3 3.3 C 0 km/h
2560 06-03-2009 07:44:06 3.3 C 5.58 g/m*3 3.3 C 0 km/h
2561 06-03-2009 07:56:06 3.3 C 5.58 g/m*3 3.3 C 0 km/h
2562 06-03-2009 08:08:05 3.3 C 5.52 g/m*3 3.3 C 0 km/h
2563 06-03-2009 08:20:05 3.3 C 5.52 g/m*3 3.3 C 0 km/h
2564 06-03-2009 08:32:05 3.3 C 5.52 g/m*3 3.3 C 0 km/h
2565 06-03-2009 08:44:05 3.2 C 5.42 g/m*3 3.2 C 0 km/h
2566 06-03-2009 08:56:05 3.3 C 5.46 g/m*3 3.3 C 0 km/h
2567 06-03-2009 09:08:05 3.3 C 5.46 g/m*3 3.3 C 0 km/h
2568 06-03-2009 09:20:05 3.4 C 5.5 g/m*3 3.4 C 0 km/h
2569 06-03-2009 09:32:05 3.4 C 5.44 g/m*3 3.4 C 0 km/h
2570 06-03-2009 09:44:05 3.5 C 5.47 g/m*3 3.5 C 0 km/h
2571 06-03-2009 09:56:05 3.6 C 5.51 g/m*3 3.6 C 0 km/h
2572 06-03-2009 10:08:05 3.6 C 5.51 g/m*3 3.6 C 0 km/h
2573 06-03-2009 10:20:04 3.7 C 5.48 g/m*3 3.7 C 0 km/h
2574 06-03-2009 10:32:04 3.9 C 5.56 g/m*3 3.9 C 0 km/h
2575 06-03-2009 10:44:04 3.8 C 5.52 g/m*3 3.8 C 0 km/h
Sensor: Nr:Datum:Temp:Abs-Feuchte:Windchill:Wind:
Aussen-T/F 2576 06-03-2009 10:56:04 3.8 C 5.52 g/m*3 3.8 C 0 km/h
2577 06-03-2009 11:08:04 3.9 C 5.62 g/m*3 3.9 C 0 km/h
2578 06-03-2009 11:20:03 4 C 5.59 g/m*3 4 C 0 km/h
2579 06-03-2009 11:32:04 4.1 C 5.63 g/m*3 4.1 C 0 km/h
2580 06-03-2009 11:44:03 4.1 C 5.63 g/m*3 4.1 C 0 km/h
2581 06-03-2009 11:56:03 4.2 C 5.67 g/m*3 4.2 C 0 km/h
2582 06-03-2009 12:08:03 4.2 C 5.61 g/m*3 4.2 C 0 km/h
2583 06-03-2009 12:20:04 4.3 C 5.71 g/m*3 4.3 C 0 km/h
2584 06-03-2009 12:32:03 4.3 C 5.71 g/m*3 4.3 C 0 km/h
2585 06-03-2009 12:44:03 4.4 C 5.68 g/m*3 4.4 C 0 km/h
2586 06-03-2009 12:56:03 4.4 C 5.68 g/m*3 4.4 C 0 km/h
2587 06-03-2009 13:08:03 4.5 C 5.65 g/m*3 4.5 C 0 km/h
2588 06-03-2009 13:20:03 4.6 C 5.62 g/m*3 4.6 C 0 km/h
2589 06-03-2009 13:32:02 5 C 5.57 g/m*3 5 C 0 km/h
2590 06-03-2009 13:44:02 5 C 5.57 g/m*3 5 C 0 km/h
2591 06-03-2009 13:56:03 4.8 C 5.57 g/m*3 4.8 C 0 km/h
2592 06-03-2009 14:08:02 4.7 C 5.6 g/m*3 4.7 C 0 km/h
2593 06-03-2009 14:20:02 4.7 C 5.6 g/m*3 4.7 C 0 km/h
2594 06-03-2009 14:32:02 4.8 C 5.57 g/m*3 4.8 C 0 km/h
2595 06-03-2009 14:44:02 4.9 C 5.54 g/m*3 4.9 C 0 km/h
2596 06-03-2009 14:56:02 4.9 C 5.6 g/m*3 4.9 C 0 km/h
2597 06-03-2009 15:08:02 4.8 C 5.5 g/m*3 4.8 C 0 km/h
2598 06-03-2009 15:20:01 4.8 C 5.5 g/m*3 4.8 C 0 km/h
2599 06-03-2009 15:32:01 4.9 C 5.54 g/m*3 4.9 C 0 km/h
2600 06-03-2009 15:44:01 4.9 C 5.54 g/m*3 4.9 C 0 km/h
Sensor: Nr:Datum:Temp:Abs-Feuchte:Windchill:Wind:
Aussen-T/F 2601 06-03-2009 15:56:01 4.7 C 5.46 g/m*3 4.7 C 0 km/h
2602 06-03-2009 16:08:01 4.7 C 5.46 g/m*3 4.7 C 0 km/h
2603 06-03-2009 16:20:00 4.6 C 5.43 g/m*3 4.6 C 0 km/h
2604 06-03-2009 16:32:01 4.6 C 5.43 g/m*3 4.6 C 0 km/h
2605 06-03-2009 16:44:00 4.5 C 5.46 g/m*3 4.5 C 0 km/h
2606 06-03-2009 16:56:00 4.4 C 5.48 g/m*3 4.4 C 0 km/h
2607 06-03-2009 17:08:00 4.4 C 5.48 g/m*3 4.4 C 0 km/h
2608 06-03-2009 17:20:01 4.3 C 5.45 g/m*3 4.3 C 0 km/h
2609 06-03-2009 17:32:00 4.2 C 5.35 g/m*3 4.2 C 0 km/h
2610 06-03-2009 17:44:00 4.2 C 5.35 g/m*3 4.2 C 0 km/h
2611 06-03-2009 17:56:00 4.2 C 5.41 g/m*3 4.2 C 0 km/h
2612 06-03-2009 18:08:00 4.2 C 5.35 g/m*3 4.2 C 0 km/h
2613 06-03-2009 18:20:00 4.1 C 5.25 g/m*3 4.1 C 0 km/h
2614 06-03-2009 18:32:00 4 C 5.28 g/m*3 4 C 0 km/h
2615 06-03-2009 18:44:00 4 C 5.34 g/m*3 4 C 0 km/h
2616 06-03-2009 18:56:00 3.9 C 5.37 g/m*3 3.9 C 0 km/h
2617 06-03-2009 19:08:00 3.9 C 5.31 g/m*3 3.9 C 0 km/h
2618 06-03-2009 19:20:59 4 C 5.21 g/m*3 4 C 0 km/h
2619 06-03-2009 19:32:59 4 C 5.21 g/m*3 4 C 0 km/h
2620 06-03-2009 19:44:59 4 C 5.28 g/m*3 4 C 0 km/h
2621 06-03-2009 19:56:59 3.9 C 5.31 g/m*3 3.9 C 0 km/h
2622 06-03-2009 20:08:59 3.8 C 5.27 g/m*3 3.8 C 0 km/h
2623 06-03-2009 20:20:58 3.8 C 5.27 g/m*3 3.8 C 0 km/h
2624 06-03-2009 20:32:59 3.8 C 5.21 g/m*3 3.8 C 0 km/h
2625 06-03-2009 20:44:58 4 C 5.09 g/m*3 4 C 0 km/h
Sensor: Nr:Datum:Temp:Abs-Feuchte:Windchill:Wind:
Aussen-T/F 2626 06-03-2009 20:56:58 3.9 C 5.12 g/m*3 3.9 C 0 km/h
2627 06-03-2009 21:08:59 3.8 C 5.02 g/m*3 3.8 C 0 km/h
2628 06-03-2009 21:20:58 3.7 C 4.86 g/m*3 3.7 C 0 km/h
2629 06-03-2009 21:32:58 3.7 C 4.74 g/m*3 3.7 C 0 km/h
2630 06-03-2009 21:44:58 3.8 C 4.52 g/m*3 3.8 C 0 km/h
2631 06-03-2009 21:56:58 3.8 C 4.39 g/m*3 3.8 C 0 km/h
2632 06-03-2009 22:08:58 3.8 C 4.27 g/m*3 3.8 C 0 km/h
2633 06-03-2009 22:21:57 3.7 C 4.24 g/m*3 3.7 C 0 km/h
2634 06-03-2009 22:33:57 3.8 C 4.2 g/m*3 3.8 C 0 km/h
2635 06-03-2009 22:45:57 3.8 C 4.27 g/m*3 3.8 C 0 km/h
2636 06-03-2009 22:57:57 3.8 C 4.2 g/m*3 3.8 C 0 km/h
2637 06-03-2009 23:09:57 3.8 C 4.14 g/m*3 3.8 C 0 km/h
2638 06-03-2009 23:21:57 3.7 C 4.11 g/m*3 3.7 C 0 km/h
2639 06-03-2009 23:33:57 3.8 C 4.08 g/m*3 3.8 C 0 km/h
2640 06-03-2009 23:45:57 3.8 C 4.08 g/m*3 3.8 C 0 km/h
2641 06-03-2009 23:57:57 3.8 C 4.02 g/m*3 3.8 C 0 km/h
2642 07-03-2009 00:09:58 3.7 C 3.99 g/m*3 3.7 C 0 km/h
2643 07-03-2009 00:21:58 3.8 C 3.89 g/m*3 3.8 C 0 km/h
2644 07-03-2009 00:33:58 3.8 C 3.83 g/m*3 3.8 C 0 km/h
2645 07-03-2009 00:45:58 3.8 C 3.76 g/m*3 3.8 C 0 km/h
2646 07-03-2009 00:57:58 3.7 C 3.8 g/m*3 3.7 C 0 km/h
2647 07-03-2009 01:09:58 3.6 C 3.9 g/m*3 3.6 C 0 km/h
2648 07-03-2009 01:21:58 3.6 C 3.84 g/m*3 3.6 C 0 km/h
2649 07-03-2009 01:33:58 3.6 C 3.84 g/m*3 3.6 C 0 km/h
2650 07-03-2009 01:45:58 3.5 C 3.81 g/m*3 3.5 C 0 km/h
Sensor: Nr:Datum:Temp:Abs-Feuchte:Windchill:Wind:
Aussen-T/F 2651 07-03-2009 01:57:58 3.4 C 3.85 g/m*3 3.4 C 0 km/h
2652 07-03-2009 02:09:58 3.4 C 3.85 g/m*3 3.4 C 0 km/h
2653 07-03-2009 02:21:58 3.4 C 3.85 g/m*3 3.4 C 0 km/h
2654 07-03-2009 02:33:58 3.3 C 3.82 g/m*3 3.3 C 0 km/h
2655 07-03-2009 02:45:58 3.3 C 3.88 g/m*3 3.3 C 0 km/h
2656 07-03-2009 02:57:58 3.2 C 3.86 g/m*3 3.2 C 0 km/h
2657 07-03-2009 03:09:58 3.1 C 3.89 g/m*3 3.1 C 0 km/h
2658 07-03-2009 03:21:58 3.2 C 3.86 g/m*3 3.2 C 0 km/h
2659 07-03-2009 03:33:58 3.2 C 3.86 g/m*3 3.2 C 0 km/h
2660 07-03-2009 03:45:58 3.2 C 3.86 g/m*3 3.2 C 0 km/h
2661 07-03-2009 03:57:58 3.2 C 3.86 g/m*3 3.2 C 0 km/h
2662 07-03-2009 04:09:59 3.2 C 3.86 g/m*3 3.2 C 0 km/h
2663 07-03-2009 04:21:59 3.2 C 3.86 g/m*3 3.2 C 0 km/h
2664 07-03-2009 04:33:59 3.1 C 3.83 g/m*3 3.1 C 0 km/h
2665 07-03-2009 04:45:59 3.1 C 3.83 g/m*3 3.1 C 0 km/h
2666 07-03-2009 04:57:59 3.2 C 3.8 g/m*3 3.2 C 0 km/h
2667 07-03-2009 05:09:59 3.2 C 3.8 g/m*3 3.2 C 0 km/h
2668 07-03-2009 05:21:59 3.2 C 3.74 g/m*3 3.2 C 0 km/h
2669 07-03-2009 05:33:59 3.1 C 3.77 g/m*3 3.1 C 0 km/h
2670 07-03-2009 05:45:59 3 C 3.75 g/m*3 3 C 0 km/h
2671 07-03-2009 05:57:59 3 C 3.69 g/m*3 3 C 0 km/h
2672 07-03-2009 06:09:59 3 C 3.63 g/m*3 3 C 0 km/h
2673 07-03-2009 06:21:58 3 C 3.57 g/m*3 3 C 0 km/h
2674 07-03-2009 06:33:57 3 C 3.63 g/m*3 3 C 0 km/h
2675 07-03-2009 06:45:57 3 C 3.63 g/m*3 3 C 0 km/h
Sensor: Nr:Datum:Temp:Abs-Feuchte:Windchill:Wind:
Aussen-T/F 2676 07-03-2009 06:57:57 3 C 3.63 g/m*3 3 C 0 km/h
2677 07-03-2009 07:09:57 2.9 C 3.66 g/m*3 2.9 C 0 km/h
2678 07-03-2009 07:21:57 2.9 C 3.72 g/m*3 2.9 C 0 km/h
2679 07-03-2009 07:33:57 2.7 C 3.73 g/m*3 2.7 C 0 km/h
2680 07-03-2009 07:45:57 2.6 C 3.76 g/m*3 2.6 C 0 km/h
2681 07-03-2009 07:57:57 2.7 C 3.79 g/m*3 2.7 C 0 km/h
2682 07-03-2009 08:09:57 2.7 C 3.73 g/m*3 2.7 C 0 km/h
2683 07-03-2009 08:21:56 2.7 C 3.73 g/m*3 2.7 C 0 km/h
2684 07-03-2009 08:33:56 2.6 C 3.65 g/m*3 2.6 C 0 km/h
2685 07-03-2009 08:45:56 2.6 C 3.65 g/m*3 2.6 C 0 km/h
2686 07-03-2009 08:57:56 2.7 C 3.67 g/m*3 2.7 C 0 km/h
2687 07-03-2009 09:09:56 2.7 C 3.67 g/m*3 2.7 C 0 km/h
2688 07-03-2009 09:21:56 3 C 3.69 g/m*3 3 C 0 km/h
2689 07-03-2009 09:33:56 3.3 C 3.7 g/m*3 3.3 C 0 km/h
2690 07-03-2009 09:45:56 3.2 C 3.62 g/m*3 3.2 C 0 km/h
2691 07-03-2009 09:57:56 3.1 C 3.71 g/m*3 3.1 C 0 km/h
2692 07-03-2009 10:09:56 3.2 C 3.8 g/m*3 3.2 C 0 km/h
2693 07-03-2009 10:21:55 3.5 C 3.87 g/m*3 3.5 C 0 km/h
2694 07-03-2009 10:33:55 3.9 C 3.85 g/m*3 3.9 C 0 km/h
2695 07-03-2009 10:45:55 4.5 C 3.94 g/m*3 4.5 C 0 km/h
2696 07-03-2009 10:57:55 5 C 3.87 g/m*3 5 C 0 km/h
2697 07-03-2009 11:09:55 5.1 C 3.97 g/m*3 5.1 C 0 km/h
2698 07-03-2009 11:21:54 5.9 C 3.97 g/m*3 5.9 C 0 km/h
2699 07-03-2009 11:33:55 6.6 C 3.85 g/m*3 6.6 C 0 km/h
2700 07-03-2009 11:45:54 7.2 C 3.77 g/m*3 7.2 C 0 km/h
Sensor: Nr:Datum:Temp:Abs-Feuchte:Windchill:Wind:
Aussen-T/F 2701 07-03-2009 11:57:54 7.4 C 3.9 g/m*3 7.4 C 0 km/h
2702 07-03-2009 12:09:54 7.5 C 3.76 g/m*3 7.5 C 0 km/h
2703 07-03-2009 12:21:55 7.6 C 3.63 g/m*3 7.6 C 0 km/h
2704 07-03-2009 12:33:54 7.8 C 3.59 g/m*3 7.8 C 0 km/h
2705 07-03-2009 12:45:54 8.2 C 3.43 g/m*3 8.2 C 0 km/h
2706 07-03-2009 12:57:54 7.9 C 3.37 g/m*3 7.9 C 0 km/h
2707 07-03-2009 13:09:54 8.5 C 3.24 g/m*3 8.5 C 0 km/h
2708 07-03-2009 13:21:54 8.4 C 3.22 g/m*3 8.4 C 0 km/h
2709 07-03-2009 13:33:54 9 C 3.26 g/m*3 9 C 0 km/h
2710 07-03-2009 13:45:53 8.5 C 3.07 g/m*3 8.5 C 0 km/h
2711 07-03-2009 13:57:53 9.4 C 3.26 g/m*3 9.4 C 0 km/h
2712 07-03-2009 14:09:54 10 C 3.01 g/m*3 10 C 0 km/h
2713 07-03-2009 14:21:53 10.8 C 3.06 g/m*3 10.8 C 0 km/h
2714 07-03-2009 14:33:53 11.3 C 2.96 g/m*3 11.3 C 0 km/h
2715 07-03-2009 14:45:53 11.4 C 2.77 g/m*3 11.4 C 0 km/h
2716 07-03-2009 14:57:53 11.3 C 2.86 g/m*3 11.3 C 0 km/h
2717 07-03-2009 15:09:53 11.8 C 2.74 g/m*3 11.8 C 0 km/h
2718 07-03-2009 15:21:52 11.9 C 2.65 g/m*3 11.9 C 0 km/h
2719 07-03-2009 15:33:52 11 C 3.2 g/m*3 11 C 0 km/h
2720 07-03-2009 15:45:52 10.8 C 3.36 g/m*3 10.8 C 0 km/h
2721 07-03-2009 15:57:52 11 C 3 g/m*3 11 C 0 km/h
2722 07-03-2009 16:09:52 10.7 C 2.75 g/m*3 10.7 C 0 km/h
2723 07-03-2009 16:21:52 10.2 C 2.85 g/m*3 10.2 C 0 km/h
2724 07-03-2009 16:33:52 10.4 C 2.89 g/m*3 10.4 C 0 km/h
2725 07-03-2009 16:45:52 10.6 C 2.73 g/m*3 10.6 C 0 km/h
Sensor: Nr:Datum:Temp:Abs-Feuchte:Windchill:Wind:
Aussen-T/F 2726 07-03-2009 16:57:52 10.4 C 2.6 g/m*3 10.4 C 0 km/h
2727 07-03-2009 17:09:51 9.6 C 3.57 g/m*3 9.6 C 0 km/h
2728 07-03-2009 17:21:52 9.2 C 3.75 g/m*3 9.2 C 0 km/h
2729 07-03-2009 17:33:51 8.7 C 3.89 g/m*3 8.7 C 0 km/h
2730 07-03-2009 17:45:51 8.4 C 3.99 g/m*3 8.4 C 0 km/h
2731 07-03-2009 17:57:51 8 C 4.05 g/m*3 8 C 0 km/h
2732 07-03-2009 18:09:51 7.8 C 4.08 g/m*3 7.8 C 0 km/h
2733 07-03-2009 18:21:51 7.5 C 4.16 g/m*3 7.5 C 0 km/h
2734 07-03-2009 18:33:51 7.2 C 4.16 g/m*3 7.2 C 0 km/h
2735 07-03-2009 18:45:50 6.8 C 4.21 g/m*3 6.8 C 0 km/h
2736 07-03-2009 18:57:50 6.4 C 4.17 g/m*3 6.4 C 0 km/h
2737 07-03-2009 19:09:51 6.2 C 4.27 g/m*3 6.2 C 0 km/h
2738 07-03-2009 19:21:50 5.8 C 4.3 g/m*3 5.8 C 0 km/h
2739 07-03-2009 19:33:50 5.6 C 4.31 g/m*3 5.6 C 0 km/h
2740 07-03-2009 19:45:50 5.3 C 4.23 g/m*3 5.3 C 0 km/h
2741 07-03-2009 19:57:50 5.3 C 4.3 g/m*3 5.3 C 0 km/h
2742 07-03-2009 20:09:50 5.2 C 4.27 g/m*3 5.2 C 0 km/h
2743 07-03-2009 20:21:49 5.6 C 4.38 g/m*3 5.6 C 0 km/h
2744 07-03-2009 20:33:50 6 C 4.28 g/m*3 6 C 0 km/h
2745 07-03-2009 20:45:50 6 C 4.21 g/m*3 6 C 0 km/h
2746 07-03-2009 20:57:50 5.9 C 4.25 g/m*3 5.9 C 0 km/h
2747 07-03-2009 21:09:50 5.9 C 4.25 g/m*3 5.9 C 0 km/h
2748 07-03-2009 21:21:49 5.9 C 4.25 g/m*3 5.9 C 0 km/h
2749 07-03-2009 21:33:49 6 C 4.14 g/m*3 6 C 0 km/h
2750 07-03-2009 21:45:49 6.1 C 4.09 g/m*3 6.1 C 0 km/h
Sensor: Nr:Datum:Temp:Abs-Feuchte:Windchill:Wind:
Aussen-T/F 2751 07-03-2009 21:57:49 6.2 C 4.04 g/m*3 6.2 C 0 km/h
2752 07-03-2009 22:09:49 6.4 C 4.1 g/m*3 6.4 C 0 km/h
2753 07-03-2009 22:21:48 6.2 C 4.04 g/m*3 6.2 C 0 km/h
2754 07-03-2009 22:33:49 6.4 C 4.1 g/m*3 6.4 C 0 km/h
2755 07-03-2009 22:46:50 6.4 C 4.17 g/m*3 6.4 C 0 km/h
2756 07-03-2009 22:58:50 6.2 C 4.19 g/m*3 6.2 C 0 km/h
2757 07-03-2009 23:10:50 6.3 C 4.22 g/m*3 6.3 C 0 km/h
2758 07-03-2009 23:22:50 6.3 C 4.29 g/m*3 6.3 C 0 km/h
2759 07-03-2009 23:34:50 6.5 C 4.12 g/m*3 6.5 C 0 km/h
2760 07-03-2009 23:46:50 6.5 C 4.2 g/m*3 6.5 C 0 km/h
2761 07-03-2009 23:58:50 6.4 C 4.25 g/m*3 6.4 C 0 km/h
2762 08-03-2009 00:10:50 6.3 C 4.22 g/m*3 6.3 C 0 km/h
2763 08-03-2009 00:22:50 6.4 C 4.25 g/m*3 6.4 C 0 km/h
2764 08-03-2009 00:34:50 6.3 C 4.22 g/m*3 6.3 C 0 km/h
2765 08-03-2009 00:46:50 6.3 C 4.29 g/m*3 6.3 C 0 km/h
2766 08-03-2009 00:58:51 6.1 C 4.31 g/m*3 6.1 C 0 km/h
2767 08-03-2009 01:10:51 5.9 C 4.4 g/m*3 5.9 C 0 km/h
2768 08-03-2009 01:22:51 6.1 C 4.38 g/m*3 6.1 C 0 km/h
2769 08-03-2009 01:34:51 6.3 C 4.44 g/m*3 6.3 C 0 km/h
2770 08-03-2009 01:46:51 6.3 C 4.44 g/m*3 6.3 C 0 km/h
2771 08-03-2009 01:58:51 6.5 C 4.35 g/m*3 6.5 C 0 km/h
2772 08-03-2009 02:10:51 6.4 C 4.4 g/m*3 6.4 C 0 km/h
2773 08-03-2009 02:22:51 6.4 C 4.4 g/m*3 6.4 C 0 km/h
2774 08-03-2009 02:34:51 6.4 C 4.4 g/m*3 6.4 C 0 km/h
2775 08-03-2009 02:46:51 6.5 C 4.57 g/m*3 6.5 C 0 km/h
Sensor: Nr:Datum:Temp:Abs-Feuchte:Windchill:Wind:
Aussen-T/F 2776 08-03-2009 02:58:51 6.7 C 4.64 g/m*3 6.7 C 0 km/h
2777 08-03-2009 03:10:51 6.6 C 4.6 g/m*3 6.6 C 0 km/h
2778 08-03-2009 03:22:51 6.6 C 4.68 g/m*3 6.6 C 0 km/h
2779 08-03-2009 03:34:51 6.7 C 4.71 g/m*3 6.7 C 0 km/h
2780 08-03-2009 03:46:51 6.9 C 4.77 g/m*3 6.9 C 0 km/h
2781 08-03-2009 03:58:51 7 C 4.65 g/m*3 7 C 0 km/h
2782 08-03-2009 04:10:51 7.1 C 4.76 g/m*3 7.1 C 0 km/h
2783 08-03-2009 04:22:51 7.1 C 4.76 g/m*3 7.1 C 0 km/h
2784 08-03-2009 04:34:51 7.1 C 4.76 g/m*3 7.1 C 0 km/h
2785 08-03-2009 04:46:52 7.2 C 4.79 g/m*3 7.2 C 0 km/h
2786 08-03-2009 04:58:52 7.2 C 4.79 g/m*3 7.2 C 0 km/h
2787 08-03-2009 05:10:52 7.2 C 4.71 g/m*3 7.2 C 0 km/h
2788 08-03-2009 05:22:52 7.3 C 4.74 g/m*3 7.3 C 0 km/h
2789 08-03-2009 05:34:52 7.2 C 4.71 g/m*3 7.2 C 0 km/h
2790 08-03-2009 05:46:52 7.3 C 4.74 g/m*3 7.3 C 0 km/h
2791 08-03-2009 05:58:52 7.3 C 4.74 g/m*3 7.3 C 0 km/h
2792 08-03-2009 06:10:52 7.2 C 4.79 g/m*3 7.2 C 0 km/h
2793 08-03-2009 06:22:52 7.2 C 4.71 g/m*3 7.2 C 0 km/h
2794 08-03-2009 06:34:52 7.3 C 4.82 g/m*3 7.3 C 0 km/h
2795 08-03-2009 06:46:52 7.3 C 4.82 g/m*3 7.3 C 0 km/h
2796 08-03-2009 06:58:52 7.3 C 4.9 g/m*3 7.3 C 0 km/h
2797 08-03-2009 07:10:52 7.3 C 4.9 g/m*3 7.3 C 0 km/h
2798 08-03-2009 07:22:52 7.3 C 4.98 g/m*3 7.3 C 0 km/h
2799 08-03-2009 07:34:52 7.3 C 4.98 g/m*3 7.3 C 0 km/h
2800 08-03-2009 07:46:49 7.3 C 5.06 g/m*3 7.3 C 0 km/h
Sensor: Nr:Datum:Temp:Abs-Feuchte:Windchill:Wind:
Aussen-T/F 2801 08-03-2009 07:58:49 7.4 C 5.17 g/m*3 7.4 C 0 km/h
2802 08-03-2009 08:10:50 7.5 C 5.2 g/m*3 7.5 C 0 km/h
2803 08-03-2009 08:22:50 7.8 C 5.3 g/m*3 7.8 C 0 km/h
2804 08-03-2009 08:34:49 8 C 5.21 g/m*3 8 C 0 km/h
2805 08-03-2009 08:46:49 8.1 C 5.16 g/m*3 8.1 C 0 km/h
2806 08-03-2009 08:58:49 8 C 5.21 g/m*3 8 C 0 km/h
2807 08-03-2009 09:10:49 8 C 5.21 g/m*3 8 C 0 km/h
2808 08-03-2009 09:22:49 8.2 C 5.28 g/m*3 8.2 C 0 km/h
2809 08-03-2009 09:34:48 8.2 C 5.28 g/m*3 8.2 C 0 km/h
2810 08-03-2009 09:46:49 8.2 C 5.28 g/m*3 8.2 C 0 km/h
2811 08-03-2009 09:58:49 8.2 C 5.28 g/m*3 8.2 C 0 km/h
2812 08-03-2009 10:10:48 8.3 C 5.31 g/m*3 8.3 C 0 km/h
2813 08-03-2009 10:22:48 8.3 C 5.31 g/m*3 8.3 C 0 km/h
2814 08-03-2009 10:34:48 8.3 C 5.39 g/m*3 8.3 C 0 km/h
2815 08-03-2009 10:46:48 8.5 C 5.46 g/m*3 8.5 C 0 km/h
2816 08-03-2009 10:58:48 8.5 C 5.55 g/m*3 8.5 C 0 km/h
2817 08-03-2009 11:10:47 8.5 C 5.64 g/m*3 8.5 C 0 km/h
2818 08-03-2009 11:22:48 8.5 C 5.64 g/m*3 8.5 C 0 km/h
2819 08-03-2009 11:34:48 8.7 C 5.71 g/m*3 8.7 C 0 km/h
2820 08-03-2009 11:46:47 8.6 C 5.67 g/m*3 8.6 C 0 km/h
2821 08-03-2009 11:58:47 8.6 C 5.76 g/m*3 8.6 C 0 km/h
2822 08-03-2009 12:10:48 8.8 C 5.83 g/m*3 8.8 C 0 km/h
2823 08-03-2009 12:22:47 9.1 C 5.68 g/m*3 9.1 C 0 km/h
2824 08-03-2009 12:34:47 9.3 C 5.66 g/m*3 9.3 C 0 km/h
2825 08-03-2009 12:46:46 9.3 C 5.57 g/m*3 9.3 C 0 km/h
Sensor: Nr:Datum:Temp:Abs-Feuchte:Windchill:Wind:
Aussen-T/F 2826 08-03-2009 12:58:46 9.1 C 5.77 g/m*3 9.1 C 0 km/h
2827 08-03-2009 13:10:47 8.9 C 6.13 g/m*3 8.9 C 0 km/h
2828 08-03-2009 13:22:46 8.7 C 6.31 g/m*3 8.7 C 0 km/h
2829 08-03-2009 13:34:46 8.9 C 6.48 g/m*3 8.9 C 0 km/h
2830 08-03-2009 13:46:47 9.6 C 6.32 g/m*3 9.6 C 0 km/h
2831 08-03-2009 13:58:47 10.2 C 6.09 g/m*3 10.2 C 0 km/h
2832 08-03-2009 14:10:46 10.2 C 6 g/m*3 10.2 C 0 km/h
2833 08-03-2009 14:22:46 10.1 C 5.96 g/m*3 10.1 C 0 km/h
2834 08-03-2009 14:34:46 10.4 C 5.98 g/m*3 10.4 C 0 km/h
2835 08-03-2009 14:46:46 10.5 C 5.92 g/m*3 10.5 C 0 km/h
2836 08-03-2009 14:58:46 10.3 C 5.94 g/m*3 10.3 C 0 km/h
2837 08-03-2009 15:10:45 10.2 C 5.9 g/m*3 10.2 C 0 km/h
2838 08-03-2009 15:22:46 9.9 C 6.16 g/m*3 9.9 C 0 km/h
2839 08-03-2009 15:34:45 9.7 C 6.36 g/m*3 9.7 C 0 km/h
2840 08-03-2009 15:46:45 10.1 C 6.24 g/m*3 10.1 C 0 km/h
2841 08-03-2009 15:58:45 9.8 C 6.31 g/m*3 9.8 C 0 km/h
2842 08-03-2009 16:10:45 9.3 C 6.56 g/m*3 9.3 C 0 km/h
2843 08-03-2009 16:22:45 9 C 6.88 g/m*3 9 C 0 km/h
2844 08-03-2009 16:34:45 8.7 C 7.09 g/m*3 8.7 C 0 km/h
2845 08-03-2009 16:46:44 8.5 C 6.92 g/m*3 8.5 C 0 km/h
2846 08-03-2009 16:58:44 8.5 C 6.92 g/m*3 8.5 C 0 km/h
2847 08-03-2009 17:10:45 8.5 C 6.83 g/m*3 8.5 C 0 km/h
2848 08-03-2009 17:22:44 8.4 C 6.87 g/m*3 8.4 C 0 km/h
2849 08-03-2009 17:34:45 8.3 C 6.91 g/m*3 8.3 C 0 km/h
2850 08-03-2009 17:46:44 8.4 C 7.04 g/m*3 8.4 C 0 km/h
Sensor: Nr:Datum:Temp:Abs-Feuchte:Windchill:Wind:
Aussen-T/F 2851 08-03-2009 17:58:44 8.3 C 7.08 g/m*3 8.3 C 0 km/h
2852 08-03-2009 18:10:44 8.2 C 7.03 g/m*3 8.2 C 0 km/h
2853 08-03-2009 18:22:44 8.1 C 6.99 g/m*3 8.1 C 0 km/h
2854 08-03-2009 18:34:44 8.1 C 7.07 g/m*3 8.1 C 0 km/h
2855 08-03-2009 18:46:43 8.2 C 6.45 g/m*3 8.2 C 0 km/h
2856 08-03-2009 18:58:43 8.1 C 6.24 g/m*3 8.1 C 0 km/h
2857 08-03-2009 19:10:44 8.1 C 6.32 g/m*3 8.1 C 0 km/h
2858 08-03-2009 19:22:43 7.7 C 6.24 g/m*3 7.7 C 0 km/h
2859 08-03-2009 19:34:43 7.1 C 6.16 g/m*3 7.1 C 0 km/h
2860 08-03-2009 19:46:43 6.9 C 6.31 g/m*3 6.9 C 0 km/h
2861 08-03-2009 19:58:43 7 C 6.43 g/m*3 7 C 0 km/h
2862 08-03-2009 20:10:43 6.9 C 6.47 g/m*3 6.9 C 0 km/h
2863 08-03-2009 20:22:43 6.9 C 6.54 g/m*3 6.9 C 0 km/h
2864 08-03-2009 20:34:42 6.6 C 6.34 g/m*3 6.6 C 0 km/h
2865 08-03-2009 20:46:43 6.2 C 6.1 g/m*3 6.2 C 0 km/h
2866 08-03-2009 20:58:43 5.8 C 6.02 g/m*3 5.8 C 0 km/h
2867 08-03-2009 21:10:43 5.4 C 5.86 g/m*3 5.4 C 0 km/h
2868 08-03-2009 21:22:42 5.2 C 5.78 g/m*3 5.2 C 0 km/h
2869 08-03-2009 21:34:42 5.1 C 5.75 g/m*3 5.1 C 0 km/h
2870 08-03-2009 21:46:42 5.1 C 5.75 g/m*3 5.1 C 0 km/h
2871 08-03-2009 21:58:42 5 C 5.71 g/m*3 5 C 0 km/h
2872 08-03-2009 22:10:42 4.8 C 5.63 g/m*3 4.8 C 0 km/h
2873 08-03-2009 22:22:41 4.7 C 5.6 g/m*3 4.7 C 0 km/h
2874 08-03-2009 22:34:41 4.6 C 5.56 g/m*3 4.6 C 0 km/h
2875 08-03-2009 22:46:41 4.8 C 5.5 g/m*3 4.8 C 0 km/h
Sensor: Nr:Datum:Temp:Abs-Feuchte:Windchill:Wind:
Aussen-T/F 2876 08-03-2009 22:58:41 5.3 C 4.92 g/m*3 5.3 C 0 km/h
2877 08-03-2009 23:10:41 5.3 C 4.71 g/m*3 5.3 C 0 km/h
2878 08-03-2009 23:23:43 4.7 C 4.8 g/m*3 4.7 C 0 km/h
2879 08-03-2009 23:35:43 4.6 C 4.83 g/m*3 4.6 C 0 km/h
2880 08-03-2009 23:47:43 4.5 C 4.8 g/m*3 4.5 C 0 km/h
2881 08-03-2009 23:59:43 4.4 C 4.77 g/m*3 4.4 C 0 km/h
2882 09-03-2009 00:11:43 4.4 C 4.83 g/m*3 4.4 C 0 km/h
2883 09-03-2009 00:23:43 4.8 C 4.96 g/m*3 4.8 C 0 km/h
2884 09-03-2009 00:35:43 5.1 C 4.79 g/m*3 5.1 C 0 km/h
2885 09-03-2009 00:47:43 5 C 4.69 g/m*3 5 C 0 km/h
2886 09-03-2009 00:59:43 5 C 4.69 g/m*3 5 C 0 km/h
2887 09-03-2009 01:11:43 4.7 C 4.73 g/m*3 4.7 C 0 km/h
2888 09-03-2009 01:23:43 4.7 C 4.2 g/m*3 4.7 C 0 km/h
2889 09-03-2009 01:35:43 4.7 C 4.46 g/m*3 4.7 C 0 km/h
2890 09-03-2009 01:47:43 4.7 C 4.46 g/m*3 4.7 C 0 km/h
2891 09-03-2009 01:59:44 4.7 C 4.06 g/m*3 4.7 C 0 km/h
2892 09-03-2009 02:11:44 4.7 C 3.73 g/m*3 4.7 C 0 km/h
2893 09-03-2009 02:23:44 4.7 C 3.66 g/m*3 4.7 C 0 km/h
2894 09-03-2009 02:35:44 4.3 C 3.63 g/m*3 4.3 C 0 km/h
2895 09-03-2009 02:47:44 3.9 C 3.79 g/m*3 3.9 C 0 km/h
2896 09-03-2009 02:59:44 3.7 C 3.74 g/m*3 3.7 C 0 km/h
2897 09-03-2009 03:11:44 3.6 C 3.71 g/m*3 3.6 C 0 km/h
2898 09-03-2009 03:23:44 3.5 C 3.75 g/m*3 3.5 C 0 km/h
2899 09-03-2009 03:35:44 3.3 C 3.76 g/m*3 3.3 C 0 km/h
2900 09-03-2009 03:47:44 3.3 C 3.94 g/m*3 3.3 C 0 km/h
Sensor: Nr:Datum:Temp:Abs-Feuchte:Windchill:Wind:
Aussen-T/F 2901 09-03-2009 03:59:44 3.4 C 4.03 g/m*3 3.4 C 0 km/h
2902 09-03-2009 04:11:44 3.4 C 4.09 g/m*3 3.4 C 0 km/h
2903 09-03-2009 04:23:44 3.6 C 4.15 g/m*3 3.6 C 0 km/h
2904 09-03-2009 04:35:44 3.7 C 4.3 g/m*3 3.7 C 0 km/h
2905 09-03-2009 04:47:44 3.3 C 4.49 g/m*3 3.3 C 0 km/h
2906 09-03-2009 04:59:44 3.2 C 4.64 g/m*3 3.2 C 0 km/h
2907 09-03-2009 05:11:44 3.1 C 4.67 g/m*3 3.1 C 0 km/h
2908 09-03-2009 05:23:44 3.1 C 4.73 g/m*3 3.1 C 0 km/h
2909 09-03-2009 05:35:44 3 C 4.64 g/m*3 3 C 0 km/h
2910 09-03-2009 05:47:45 3.2 C 4.64 g/m*3 3.2 C 0 km/h
2911 09-03-2009 05:59:45 3.3 C 4.61 g/m*3 3.3 C 0 km/h
2912 09-03-2009 06:11:45 3.1 C 4.67 g/m*3 3.1 C 0 km/h
2913 09-03-2009 06:23:45 2.5 C 4.66 g/m*3 2.5 C 0 km/h
2914 09-03-2009 06:35:45 2.3 C 4.71 g/m*3 2.3 C 0 km/h
2915 09-03-2009 06:47:45 2.1 C 4.7 g/m*3 2.1 C 0 km/h
2916 09-03-2009 06:59:42 2.2 C 4.79 g/m*3 2.2 C 0 km/h
2917 09-03-2009 07:11:42 2.2 C 4.73 g/m*3 2.2 C 0 km/h
2918 09-03-2009 07:23:42 2.1 C 4.42 g/m*3 2.1 C 0 km/h
2919 09-03-2009 07:35:41 2.1 C 4.2 g/m*3 2.1 C 0 km/h
2920 09-03-2009 07:47:42 2 C 3.95 g/m*3 2 C 0 km/h
2921 09-03-2009 07:59:41 2.1 C 3.92 g/m*3 2.1 C 0 km/h
2922 09-03-2009 08:11:41 2.2 C 3.89 g/m*3 2.2 C 0 km/h
2923 09-03-2009 08:23:41 2.6 C 3.82 g/m*3 2.6 C 0 km/h
2924 09-03-2009 08:35:42 2.5 C 3.91 g/m*3 2.5 C 0 km/h
2925 09-03-2009 08:47:41 3 C 3.92 g/m*3 3 C 0 km/h
Sensor: Nr:Datum:Temp:Abs-Feuchte:Windchill:Wind:
Aussen-T/F 2926 09-03-2009 08:59:41 3.4 C 3.97 g/m*3 3.4 C 0 km/h
2927 09-03-2009 09:11:41 3.5 C 4 g/m*3 3.5 C 0 km/h
2928 09-03-2009 09:23:40 3.3 C 4 g/m*3 3.3 C 0 km/h
2929 09-03-2009 09:35:41 3.7 C 4.11 g/m*3 3.7 C 0 km/h
2930 09-03-2009 09:47:40 4.2 C 3.99 g/m*3 4.2 C 0 km/h
2931 09-03-2009 09:59:40 4.5 C 4.01 g/m*3 4.5 C 0 km/h
2932 09-03-2009 10:11:41 4.7 C 4.13 g/m*3 4.7 C 0 km/h
2933 09-03-2009 10:23:40 5.1 C 3.97 g/m*3 5.1 C 0 km/h
2934 09-03-2009 10:35:40 5.3 C 4.02 g/m*3 5.3 C 0 km/h
2935 09-03-2009 10:47:39 5.6 C 4.03 g/m*3 5.6 C 0 km/h
2936 09-03-2009 10:59:40 5.6 C 3.96 g/m*3 5.6 C 0 km/h
2937 09-03-2009 11:11:40 6 C 3.92 g/m*3 6 C 0 km/h
2938 09-03-2009 11:23:40 5.8 C 3.94 g/m*3 5.8 C 0 km/h
2939 09-03-2009 11:35:39 6.4 C 3.95 g/m*3 6.4 C 0 km/h
2940 09-03-2009 11:47:40 6.1 C 3.8 g/m*3 6.1 C 0 km/h
2941 09-03-2009 11:59:39 6.5 C 3.97 g/m*3 6.5 C 0 km/h
2942 09-03-2009 12:11:39 7.2 C 3.92 g/m*3 7.2 C 0 km/h
2943 09-03-2009 12:23:39 7 C 3.56 g/m*3 7 C 0 km/h
2944 09-03-2009 12:35:38 7 C 3.64 g/m*3 7 C 0 km/h
2945 09-03-2009 12:47:39 7.2 C 3.69 g/m*3 7.2 C 0 km/h
2946 09-03-2009 12:59:39 7.7 C 3.49 g/m*3 7.7 C 0 km/h
2947 09-03-2009 13:11:39 7.7 C 3.49 g/m*3 7.7 C 0 km/h
2948 09-03-2009 13:23:38 7.4 C 3.42 g/m*3 7.4 C 0 km/h
2949 09-03-2009 13:35:39 7.5 C 3.52 g/m*3 7.5 C 0 km/h
2950 09-03-2009 13:47:38 7.7 C 3.24 g/m*3 7.7 C 0 km/h
Sensor: Nr:Datum:Temp:Abs-Feuchte:Windchill:Wind:
Aussen-T/F 2951 09-03-2009 13:59:38 8 C 3.22 g/m*3 8 C 0 km/h
2952 09-03-2009 14:11:38 7.7 C 3.24 g/m*3 7.7 C 0 km/h
2953 09-03-2009 14:23:38 8.2 C 3.35 g/m*3 8.2 C 0 km/h
2954 09-03-2009 14:35:38 8.4 C 3.48 g/m*3 8.4 C 0 km/h
2955 09-03-2009 14:47:37 8.3 C 3.46 g/m*3 8.3 C 0 km/h
2956 09-03-2009 14:59:38 7.2 C 3.69 g/m*3 7.2 C 0 km/h
2957 09-03-2009 15:11:38 6.3 C 4 g/m*3 6.3 C 0 km/h
2958 09-03-2009 15:23:37 6.9 C 4.16 g/m*3 6.9 C 0 km/h
2959 09-03-2009 15:35:37 8.1 C 3.83 g/m*3 8.1 C 0 km/h
2960 09-03-2009 15:47:38 8.7 C 3.63 g/m*3 8.7 C 0 km/h
2961 09-03-2009 15:59:37 8.6 C 3.52 g/m*3 8.6 C 0 km/h
2962 09-03-2009 16:11:37 9.5 C 3.55 g/m*3 9.5 C 0 km/h
2963 09-03-2009 16:23:37 8.7 C 3.55 g/m*3 8.7 C 0 km/h
2964 09-03-2009 16:35:36 8.7 C 3.72 g/m*3 8.7 C 0 km/h
2965 09-03-2009 16:47:37 8.8 C 3.74 g/m*3 8.8 C 0 km/h
2966 09-03-2009 16:59:36 9.1 C 3.37 g/m*3 9.1 C 0 km/h
2967 09-03-2009 17:11:36 8.3 C 3.37 g/m*3 8.3 C 0 km/h
2968 09-03-2009 17:23:36 8 C 3.47 g/m*3 8 C 0 km/h
2969 09-03-2009 17:35:37 7.9 C 3.61 g/m*3 7.9 C 0 km/h
2970 09-03-2009 17:47:36 7.5 C 3.68 g/m*3 7.5 C 0 km/h
2971 09-03-2009 17:59:36 7.4 C 3.66 g/m*3 7.4 C 0 km/h
2972 09-03-2009 18:11:36 7.4 C 3.74 g/m*3 7.4 C 0 km/h
2973 09-03-2009 18:23:36 7.3 C 3.71 g/m*3 7.3 C 0 km/h
2974 09-03-2009 18:35:36 7 C 3.87 g/m*3 7 C 0 km/h
2975 09-03-2009 18:47:35 6.7 C 4.1 g/m*3 6.7 C 0 km/h
Sensor: Nr:Datum:Temp:Abs-Feuchte:Windchill:Wind:
Aussen-T/F 2976 09-03-2009 18:59:35 6.4 C 4.17 g/m*3 6.4 C 0 km/h
2977 09-03-2009 19:11:35 6.4 C 4.1 g/m*3 6.4 C 0 km/h
2978 09-03-2009 19:23:35 6.2 C 3.82 g/m*3 6.2 C 0 km/h
2979 09-03-2009 19:35:35 6 C 3.85 g/m*3 6 C 0 km/h
2980 09-03-2009 19:47:34 5.8 C 4.01 g/m*3 5.8 C 0 km/h
2981 09-03-2009 19:59:35 5.8 C 4.08 g/m*3 5.8 C 0 km/h
2982 09-03-2009 20:11:35 5.8 C 4.23 g/m*3 5.8 C 0 km/h
2983 09-03-2009 20:23:35 5.5 C 4.28 g/m*3 5.5 C 0 km/h
2984 09-03-2009 20:35:34 5.2 C 4.34 g/m*3 5.2 C 0 km/h
2985 09-03-2009 20:47:35 4.9 C 4.46 g/m*3 4.9 C 0 km/h
2986 09-03-2009 20:59:34 4.8 C 4.56 g/m*3 4.8 C 0 km/h
2987 09-03-2009 21:11:34 4.6 C 4.57 g/m*3 4.6 C 0 km/h
2988 09-03-2009 21:23:34 4.4 C 4.64 g/m*3 4.4 C 0 km/h
2989 09-03-2009 21:35:34 4 C 4.77 g/m*3 4 C 0 km/h
2990 09-03-2009 21:48:35 3.8 C 4.89 g/m*3 3.8 C 0 km/h
2991 09-03-2009 22:00:35 3.8 C 4.89 g/m*3 3.8 C 0 km/h
2992 09-03-2009 22:12:35 4.1 C 4.86 g/m*3 4.1 C 0 km/h
2993 09-03-2009 22:24:35 3.7 C 4.8 g/m*3 3.7 C 0 km/h
2994 09-03-2009 22:36:35 4 C 4.58 g/m*3 4 C 0 km/h
2995 09-03-2009 22:48:35 3.9 C 4.61 g/m*3 3.9 C 0 km/h
2996 09-03-2009 23:00:35 3.7 C 4.61 g/m*3 3.7 C 0 km/h
2997 09-03-2009 23:12:35 3.5 C 4.61 g/m*3 3.5 C 0 km/h
2998 09-03-2009 23:24:35 3.3 C 4.67 g/m*3 3.3 C 0 km/h
2999 09-03-2009 23:36:35 3.2 C 4.7 g/m*3 3.2 C 0 km/h
3000 09-03-2009 23:48:35 3.4 C 4.83 g/m*3 3.4 C 0 km/h
Sensor: Nr:Datum:Temp:Abs-Feuchte:Windchill:Wind:
Aussen-T/F 3001 10-03-2009 00:00:35 3.4 C 4.83 g/m*3 3.4 C 0 km/h
3002 10-03-2009 00:12:35 3.3 C 4.79 g/m*3 3.3 C 0 km/h
3003 10-03-2009 00:24:35 3.4 C 4.89 g/m*3 3.4 C 0 km/h
3004 10-03-2009 00:36:35 3.7 C 4.92 g/m*3 3.7 C 0 km/h
3005 10-03-2009 00:48:35 3.9 C 4.86 g/m*3 3.9 C 0 km/h
3006 10-03-2009 01:00:35 4.1 C 4.8 g/m*3 4.1 C 0 km/h
3007 10-03-2009 01:12:35 4.2 C 4.77 g/m*3 4.2 C 0 km/h
3008 10-03-2009 01:24:36 4.3 C 4.67 g/m*3 4.3 C 0 km/h
3009 10-03-2009 01:36:36 4.3 C 4.67 g/m*3 4.3 C 0 km/h
3010 10-03-2009 01:48:36 4.4 C 4.64 g/m*3 4.4 C 0 km/h
3011 10-03-2009 02:00:36 4.5 C 4.6 g/m*3 4.5 C 0 km/h
3012 10-03-2009 02:12:36 4.4 C 4.64 g/m*3 4.4 C 0 km/h
3013 10-03-2009 02:24:36 4.6 C 4.57 g/m*3 4.6 C 0 km/h
3014 10-03-2009 02:36:36 4.7 C 4.46 g/m*3 4.7 C 0 km/h
3015 10-03-2009 02:48:36 4.7 C 4.4 g/m*3 4.7 C 0 km/h
3016 10-03-2009 03:00:36 4.7 C 4.4 g/m*3 4.7 C 0 km/h
3017 10-03-2009 03:12:36 4.5 C 4.4 g/m*3 4.5 C 0 km/h
3018 10-03-2009 03:24:36 4.5 C 4.4 g/m*3 4.5 C 0 km/h
3019 10-03-2009 03:36:36 4.5 C 4.4 g/m*3 4.5 C 0 km/h
3020 10-03-2009 03:48:36 4.5 C 4.47 g/m*3 4.5 C 0 km/h
3021 10-03-2009 04:00:36 4.6 C 4.43 g/m*3 4.6 C 0 km/h
3022 10-03-2009 04:12:36 4.5 C 4.4 g/m*3 4.5 C 0 km/h
3023 10-03-2009 04:24:36 4.6 C 4.43 g/m*3 4.6 C 0 km/h
3024 10-03-2009 04:36:36 4.5 C 4.4 g/m*3 4.5 C 0 km/h
3025 10-03-2009 04:48:36 4.4 C 4.44 g/m*3 4.4 C 0 km/h
Sensor: Nr:Datum:Temp:Abs-Feuchte:Windchill:Wind:
Aussen-T/F 3026 10-03-2009 05:00:36 4.4 C 4.37 g/m*3 4.4 C 0 km/h
3027 10-03-2009 05:12:37 4.4 C 4.44 g/m*3 4.4 C 0 km/h
3028 10-03-2009 05:24:37 4.4 C 4.44 g/m*3 4.4 C 0 km/h
3029 10-03-2009 05:36:37 4.3 C 4.48 g/m*3 4.3 C 0 km/h
3030 10-03-2009 05:48:37 4.3 C 4.54 g/m*3 4.3 C 0 km/h
3031 10-03-2009 06:00:37 4.3 C 4.61 g/m*3 4.3 C 0 km/h
3032 10-03-2009 06:12:37 4.1 C 4.61 g/m*3 4.1 C 0 km/h
3033 10-03-2009 06:24:37 4.2 C 4.64 g/m*3 4.2 C 0 km/h
3034 10-03-2009 06:36:37 4.2 C 4.64 g/m*3 4.2 C 0 km/h
3035 10-03-2009 06:48:37 4.3 C 4.67 g/m*3 4.3 C 0 km/h
3036 10-03-2009 07:00:35 4.3 C 4.61 g/m*3 4.3 C 0 km/h
3037 10-03-2009 07:12:35 4.3 C 4.61 g/m*3 4.3 C 0 km/h
3038 10-03-2009 07:24:34 4.2 C 4.64 g/m*3 4.2 C 0 km/h
3039 10-03-2009 07:36:35 4.2 C 4.64 g/m*3 4.2 C 0 km/h
3040 10-03-2009 07:48:34 4.3 C 4.74 g/m*3 4.3 C 0 km/h
3041 10-03-2009 08:00:34 4.5 C 4.73 g/m*3 4.5 C 0 km/h
3042 10-03-2009 08:12:34 4.7 C 4.73 g/m*3 4.7 C 0 km/h
3043 10-03-2009 08:24:35 4.8 C 4.76 g/m*3 4.8 C 0 km/h
3044 10-03-2009 08:36:34 4.9 C 4.73 g/m*3 4.9 C 0 km/h
3045 10-03-2009 08:48:34 5 C 4.69 g/m*3 5 C 0 km/h
3046 10-03-2009 09:00:33 5 C 4.69 g/m*3 5 C 0 km/h
3047 10-03-2009 09:12:33 5.2 C 4.75 g/m*3 5.2 C 0 km/h
3048 10-03-2009 09:24:34 5.2 C 4.68 g/m*3 5.2 C 0 km/h
3049 10-03-2009 09:36:34 5.3 C 4.64 g/m*3 5.3 C 0 km/h
3050 10-03-2009 09:48:33 5.3 C 4.64 g/m*3 5.3 C 0 km/h
Sensor: Nr:Datum:Temp:Abs-Feuchte:Windchill:Wind:
Aussen-T/F 3051 10-03-2009 10:00:34 5.4 C 4.6 g/m*3 5.4 C 0 km/h
3052 10-03-2009 10:12:34 5.5 C 4.64 g/m*3 5.5 C 0 km/h
3053 10-03-2009 10:24:33 5.6 C 4.67 g/m*3 5.6 C 0 km/h
3054 10-03-2009 10:36:33 5.7 C 4.63 g/m*3 5.7 C 0 km/h
3055 10-03-2009 10:48:33 5.9 C 4.69 g/m*3 5.9 C 0 km/h
3056 10-03-2009 11:00:33 6.1 C 4.6 g/m*3 6.1 C 0 km/h
3057 10-03-2009 11:12:33 6.3 C 4.59 g/m*3 6.3 C 0 km/h
3058 10-03-2009 11:24:32 6.4 C 4.62 g/m*3 6.4 C 0 km/h
3059 10-03-2009 11:36:33 6.3 C 4.66 g/m*3 6.3 C 0 km/h
3060 10-03-2009 11:48:32 6.3 C 4.66 g/m*3 6.3 C 0 km/h
3061 10-03-2009 12:00:32 6.4 C 4.69 g/m*3 6.4 C 0 km/h
3062 10-03-2009 12:12:32 6.5 C 4.65 g/m*3 6.5 C 0 km/h
3063 10-03-2009 12:24:32 6.6 C 4.6 g/m*3 6.6 C 0 km/h
3064 10-03-2009 12:36:32 6.5 C 4.57 g/m*3 6.5 C 0 km/h
3065 10-03-2009 12:48:32 6.5 C 4.57 g/m*3 6.5 C 0 km/h
3066 10-03-2009 13:00:31 6.6 C 4.6 g/m*3 6.6 C 0 km/h
3067 10-03-2009 13:12:31 6.7 C 4.64 g/m*3 6.7 C 0 km/h
3068 10-03-2009 13:24:32 6.8 C 4.67 g/m*3 6.8 C 0 km/h
3069 10-03-2009 13:36:31 6.8 C 4.67 g/m*3 6.8 C 0 km/h
3070 10-03-2009 13:48:31 7 C 4.65 g/m*3 7 C 0 km/h
3071 10-03-2009 14:00:31 7.1 C 4.6 g/m*3 7.1 C 0 km/h
3072 10-03-2009 14:12:31 7.1 C 4.52 g/m*3 7.1 C 0 km/h
3073 10-03-2009 14:24:31 7.1 C 4.6 g/m*3 7.1 C 0 km/h
3074 10-03-2009 14:36:31 6.9 C 4.7 g/m*3 6.9 C 0 km/h
3075 10-03-2009 14:48:31 6.8 C 4.74 g/m*3 6.8 C 0 km/h
Sensor: Nr:Datum:Temp:Abs-Feuchte:Windchill:Wind:
Aussen-T/F 3076 10-03-2009 15:00:31 6.8 C 4.67 g/m*3 6.8 C 0 km/h
3077 10-03-2009 15:12:31 6.8 C 4.67 g/m*3 6.8 C 0 km/h
3078 10-03-2009 15:24:30 6.6 C 4.6 g/m*3 6.6 C 0 km/h
3079 10-03-2009 15:36:30 6.4 C 4.62 g/m*3 6.4 C 0 km/h
3080 10-03-2009 15:48:30 6.4 C 4.55 g/m*3 6.4 C 0 km/h
3081 10-03-2009 16:00:30 6.4 C 4.32 g/m*3 6.4 C 0 km/h
3082 10-03-2009 16:12:30 6.4 C 4.47 g/m*3 6.4 C 0 km/h
3083 10-03-2009 16:24:29 5.9 C 4.47 g/m*3 5.9 C 0 km/h
3084 10-03-2009 16:36:30 5.7 C 4.7 g/m*3 5.7 C 0 km/h
3085 10-03-2009 16:48:30 5.4 C 4.74 g/m*3 5.4 C 0 km/h
3086 10-03-2009 17:00:29 5.6 C 4.88 g/m*3 5.6 C 0 km/h
3087 10-03-2009 17:12:29 5.6 C 4.81 g/m*3 5.6 C 0 km/h
3088 10-03-2009 17:24:30 5.8 C 4.87 g/m*3 5.8 C 0 km/h
3089 10-03-2009 17:36:29 5.7 C 4.91 g/m*3 5.7 C 0 km/h
3090 10-03-2009 17:48:29 5.7 C 4.91 g/m*3 5.7 C 0 km/h
3091 10-03-2009 18:00:28 5.8 C 5.01 g/m*3 5.8 C 0 km/h
3092 10-03-2009 18:12:28 5.7 C 5.05 g/m*3 5.7 C 0 km/h
3093 10-03-2009 18:24:29 5.8 C 5.09 g/m*3 5.8 C 0 km/h
3094 10-03-2009 18:36:29 5.8 C 5.09 g/m*3 5.8 C 0 km/h
3095 10-03-2009 18:48:28 5.9 C 5.19 g/m*3 5.9 C 0 km/h
3096 10-03-2009 19:00:29 6 C 5.15 g/m*3 6 C 0 km/h
3097 10-03-2009 19:12:29 6 C 5.23 g/m*3 6 C 0 km/h
3098 10-03-2009 19:24:28 6 C 5.3 g/m*3 6 C 0 km/h
3099 10-03-2009 19:36:28 6 C 5.37 g/m*3 6 C 0 km/h
3100 10-03-2009 19:48:28 5.8 C 5.73 g/m*3 5.8 C 0 km/h
Sensor: Nr:Datum:Temp:Abs-Feuchte:Windchill:Wind:
Aussen-T/F 3101 10-03-2009 20:00:28 5.8 C 5.87 g/m*3 5.8 C 0 km/h
3102 10-03-2009 20:12:28 5.8 C 5.95 g/m*3 5.8 C 0 km/h
3103 10-03-2009 20:24:27 5.9 C 5.98 g/m*3 5.9 C 0 km/h
3104 10-03-2009 20:36:27 6.5 C 5.92 g/m*3 6.5 C 0 km/h
3105 10-03-2009 20:48:27 6.9 C 5.62 g/m*3 6.9 C 0 km/h
3106 10-03-2009 21:00:27 7.2 C 5.34 g/m*3 7.2 C 0 km/h
3107 10-03-2009 21:12:27 7.3 C 5.21 g/m*3 7.3 C 0 km/h
3108 10-03-2009 21:24:27 7.3 C 5.21 g/m*3 7.3 C 0 km/h
3109 10-03-2009 21:36:27 6.8 C 5.51 g/m*3 6.8 C 0 km/h
3110 10-03-2009 21:49:28 6.2 C 5.44 g/m*3 6.2 C 0 km/h
3111 10-03-2009 22:01:28 5.7 C 5.34 g/m*3 5.7 C 0 km/h
3112 10-03-2009 22:13:28 5.6 C 5.3 g/m*3 5.6 C 0 km/h
3113 10-03-2009 22:25:28 5.4 C 5.37 g/m*3 5.4 C 0 km/h
3114 10-03-2009 22:37:28 5.3 C 5.34 g/m*3 5.3 C 0 km/h
3115 10-03-2009 22:49:28 5.2 C 5.51 g/m*3 5.2 C 0 km/h
3116 10-03-2009 23:01:28 5.1 C 5.47 g/m*3 5.1 C 0 km/h
3117 10-03-2009 23:13:28 5.1 C 5.47 g/m*3 5.1 C 0 km/h
3118 10-03-2009 23:25:28 5.2 C 5.37 g/m*3 5.2 C 0 km/h
3119 10-03-2009 23:37:28 5.4 C 5.02 g/m*3 5.4 C 0 km/h
3120 10-03-2009 23:49:28 5.4 C 4.81 g/m*3 5.4 C 0 km/h
3121 11-03-2009 00:01:28 5.5 C 4.64 g/m*3 5.5 C 0 km/h
3122 11-03-2009 00:13:28 5.5 C 4.78 g/m*3 5.5 C 0 km/h
3123 11-03-2009 00:25:28 5.3 C 4.78 g/m*3 5.3 C 0 km/h
3124 11-03-2009 00:37:28 5.1 C 4.72 g/m*3 5.1 C 0 km/h
3125 11-03-2009 00:49:28 5 C 4.69 g/m*3 5 C 0 km/h
Sensor: Nr:Datum:Temp:Abs-Feuchte:Windchill:Wind:
Aussen-T/F 3126 11-03-2009 01:01:28 4.8 C 4.69 g/m*3 4.8 C 0 km/h
3127 11-03-2009 01:13:29 4.8 C 4.69 g/m*3 4.8 C 0 km/h
3128 11-03-2009 01:25:29 4.9 C 4.66 g/m*3 4.9 C 0 km/h
3129 11-03-2009 01:37:29 4.9 C 4.66 g/m*3 4.9 C 0 km/h
3130 11-03-2009 01:49:29 4.8 C 4.63 g/m*3 4.8 C 0 km/h
3131 11-03-2009 02:01:29 4.9 C 4.59 g/m*3 4.9 C 0 km/h
3132 11-03-2009 02:13:29 5 C 4.48 g/m*3 5 C 0 km/h
3133 11-03-2009 02:25:29 4.9 C 4.52 g/m*3 4.9 C 0 km/h
3134 11-03-2009 02:37:29 4.9 C 4.59 g/m*3 4.9 C 0 km/h
3135 11-03-2009 02:49:29 4.8 C 4.56 g/m*3 4.8 C 0 km/h
3136 11-03-2009 03:01:29 4.6 C 4.5 g/m*3 4.6 C 0 km/h
3137 11-03-2009 03:13:29 4.5 C 4.54 g/m*3 4.5 C 0 km/h
3138 11-03-2009 03:25:29 4.5 C 4.54 g/m*3 4.5 C 0 km/h
3139 11-03-2009 03:37:29 4.6 C 4.57 g/m*3 4.6 C 0 km/h
3140 11-03-2009 03:49:29 4.7 C 4.46 g/m*3 4.7 C 0 km/h
3141 11-03-2009 04:01:29 4.7 C 4.46 g/m*3 4.7 C 0 km/h
3142 11-03-2009 04:13:29 4.7 C 4.4 g/m*3 4.7 C 0 km/h
3143 11-03-2009 04:25:29 4.7 C 4.33 g/m*3 4.7 C 0 km/h
3144 11-03-2009 04:37:29 4.7 C 4.33 g/m*3 4.7 C 0 km/h
3145 11-03-2009 04:49:29 4.7 C 4.33 g/m*3 4.7 C 0 km/h
3146 11-03-2009 05:01:30 4.7 C 4.26 g/m*3 4.7 C 0 km/h
3147 11-03-2009 05:13:30 4.6 C 4.23 g/m*3 4.6 C 0 km/h
3148 11-03-2009 05:25:30 4.6 C 4.23 g/m*3 4.6 C 0 km/h
3149 11-03-2009 05:37:30 4.6 C 4.17 g/m*3 4.6 C 0 km/h
3150 11-03-2009 05:49:30 4.6 C 4.17 g/m*3 4.6 C 0 km/h
Sensor: Nr:Datum:Temp:Abs-Feuchte:Windchill:Wind:
Aussen-T/F 3151 11-03-2009 06:01:30 4.6 C 4.1 g/m*3 4.6 C 0 km/h
3152 11-03-2009 06:13:30 4.1 C 4.22 g/m*3 4.1 C 0 km/h
3153 11-03-2009 06:25:30 3.9 C 4.55 g/m*3 3.9 C 0 km/h
3154 11-03-2009 06:37:30 3.6 C 4.7 g/m*3 3.6 C 0 km/h
3155 11-03-2009 06:49:30 3.6 C 4.83 g/m*3 3.6 C 0 km/h
3156 11-03-2009 07:01:27 3.7 C 4.86 g/m*3 3.7 C 0 km/h
3157 11-03-2009 07:13:28 3.9 C 4.86 g/m*3 3.9 C 0 km/h
3158 11-03-2009 07:25:28 3.9 C 4.86 g/m*3 3.9 C 0 km/h
3159 11-03-2009 07:37:27 3.8 C 4.89 g/m*3 3.8 C 0 km/h
3160 11-03-2009 07:49:27 4 C 4.83 g/m*3 4 C 0 km/h
3161 11-03-2009 08:01:27 4.3 C 4.74 g/m*3 4.3 C 0 km/h
3162 11-03-2009 08:13:27 4.5 C 4.6 g/m*3 4.5 C 0 km/h
3163 11-03-2009 08:25:27 4.5 C 4.6 g/m*3 4.5 C 0 km/h
3164 11-03-2009 08:37:26 4.7 C 4.6 g/m*3 4.7 C 0 km/h
3165 11-03-2009 08:49:27 4.9 C 4.59 g/m*3 4.9 C 0 km/h
3166 11-03-2009 09:01:26 4.8 C 4.69 g/m*3 4.8 C 0 km/h
3167 11-03-2009 09:13:26 4.6 C 4.83 g/m*3 4.6 C 0 km/h
3168 11-03-2009 09:25:26 4.6 C 4.83 g/m*3 4.6 C 0 km/h
3169 11-03-2009 09:37:26 4.8 C 4.9 g/m*3 4.8 C 0 km/h
3170 11-03-2009 09:49:26 4.9 C 4.93 g/m*3 4.9 C 0 km/h
3171 11-03-2009 10:01:25 4.9 C 4.79 g/m*3 4.9 C 0 km/h
3172 11-03-2009 10:13:26 5 C 4.69 g/m*3 5 C 0 km/h
3173 11-03-2009 10:25:26 4.8 C 4.69 g/m*3 4.8 C 0 km/h
3174 11-03-2009 10:37:25 4.8 C 4.69 g/m*3 4.8 C 0 km/h
3175 11-03-2009 10:49:25 4.8 C 4.63 g/m*3 4.8 C 0 km/h
Sensor: Nr:Datum:Temp:Abs-Feuchte:Windchill:Wind:
Aussen-T/F 3176 11-03-2009 11:01:26 5.2 C 4.54 g/m*3 5.2 C 0 km/h
3177 11-03-2009 11:13:25 5.2 C 4.54 g/m*3 5.2 C 0 km/h
3178 11-03-2009 11:25:25 5.2 C 4.48 g/m*3 5.2 C 0 km/h
3179 11-03-2009 11:37:25 5.4 C 4.47 g/m*3 5.4 C 0 km/h
3180 11-03-2009 11:49:25 5.9 C 4.54 g/m*3 5.9 C 0 km/h
3181 11-03-2009 12:01:25 6.7 C 4.33 g/m*3 6.7 C 0 km/h
3182 11-03-2009 12:13:24 7.1 C 4.21 g/m*3 7.1 C 0 km/h
3183 11-03-2009 12:25:24 7.4 C 4.29 g/m*3 7.4 C 0 km/h
3184 11-03-2009 12:37:24 7.3 C 3.95 g/m*3 7.3 C 0 km/h
3185 11-03-2009 12:49:24 7.4 C 4.06 g/m*3 7.4 C 0 km/h
3186 11-03-2009 13:01:24 7.1 C 4.06 g/m*3 7.1 C 0 km/h
3187 11-03-2009 13:13:24 6.2 C 4.63 g/m*3 6.2 C 0 km/h
3188 11-03-2009 13:25:24 6.5 C 4.87 g/m*3 6.5 C 0 km/h
3189 11-03-2009 13:37:24 7.3 C 4.82 g/m*3 7.3 C 0 km/h
3190 11-03-2009 13:49:24 7.9 C 4.19 g/m*3 7.9 C 0 km/h
3191 11-03-2009 14:01:23 8 C 3.72 g/m*3 8 C 0 km/h
3192 11-03-2009 14:13:24 8.1 C 3.91 g/m*3 8.1 C 0 km/h
3193 11-03-2009 14:25:24 7.6 C 3.79 g/m*3 7.6 C 0 km/h
3194 11-03-2009 14:37:23 8.5 C 3.5 g/m*3 8.5 C 0 km/h
3195 11-03-2009 14:49:23 8.5 C 3.42 g/m*3 8.5 C 0 km/h
3196 11-03-2009 15:01:23 8.6 C 3.52 g/m*3 8.6 C 0 km/h
3197 11-03-2009 15:13:23 9.3 C 3.5 g/m*3 9.3 C 0 km/h
3198 11-03-2009 15:25:23 9.4 C 3.62 g/m*3 9.4 C 0 km/h
3199 11-03-2009 15:37:23 9.7 C 3.69 g/m*3 9.7 C 0 km/h
3200 11-03-2009 15:49:22 9.1 C 3.64 g/m*3 9.1 C 0 km/h
Sensor: Nr:Datum:Temp:Abs-Feuchte:Windchill:Wind:
Aussen-T/F 3201 11-03-2009 16:01:23 8.5 C 3.59 g/m*3 8.5 C 0 km/h
3202 11-03-2009 16:13:22 8.4 C 3.73 g/m*3 8.4 C 0 km/h
3203 11-03-2009 16:25:22 8.5 C 3.84 g/m*3 8.5 C 0 km/h
3204 11-03-2009 16:37:22 8.6 C 3.95 g/m*3 8.6 C 0 km/h
3205 11-03-2009 16:49:22 8.3 C 3.88 g/m*3 8.3 C 0 km/h
3206 11-03-2009 17:01:22 9.1 C 4.08 g/m*3 9.1 C 0 km/h
3207 11-03-2009 17:13:21 8.5 C 3.67 g/m*3 8.5 C 0 km/h
3208 11-03-2009 17:25:21 8.4 C 3.82 g/m*3 8.4 C 0 km/h
3209 11-03-2009 17:37:22 8.3 C 3.71 g/m*3 8.3 C 0 km/h
3210 11-03-2009 17:49:21 8.3 C 3.71 g/m*3 8.3 C 0 km/h
3211 11-03-2009 18:01:21 8.1 C 3.66 g/m*3 8.1 C 0 km/h
3212 11-03-2009 18:13:22 7.6 C 3.79 g/m*3 7.6 C 0 km/h
3213 11-03-2009 18:25:22 7.1 C 3.9 g/m*3 7.1 C 0 km/h
3214 11-03-2009 18:37:21 6.8 C 4.13 g/m*3 6.8 C 0 km/h
3215 11-03-2009 18:49:21 6.5 C 4.12 g/m*3 6.5 C 0 km/h
3216 11-03-2009 19:01:20 6.4 C 4.17 g/m*3 6.4 C 0 km/h
3217 11-03-2009 19:13:21 6.3 C 4.22 g/m*3 6.3 C 0 km/h
3218 11-03-2009 19:25:21 6.1 C 4.02 g/m*3 6.1 C 0 km/h
3219 11-03-2009 19:37:20 5.8 C 4.01 g/m*3 5.8 C 0 km/h
3220 11-03-2009 19:49:20 5.6 C 4.03 g/m*3 5.6 C 0 km/h
3221 11-03-2009 20:01:20 5.7 C 4.06 g/m*3 5.7 C 0 km/h
3222 11-03-2009 20:13:20 5.8 C 4.01 g/m*3 5.8 C 0 km/h
3223 11-03-2009 20:25:20 5.5 C 4 g/m*3 5.5 C 0 km/h
3224 11-03-2009 20:37:20 5.3 C 4.02 g/m*3 5.3 C 0 km/h
3225 11-03-2009 20:49:20 5.1 C 4.04 g/m*3 5.1 C 0 km/h
Sensor: Nr:Datum:Temp:Abs-Feuchte:Windchill:Wind:
Aussen-T/F 3226 11-03-2009 21:01:20 4.8 C 4.09 g/m*3 4.8 C 0 km/h
3227 11-03-2009 21:13:20 4.6 C 4.1 g/m*3 4.6 C 0 km/h
3228 11-03-2009 21:25:20 4.3 C 4.15 g/m*3 4.3 C 0 km/h
3229 11-03-2009 21:37:19 4.2 C 4.19 g/m*3 4.2 C 0 km/h
3230 11-03-2009 21:49:20 4 C 4.13 g/m*3 4 C 0 km/h
3231 11-03-2009 22:02:20 4.1 C 4.16 g/m*3 4.1 C 0 km/h
3232 11-03-2009 22:14:20 3.7 C 4.18 g/m*3 3.7 C 0 km/h
3233 11-03-2009 22:26:20 3.5 C 4.18 g/m*3 3.5 C 0 km/h
3234 11-03-2009 22:38:20 3.4 C 4.15 g/m*3 3.4 C 0 km/h
3235 11-03-2009 22:50:21 3.1 C 4.13 g/m*3 3.1 C 0 km/h
3236 11-03-2009 23:02:21 3.3 C 4.19 g/m*3 3.3 C 0 km/h
3237 11-03-2009 23:14:21 3 C 4.16 g/m*3 3 C 0 km/h
3238 11-03-2009 23:26:21 2.8 C 4.22 g/m*3 2.8 C 0 km/h
3239 11-03-2009 23:38:21 2.8 C 4.28 g/m*3 2.8 C 0 km/h
3240 11-03-2009 23:50:21 3.1 C 4.25 g/m*3 3.1 C 0 km/h
3241 12-03-2009 00:02:21 3.4 C 4.28 g/m*3 3.4 C 0 km/h
3242 12-03-2009 00:14:21 3.5 C 4.24 g/m*3 3.5 C 0 km/h
3243 12-03-2009 00:26:21 3.5 C 4.18 g/m*3 3.5 C 0 km/h